<?xml version="1.0" encoding="UTF-8" standalone="no" ?>
<gpx xmlns="http://www.topografix.com/GPX/1/1" xmlns:xsi="http://www.w3.org/2001/XMLSchema-instance" xsi:schemaLocation="http://www.topografix.com/GPX/1/1 http://www.topografix.com/GPX/1/1/gpx.xsd" version="1.1" creator="VisuGPX - https://www.visugpx.com">
  <metadata>
    <name>E09-Colmar-Chatenois-IVV-2024</name>
  </metadata>
  <wpt lat="48.08676" lon="7.27795">
    <ele>237</ele>
    <name><![CDATA[Porte de Turckheim]]></name>
  </wpt>
  <wpt lat="48.1254" lon="7.28141">
    <ele>239</ele>
    <name><![CDATA[Ammerschwihr]]></name>
  </wpt>
  <wpt lat="48.13529" lon="7.28746">
    <ele>223</ele>
    <name><![CDATA[Photographe]]></name>
  </wpt>
  <wpt lat="48.19298" lon="7.3245">
    <ele>241.8</ele>
    <name><![CDATA[Ribeauvillé]]></name>
  </wpt>
  <wpt lat="48.24925" lon="7.34602">
    <ele>693.5</ele>
    <name><![CDATA[BPF 67 - Château du Ht-Koenigsbourg]]></name>
  </wpt>
  <wpt lat="48.06243" lon="7.29225">
    <ele>274.4</ele>
    <name><![CDATA[Vestiges romains]]></name>
  </wpt>
  <wpt lat="48.0429" lon="7.30628">
    <ele>207</ele>
    <name><![CDATA[Eguisheim]]></name>
  </wpt>
  <wpt lat="48.13988" lon="7.26079">
    <ele>248.5</ele>
    <name><![CDATA[Kaysersberg]]></name>
  </wpt>
  <wpt lat="48.16725" lon="7.29509">
    <ele>313.4</ele>
    <name><![CDATA[BPF 67 - Riquewihr]]></name>
  </wpt>
  <wpt lat="48.17827" lon="7.31314">
    <ele>261.9</ele>
    <name><![CDATA[Hunawihr]]></name>
  </wpt>
  <wpt lat="48.20585" lon="7.35854">
    <ele>214.3</ele>
    <name><![CDATA[Bergheim]]></name>
  </wpt>
  <wpt lat="48.24401" lon="7.32661">
    <ele>582</ele>
    <name><![CDATA[Col de Schaentzel]]></name>
  </wpt>
  <wpt lat="48.09457" lon="7.27589">
    <ele>326.8</ele>
    <name><![CDATA[Col 1ère cat.]]></name>
  </wpt>
  <wpt lat="48.24986" lon="7.34568">
    <ele>700.1</ele>
    <name><![CDATA[Château du Hauit-Koenigsbourg]]></name>
  </wpt>
  <trk>
    <name><![CDATA[E09-IVV-2024]]></name>
    <extensions>
      <line xmlns="http://www.topografix.com/GPX/gpx_style/0/2">
        <color>0000FF</color>
        <width>4</width>
      </line>
    </extensions>
    <trkseg>
      <trkpt lat="48.08421" lon="7.31361">
        <ele>216</ele>
        <time>2024-01-23T18:33:10Z</time>
      </trkpt>
      <trkpt lat="48.08429" lon="7.31353">
        <ele>216</ele>
        <time>2024-01-23T18:33:12Z</time>
      </trkpt>
      <trkpt lat="48.08456" lon="7.31354">
        <ele>215</ele>
        <time>2024-01-23T18:33:17Z</time>
      </trkpt>
      <trkpt lat="48.08461" lon="7.31341">
        <ele>215</ele>
        <time>2024-01-23T18:33:18Z</time>
      </trkpt>
      <trkpt lat="48.08466" lon="7.31344">
        <ele>215</ele>
        <time>2024-01-23T18:33:19Z</time>
      </trkpt>
      <trkpt lat="48.08525" lon="7.31347">
        <ele>215</ele>
        <time>2024-01-23T18:33:30Z</time>
      </trkpt>
      <trkpt lat="48.08534" lon="7.31352">
        <ele>215</ele>
        <time>2024-01-23T18:33:31Z</time>
      </trkpt>
      <trkpt lat="48.08534" lon="7.31363">
        <ele>215</ele>
        <time>2024-01-23T18:33:33Z</time>
      </trkpt>
      <trkpt lat="48.08536" lon="7.31369">
        <ele>215</ele>
        <time>2024-01-23T18:33:34Z</time>
      </trkpt>
      <trkpt lat="48.08544" lon="7.31374">
        <ele>215</ele>
        <time>2024-01-23T18:33:35Z</time>
      </trkpt>
      <trkpt lat="48.08551" lon="7.31372">
        <ele>215</ele>
        <time>2024-01-23T18:33:36Z</time>
      </trkpt>
      <trkpt lat="48.08556" lon="7.31361">
        <ele>215</ele>
        <time>2024-01-23T18:33:38Z</time>
      </trkpt>
      <trkpt lat="48.08556" lon="7.31355">
        <ele>215</ele>
        <time>2024-01-23T18:33:39Z</time>
      </trkpt>
      <trkpt lat="48.08554" lon="7.31347">
        <ele>216</ele>
        <time>2024-01-23T18:33:40Z</time>
      </trkpt>
      <trkpt lat="48.0855" lon="7.31342">
        <ele>216</ele>
        <time>2024-01-23T18:33:41Z</time>
      </trkpt>
      <trkpt lat="48.08543" lon="7.31341">
        <ele>215</ele>
        <time>2024-01-23T18:33:42Z</time>
      </trkpt>
      <trkpt lat="48.08539" lon="7.31324">
        <ele>215</ele>
        <time>2024-01-23T18:33:44Z</time>
      </trkpt>
      <trkpt lat="48.08535" lon="7.31289">
        <ele>215</ele>
        <time>2024-01-23T18:33:48Z</time>
      </trkpt>
      <trkpt lat="48.08537" lon="7.31127">
        <ele>216</ele>
        <time>2024-01-23T18:34:07Z</time>
      </trkpt>
      <trkpt lat="48.08536" lon="7.31084">
        <ele>216</ele>
        <time>2024-01-23T18:34:13Z</time>
      </trkpt>
      <trkpt lat="48.08541" lon="7.31062">
        <ele>216</ele>
        <time>2024-01-23T18:34:15Z</time>
      </trkpt>
      <trkpt lat="48.08539" lon="7.31047">
        <ele>216</ele>
        <time>2024-01-23T18:34:17Z</time>
      </trkpt>
      <trkpt lat="48.08535" lon="7.31036">
        <ele>216</ele>
        <time>2024-01-23T18:34:19Z</time>
      </trkpt>
      <trkpt lat="48.08462" lon="7.31056">
        <ele>216</ele>
        <time>2024-01-23T18:34:32Z</time>
      </trkpt>
      <trkpt lat="48.0845" lon="7.31057">
        <ele>217</ele>
        <time>2024-01-23T18:34:34Z</time>
      </trkpt>
      <trkpt lat="48.08445" lon="7.31049">
        <ele>217</ele>
        <time>2024-01-23T18:34:35Z</time>
      </trkpt>
      <trkpt lat="48.08405" lon="7.31012">
        <ele>218</ele>
        <time>2024-01-23T18:34:44Z</time>
      </trkpt>
      <trkpt lat="48.08394" lon="7.30985">
        <ele>217</ele>
        <time>2024-01-23T18:34:47Z</time>
      </trkpt>
      <trkpt lat="48.08391" lon="7.30953">
        <ele>217</ele>
        <time>2024-01-23T18:34:51Z</time>
      </trkpt>
      <trkpt lat="48.08387" lon="7.30889">
        <ele>216</ele>
        <time>2024-01-23T18:34:59Z</time>
      </trkpt>
      <trkpt lat="48.08393" lon="7.30761">
        <ele>219</ele>
        <time>2024-01-23T18:35:14Z</time>
      </trkpt>
      <trkpt lat="48.08403" lon="7.30639">
        <ele>219</ele>
        <time>2024-01-23T18:35:29Z</time>
      </trkpt>
      <trkpt lat="48.08417" lon="7.305">
        <ele>218</ele>
        <time>2024-01-23T18:35:46Z</time>
      </trkpt>
      <trkpt lat="48.08428" lon="7.30415">
        <ele>220</ele>
        <time>2024-01-23T18:35:56Z</time>
      </trkpt>
      <trkpt lat="48.08455" lon="7.30254">
        <ele>221</ele>
        <time>2024-01-23T18:36:16Z</time>
      </trkpt>
      <trkpt lat="48.0846" lon="7.30211">
        <ele>220</ele>
        <time>2024-01-23T18:36:21Z</time>
      </trkpt>
      <trkpt lat="48.08463" lon="7.30162">
        <ele>220</ele>
        <time>2024-01-23T18:36:27Z</time>
      </trkpt>
      <trkpt lat="48.08458" lon="7.30072">
        <ele>221</ele>
        <time>2024-01-23T18:36:37Z</time>
      </trkpt>
      <trkpt lat="48.08421" lon="7.29789">
        <ele>223</ele>
        <time>2024-01-23T18:37:12Z</time>
      </trkpt>
      <trkpt lat="48.08415" lon="7.29713">
        <ele>223</ele>
        <time>2024-01-23T18:37:21Z</time>
      </trkpt>
      <trkpt lat="48.08406" lon="7.29538">
        <ele>227</ele>
        <time>2024-01-23T18:37:42Z</time>
      </trkpt>
      <trkpt lat="48.08408" lon="7.29417">
        <ele>227</ele>
        <time>2024-01-23T18:37:56Z</time>
      </trkpt>
      <trkpt lat="48.08407" lon="7.2931">
        <ele>226</ele>
        <time>2024-01-23T18:38:09Z</time>
      </trkpt>
      <trkpt lat="48.08403" lon="7.29252">
        <ele>228</ele>
        <time>2024-01-23T18:38:16Z</time>
      </trkpt>
      <trkpt lat="48.08394" lon="7.29155">
        <ele>229</ele>
        <time>2024-01-23T18:38:27Z</time>
      </trkpt>
      <trkpt lat="48.08392" lon="7.29123">
        <ele>229</ele>
        <time>2024-01-23T18:38:31Z</time>
      </trkpt>
      <trkpt lat="48.08419" lon="7.28885">
        <ele>231</ele>
        <time>2024-01-23T18:39:00Z</time>
      </trkpt>
      <trkpt lat="48.08483" lon="7.28717">
        <ele>233</ele>
        <time>2024-01-23T18:39:23Z</time>
      </trkpt>
      <trkpt lat="48.08487" lon="7.28698">
        <ele>233</ele>
        <time>2024-01-23T18:39:25Z</time>
      </trkpt>
      <trkpt lat="48.08492" lon="7.28698">
        <ele>233</ele>
        <time>2024-01-23T18:39:26Z</time>
      </trkpt>
      <trkpt lat="48.08497" lon="7.28695">
        <ele>233</ele>
        <time>2024-01-23T18:39:27Z</time>
      </trkpt>
      <trkpt lat="48.085" lon="7.28689">
        <ele>233</ele>
        <time>2024-01-23T18:39:28Z</time>
      </trkpt>
      <trkpt lat="48.085" lon="7.28679">
        <ele>233</ele>
        <time>2024-01-23T18:39:29Z</time>
      </trkpt>
      <trkpt lat="48.08495" lon="7.28671">
        <ele>233</ele>
        <time>2024-01-23T18:39:30Z</time>
      </trkpt>
      <trkpt lat="48.08505" lon="7.28626">
        <ele>233</ele>
        <time>2024-01-23T18:39:36Z</time>
      </trkpt>
      <trkpt lat="48.08511" lon="7.28561">
        <ele>233</ele>
        <time>2024-01-23T18:39:44Z</time>
      </trkpt>
      <trkpt lat="48.08529" lon="7.28379">
        <ele>233</ele>
        <time>2024-01-23T18:40:06Z</time>
      </trkpt>
      <trkpt lat="48.0853" lon="7.28343">
        <ele>233</ele>
        <time>2024-01-23T18:40:10Z</time>
      </trkpt>
      <trkpt lat="48.08529" lon="7.28315">
        <ele>233</ele>
        <time>2024-01-23T18:40:13Z</time>
      </trkpt>
      <trkpt lat="48.08522" lon="7.28261">
        <ele>233</ele>
        <time>2024-01-23T18:40:20Z</time>
      </trkpt>
      <trkpt lat="48.08512" lon="7.28197">
        <ele>233</ele>
        <time>2024-01-23T18:40:28Z</time>
      </trkpt>
      <trkpt lat="48.08512" lon="7.28166">
        <ele>234</ele>
        <time>2024-01-23T18:40:31Z</time>
      </trkpt>
      <trkpt lat="48.08513" lon="7.28159">
        <ele>234</ele>
        <time>2024-01-23T18:40:32Z</time>
      </trkpt>
      <trkpt lat="48.08558" lon="7.28062">
        <ele>234</ele>
        <time>2024-01-23T18:40:46Z</time>
      </trkpt>
      <trkpt lat="48.08577" lon="7.28032">
        <ele>234</ele>
        <time>2024-01-23T18:40:51Z</time>
      </trkpt>
      <trkpt lat="48.08593" lon="7.27998">
        <ele>234</ele>
        <time>2024-01-23T18:40:56Z</time>
      </trkpt>
      <trkpt lat="48.08626" lon="7.27935">
        <ele>236</ele>
        <time>2024-01-23T18:41:06Z</time>
      </trkpt>
      <trkpt lat="48.08626" lon="7.27926">
        <ele>236</ele>
        <time>2024-01-23T18:41:07Z</time>
      </trkpt>
      <trkpt lat="48.08619" lon="7.27887">
        <ele>236</ele>
        <time>2024-01-23T18:41:11Z</time>
      </trkpt>
      <trkpt lat="48.08612" lon="7.27862">
        <ele>237</ele>
        <time>2024-01-23T18:41:15Z</time>
      </trkpt>
      <trkpt lat="48.08602" lon="7.27836">
        <ele>237</ele>
        <time>2024-01-23T18:41:18Z</time>
      </trkpt>
      <trkpt lat="48.08644" lon="7.27813">
        <ele>239</ele>
        <time>2024-01-23T18:41:26Z</time>
      </trkpt>
      <trkpt lat="48.08659" lon="7.278">
        <ele>240</ele>
        <time>2024-01-23T18:41:29Z</time>
      </trkpt>
      <trkpt lat="48.0868" lon="7.27792">
        <ele>240</ele>
        <time>2024-01-23T18:41:33Z</time>
      </trkpt>
      <trkpt lat="48.08684" lon="7.27799">
        <ele>240</ele>
        <time>2024-01-23T18:41:34Z</time>
      </trkpt>
      <trkpt lat="48.08689" lon="7.27802">
        <ele>240</ele>
        <time>2024-01-23T18:41:35Z</time>
      </trkpt>
      <trkpt lat="48.0871" lon="7.27798">
        <ele>240</ele>
        <time>2024-01-23T18:41:39Z</time>
      </trkpt>
      <trkpt lat="48.08751" lon="7.27774">
        <ele>239</ele>
        <time>2024-01-23T18:41:47Z</time>
      </trkpt>
      <trkpt lat="48.08782" lon="7.27764">
        <ele>239</ele>
        <time>2024-01-23T18:41:52Z</time>
      </trkpt>
      <trkpt lat="48.08785" lon="7.27761">
        <ele>239</ele>
        <time>2024-01-23T18:41:53Z</time>
      </trkpt>
      <trkpt lat="48.08792" lon="7.27781">
        <ele>240</ele>
        <time>2024-01-23T18:41:56Z</time>
      </trkpt>
      <trkpt lat="48.08813" lon="7.279">
        <ele>240</ele>
        <time>2024-01-23T18:42:10Z</time>
      </trkpt>
      <trkpt lat="48.0883" lon="7.27896">
        <ele>240</ele>
        <time>2024-01-23T18:42:13Z</time>
      </trkpt>
      <trkpt lat="48.08852" lon="7.27863">
        <ele>240</ele>
        <time>2024-01-23T18:42:19Z</time>
      </trkpt>
      <trkpt lat="48.08918" lon="7.2783">
        <ele>241</ele>
        <time>2024-01-23T18:42:31Z</time>
      </trkpt>
      <trkpt lat="48.08927" lon="7.27866">
        <ele>243</ele>
        <time>2024-01-23T18:42:36Z</time>
      </trkpt>
      <trkpt lat="48.08949" lon="7.27842">
        <ele>247</ele>
        <time>2024-01-23T18:42:41Z</time>
      </trkpt>
      <trkpt lat="48.08957" lon="7.27823">
        <ele>248</ele>
        <time>2024-01-23T18:42:43Z</time>
      </trkpt>
      <trkpt lat="48.08961" lon="7.278">
        <ele>248</ele>
        <time>2024-01-23T18:42:46Z</time>
      </trkpt>
      <trkpt lat="48.08966" lon="7.27751">
        <ele>248</ele>
        <time>2024-01-23T18:42:52Z</time>
      </trkpt>
      <trkpt lat="48.08966" lon="7.27735">
        <ele>250</ele>
        <time>2024-01-23T18:42:54Z</time>
      </trkpt>
      <trkpt lat="48.08964" lon="7.27722">
        <ele>251</ele>
        <time>2024-01-23T18:42:56Z</time>
      </trkpt>
      <trkpt lat="48.08956" lon="7.27697">
        <ele>252</ele>
        <time>2024-01-23T18:42:59Z</time>
      </trkpt>
      <trkpt lat="48.08942" lon="7.27662">
        <ele>253</ele>
        <time>2024-01-23T18:43:04Z</time>
      </trkpt>
      <trkpt lat="48.08927" lon="7.2764">
        <ele>253</ele>
        <time>2024-01-23T18:43:07Z</time>
      </trkpt>
      <trkpt lat="48.08924" lon="7.27633">
        <ele>253</ele>
        <time>2024-01-23T18:43:08Z</time>
      </trkpt>
      <trkpt lat="48.08923" lon="7.27622">
        <ele>254</ele>
        <time>2024-01-23T18:43:10Z</time>
      </trkpt>
      <trkpt lat="48.08927" lon="7.2761">
        <ele>256</ele>
        <time>2024-01-23T18:43:11Z</time>
      </trkpt>
      <trkpt lat="48.08932" lon="7.27607">
        <ele>258</ele>
        <time>2024-01-23T18:43:12Z</time>
      </trkpt>
      <trkpt lat="48.08941" lon="7.27609">
        <ele>259</ele>
        <time>2024-01-23T18:43:14Z</time>
      </trkpt>
      <trkpt lat="48.08961" lon="7.27631">
        <ele>259</ele>
        <time>2024-01-23T18:43:18Z</time>
      </trkpt>
      <trkpt lat="48.08976" lon="7.27642">
        <ele>260</ele>
        <time>2024-01-23T18:43:21Z</time>
      </trkpt>
      <trkpt lat="48.09002" lon="7.27654">
        <ele>263</ele>
        <time>2024-01-23T18:43:26Z</time>
      </trkpt>
      <trkpt lat="48.09017" lon="7.27656">
        <ele>262</ele>
        <time>2024-01-23T18:43:29Z</time>
      </trkpt>
      <trkpt lat="48.09039" lon="7.27655">
        <ele>263</ele>
        <time>2024-01-23T18:43:33Z</time>
      </trkpt>
      <trkpt lat="48.09112" lon="7.27643">
        <ele>267</ele>
        <time>2024-01-23T18:43:46Z</time>
      </trkpt>
      <trkpt lat="48.09129" lon="7.27634">
        <ele>270</ele>
        <time>2024-01-23T18:43:49Z</time>
      </trkpt>
      <trkpt lat="48.09149" lon="7.27616">
        <ele>272</ele>
        <time>2024-01-23T18:43:53Z</time>
      </trkpt>
      <trkpt lat="48.09155" lon="7.27614">
        <ele>273</ele>
        <time>2024-01-23T18:43:54Z</time>
      </trkpt>
      <trkpt lat="48.09161" lon="7.27616">
        <ele>273</ele>
        <time>2024-01-23T18:43:55Z</time>
      </trkpt>
      <trkpt lat="48.09174" lon="7.27625">
        <ele>275</ele>
        <time>2024-01-23T18:43:58Z</time>
      </trkpt>
      <trkpt lat="48.09182" lon="7.27639">
        <ele>276</ele>
        <time>2024-01-23T18:44:00Z</time>
      </trkpt>
      <trkpt lat="48.09196" lon="7.27691">
        <ele>279</ele>
        <time>2024-01-23T18:44:07Z</time>
      </trkpt>
      <trkpt lat="48.09206" lon="7.27751">
        <ele>281</ele>
        <time>2024-01-23T18:44:14Z</time>
      </trkpt>
      <trkpt lat="48.0922" lon="7.27863">
        <ele>290</ele>
        <time>2024-01-23T18:44:28Z</time>
      </trkpt>
      <trkpt lat="48.09218" lon="7.27879">
        <ele>290</ele>
        <time>2024-01-23T18:44:30Z</time>
      </trkpt>
      <trkpt lat="48.0921" lon="7.27911">
        <ele>290</ele>
        <time>2024-01-23T18:44:34Z</time>
      </trkpt>
      <trkpt lat="48.09212" lon="7.27925">
        <ele>291</ele>
        <time>2024-01-23T18:44:35Z</time>
      </trkpt>
      <trkpt lat="48.09217" lon="7.27931">
        <ele>292</ele>
        <time>2024-01-23T18:44:37Z</time>
      </trkpt>
      <trkpt lat="48.09223" lon="7.27933">
        <ele>294</ele>
        <time>2024-01-23T18:44:38Z</time>
      </trkpt>
      <trkpt lat="48.09229" lon="7.27931">
        <ele>295</ele>
        <time>2024-01-23T18:44:39Z</time>
      </trkpt>
      <trkpt lat="48.09235" lon="7.27922">
        <ele>295</ele>
        <time>2024-01-23T18:44:40Z</time>
      </trkpt>
      <trkpt lat="48.09249" lon="7.27857">
        <ele>296</ele>
        <time>2024-01-23T18:44:48Z</time>
      </trkpt>
      <trkpt lat="48.09257" lon="7.27832">
        <ele>298</ele>
        <time>2024-01-23T18:44:52Z</time>
      </trkpt>
      <trkpt lat="48.0927" lon="7.27796">
        <ele>300</ele>
        <time>2024-01-23T18:44:56Z</time>
      </trkpt>
      <trkpt lat="48.09294" lon="7.27744">
        <ele>304</ele>
        <time>2024-01-23T18:45:04Z</time>
      </trkpt>
      <trkpt lat="48.0935" lon="7.27579">
        <ele>310</ele>
        <time>2024-01-23T18:45:26Z</time>
      </trkpt>
      <trkpt lat="48.09359" lon="7.27564">
        <ele>311</ele>
        <time>2024-01-23T18:45:28Z</time>
      </trkpt>
      <trkpt lat="48.09371" lon="7.27553">
        <ele>312</ele>
        <time>2024-01-23T18:45:31Z</time>
      </trkpt>
      <trkpt lat="48.09388" lon="7.27548">
        <ele>315</ele>
        <time>2024-01-23T18:45:34Z</time>
      </trkpt>
      <trkpt lat="48.09412" lon="7.27548">
        <ele>318</ele>
        <time>2024-01-23T18:45:38Z</time>
      </trkpt>
      <trkpt lat="48.09427" lon="7.27551">
        <ele>320</ele>
        <time>2024-01-23T18:45:41Z</time>
      </trkpt>
      <trkpt lat="48.09435" lon="7.27556">
        <ele>321</ele>
        <time>2024-01-23T18:45:42Z</time>
      </trkpt>
      <trkpt lat="48.09444" lon="7.27566">
        <ele>322</ele>
        <time>2024-01-23T18:45:44Z</time>
      </trkpt>
      <trkpt lat="48.09457" lon="7.27589">
        <ele>323</ele>
        <time>2024-01-23T18:45:48Z</time>
      </trkpt>
      <trkpt lat="48.0951" lon="7.27702">
        <ele>322</ele>
        <time>2024-01-23T18:46:04Z</time>
      </trkpt>
      <trkpt lat="48.09528" lon="7.27723">
        <ele>320</ele>
        <time>2024-01-23T18:46:09Z</time>
      </trkpt>
      <trkpt lat="48.09536" lon="7.27726">
        <ele>319</ele>
        <time>2024-01-23T18:46:10Z</time>
      </trkpt>
      <trkpt lat="48.09553" lon="7.27729">
        <ele>318</ele>
        <time>2024-01-23T18:46:13Z</time>
      </trkpt>
      <trkpt lat="48.09584" lon="7.2773">
        <ele>315</ele>
        <time>2024-01-23T18:46:19Z</time>
      </trkpt>
      <trkpt lat="48.09612" lon="7.27727">
        <ele>313</ele>
        <time>2024-01-23T18:46:24Z</time>
      </trkpt>
      <trkpt lat="48.09638" lon="7.27722">
        <ele>310</ele>
        <time>2024-01-23T18:46:28Z</time>
      </trkpt>
      <trkpt lat="48.09663" lon="7.27712">
        <ele>309</ele>
        <time>2024-01-23T18:46:33Z</time>
      </trkpt>
      <trkpt lat="48.09808" lon="7.27645">
        <ele>305</ele>
        <time>2024-01-23T18:47:00Z</time>
      </trkpt>
      <trkpt lat="48.09885" lon="7.27607">
        <ele>306</ele>
        <time>2024-01-23T18:47:14Z</time>
      </trkpt>
      <trkpt lat="48.09894" lon="7.276">
        <ele>306</ele>
        <time>2024-01-23T18:47:16Z</time>
      </trkpt>
      <trkpt lat="48.09899" lon="7.27594">
        <ele>307</ele>
        <time>2024-01-23T18:47:17Z</time>
      </trkpt>
      <trkpt lat="48.09904" lon="7.2757">
        <ele>308</ele>
        <time>2024-01-23T18:47:20Z</time>
      </trkpt>
      <trkpt lat="48.09919" lon="7.27472">
        <ele>312</ele>
        <time>2024-01-23T18:47:32Z</time>
      </trkpt>
      <trkpt lat="48.09924" lon="7.27421">
        <ele>315</ele>
        <time>2024-01-23T18:47:38Z</time>
      </trkpt>
      <trkpt lat="48.09934" lon="7.27384">
        <ele>314</ele>
        <time>2024-01-23T18:47:43Z</time>
      </trkpt>
      <trkpt lat="48.09941" lon="7.27367">
        <ele>313</ele>
        <time>2024-01-23T18:47:45Z</time>
      </trkpt>
      <trkpt lat="48.09948" lon="7.27361">
        <ele>313</ele>
        <time>2024-01-23T18:47:47Z</time>
      </trkpt>
      <trkpt lat="48.09953" lon="7.27352">
        <ele>312</ele>
        <time>2024-01-23T18:47:48Z</time>
      </trkpt>
      <trkpt lat="48.09961" lon="7.27328">
        <ele>312</ele>
        <time>2024-01-23T18:47:51Z</time>
      </trkpt>
      <trkpt lat="48.09973" lon="7.27324">
        <ele>311</ele>
        <time>2024-01-23T18:47:54Z</time>
      </trkpt>
      <trkpt lat="48.09977" lon="7.27358">
        <ele>311</ele>
        <time>2024-01-23T18:47:58Z</time>
      </trkpt>
      <trkpt lat="48.09976" lon="7.27409">
        <ele>310</ele>
        <time>2024-01-23T18:48:04Z</time>
      </trkpt>
      <trkpt lat="48.09972" lon="7.27439">
        <ele>310</ele>
        <time>2024-01-23T18:48:07Z</time>
      </trkpt>
      <trkpt lat="48.0997" lon="7.27556">
        <ele>303</ele>
        <time>2024-01-23T18:48:21Z</time>
      </trkpt>
      <trkpt lat="48.09972" lon="7.27589">
        <ele>301</ele>
        <time>2024-01-23T18:48:25Z</time>
      </trkpt>
      <trkpt lat="48.09978" lon="7.27633">
        <ele>299</ele>
        <time>2024-01-23T18:48:31Z</time>
      </trkpt>
      <trkpt lat="48.09977" lon="7.27668">
        <ele>297</ele>
        <time>2024-01-23T18:48:35Z</time>
      </trkpt>
      <trkpt lat="48.09969" lon="7.27766">
        <ele>294</ele>
        <time>2024-01-23T18:48:46Z</time>
      </trkpt>
      <trkpt lat="48.09963" lon="7.27794">
        <ele>291</ele>
        <time>2024-01-23T18:48:50Z</time>
      </trkpt>
      <trkpt lat="48.0993" lon="7.27891">
        <ele>287</ele>
        <time>2024-01-23T18:49:03Z</time>
      </trkpt>
      <trkpt lat="48.09919" lon="7.27994">
        <ele>283</ele>
        <time>2024-01-23T18:49:15Z</time>
      </trkpt>
      <trkpt lat="48.09917" lon="7.28038">
        <ele>282</ele>
        <time>2024-01-23T18:49:21Z</time>
      </trkpt>
      <trkpt lat="48.09915" lon="7.28195">
        <ele>276</ele>
        <time>2024-01-23T18:49:39Z</time>
      </trkpt>
      <trkpt lat="48.09919" lon="7.28251">
        <ele>274</ele>
        <time>2024-01-23T18:49:46Z</time>
      </trkpt>
      <trkpt lat="48.0993" lon="7.28284">
        <ele>272</ele>
        <time>2024-01-23T18:49:50Z</time>
      </trkpt>
      <trkpt lat="48.1" lon="7.28378">
        <ele>266</ele>
        <time>2024-01-23T18:50:07Z</time>
      </trkpt>
      <trkpt lat="48.10042" lon="7.28459">
        <ele>266</ele>
        <time>2024-01-23T18:50:19Z</time>
      </trkpt>
      <trkpt lat="48.10051" lon="7.28483">
        <ele>266</ele>
        <time>2024-01-23T18:50:22Z</time>
      </trkpt>
      <trkpt lat="48.10057" lon="7.28513">
        <ele>265</ele>
        <time>2024-01-23T18:50:26Z</time>
      </trkpt>
      <trkpt lat="48.1006" lon="7.28553">
        <ele>262</ele>
        <time>2024-01-23T18:50:31Z</time>
      </trkpt>
      <trkpt lat="48.10063" lon="7.2874">
        <ele>257</ele>
        <time>2024-01-23T18:50:53Z</time>
      </trkpt>
      <trkpt lat="48.10061" lon="7.28771">
        <ele>256</ele>
        <time>2024-01-23T18:50:57Z</time>
      </trkpt>
      <trkpt lat="48.10219" lon="7.28811">
        <ele>271</ele>
        <time>2024-01-23T18:51:25Z</time>
      </trkpt>
      <trkpt lat="48.10234" lon="7.28812">
        <ele>272</ele>
        <time>2024-01-23T18:51:28Z</time>
      </trkpt>
      <trkpt lat="48.10282" lon="7.28808">
        <ele>272</ele>
        <time>2024-01-23T18:51:37Z</time>
      </trkpt>
      <trkpt lat="48.10289" lon="7.28804">
        <ele>272</ele>
        <time>2024-01-23T18:51:38Z</time>
      </trkpt>
      <trkpt lat="48.10295" lon="7.28787">
        <ele>274</ele>
        <time>2024-01-23T18:51:40Z</time>
      </trkpt>
      <trkpt lat="48.10298" lon="7.28754">
        <ele>276</ele>
        <time>2024-01-23T18:51:44Z</time>
      </trkpt>
      <trkpt lat="48.10301" lon="7.28749">
        <ele>277</ele>
        <time>2024-01-23T18:51:45Z</time>
      </trkpt>
      <trkpt lat="48.10378" lon="7.28706">
        <ele>275</ele>
        <time>2024-01-23T18:52:00Z</time>
      </trkpt>
      <trkpt lat="48.10428" lon="7.28683">
        <ele>270</ele>
        <time>2024-01-23T18:52:09Z</time>
      </trkpt>
      <trkpt lat="48.10508" lon="7.28636">
        <ele>270</ele>
        <time>2024-01-23T18:52:24Z</time>
      </trkpt>
      <trkpt lat="48.10589" lon="7.28602">
        <ele>270</ele>
        <time>2024-01-23T18:52:39Z</time>
      </trkpt>
      <trkpt lat="48.10628" lon="7.2859">
        <ele>271</ele>
        <time>2024-01-23T18:52:46Z</time>
      </trkpt>
      <trkpt lat="48.10655" lon="7.28565">
        <ele>274</ele>
        <time>2024-01-23T18:52:52Z</time>
      </trkpt>
      <trkpt lat="48.10676" lon="7.28551">
        <ele>274</ele>
        <time>2024-01-23T18:52:56Z</time>
      </trkpt>
      <trkpt lat="48.10754" lon="7.28457">
        <ele>271</ele>
        <time>2024-01-23T18:53:14Z</time>
      </trkpt>
      <trkpt lat="48.10795" lon="7.28454">
        <ele>268</ele>
        <time>2024-01-23T18:53:21Z</time>
      </trkpt>
      <trkpt lat="48.10795" lon="7.28449">
        <ele>268</ele>
        <time>2024-01-23T18:53:22Z</time>
      </trkpt>
      <trkpt lat="48.10815" lon="7.28446">
        <ele>267</ele>
        <time>2024-01-23T18:53:25Z</time>
      </trkpt>
      <trkpt lat="48.10844" lon="7.28447">
        <ele>265</ele>
        <time>2024-01-23T18:53:30Z</time>
      </trkpt>
      <trkpt lat="48.10854" lon="7.28445">
        <ele>265</ele>
        <time>2024-01-23T18:53:32Z</time>
      </trkpt>
      <trkpt lat="48.10868" lon="7.28439">
        <ele>265</ele>
        <time>2024-01-23T18:53:35Z</time>
      </trkpt>
      <trkpt lat="48.10875" lon="7.28434">
        <ele>266</ele>
        <time>2024-01-23T18:53:36Z</time>
      </trkpt>
      <trkpt lat="48.10921" lon="7.28553">
        <ele>258</ele>
        <time>2024-01-23T18:53:53Z</time>
      </trkpt>
      <trkpt lat="48.10946" lon="7.2857">
        <ele>259</ele>
        <time>2024-01-23T18:53:57Z</time>
      </trkpt>
      <trkpt lat="48.11008" lon="7.28601">
        <ele>261</ele>
        <time>2024-01-23T18:54:09Z</time>
      </trkpt>
      <trkpt lat="48.11027" lon="7.28613">
        <ele>262</ele>
        <time>2024-01-23T18:54:13Z</time>
      </trkpt>
      <trkpt lat="48.11052" lon="7.2864">
        <ele>261</ele>
        <time>2024-01-23T18:54:18Z</time>
      </trkpt>
      <trkpt lat="48.11083" lon="7.2868">
        <ele>258</ele>
        <time>2024-01-23T18:54:25Z</time>
      </trkpt>
      <trkpt lat="48.11133" lon="7.28716">
        <ele>255</ele>
        <time>2024-01-23T18:54:35Z</time>
      </trkpt>
      <trkpt lat="48.11154" lon="7.28729">
        <ele>253</ele>
        <time>2024-01-23T18:54:39Z</time>
      </trkpt>
      <trkpt lat="48.11221" lon="7.28747">
        <ele>252</ele>
        <time>2024-01-23T18:54:52Z</time>
      </trkpt>
      <trkpt lat="48.11248" lon="7.28746">
        <ele>253</ele>
        <time>2024-01-23T18:54:56Z</time>
      </trkpt>
      <trkpt lat="48.11263" lon="7.28741">
        <ele>252</ele>
        <time>2024-01-23T18:54:59Z</time>
      </trkpt>
      <trkpt lat="48.11277" lon="7.28733">
        <ele>252</ele>
        <time>2024-01-23T18:55:02Z</time>
      </trkpt>
      <trkpt lat="48.11288" lon="7.28722">
        <ele>253</ele>
        <time>2024-01-23T18:55:04Z</time>
      </trkpt>
      <trkpt lat="48.11297" lon="7.28702">
        <ele>254</ele>
        <time>2024-01-23T18:55:07Z</time>
      </trkpt>
      <trkpt lat="48.11308" lon="7.28653">
        <ele>259</ele>
        <time>2024-01-23T18:55:13Z</time>
      </trkpt>
      <trkpt lat="48.11314" lon="7.28635">
        <ele>260</ele>
        <time>2024-01-23T18:55:15Z</time>
      </trkpt>
      <trkpt lat="48.11351" lon="7.28575">
        <ele>264</ele>
        <time>2024-01-23T18:55:25Z</time>
      </trkpt>
      <trkpt lat="48.11358" lon="7.28568">
        <ele>264</ele>
        <time>2024-01-23T18:55:27Z</time>
      </trkpt>
      <trkpt lat="48.11388" lon="7.2855">
        <ele>262</ele>
        <time>2024-01-23T18:55:32Z</time>
      </trkpt>
      <trkpt lat="48.11415" lon="7.28526">
        <ele>260</ele>
        <time>2024-01-23T18:55:38Z</time>
      </trkpt>
      <trkpt lat="48.11423" lon="7.28522">
        <ele>261</ele>
        <time>2024-01-23T18:55:40Z</time>
      </trkpt>
      <trkpt lat="48.11432" lon="7.28522">
        <ele>261</ele>
        <time>2024-01-23T18:55:41Z</time>
      </trkpt>
      <trkpt lat="48.11503" lon="7.28547">
        <ele>260</ele>
        <time>2024-01-23T18:55:54Z</time>
      </trkpt>
      <trkpt lat="48.11584" lon="7.28544">
        <ele>261</ele>
        <time>2024-01-23T18:56:09Z</time>
      </trkpt>
      <trkpt lat="48.11595" lon="7.28546">
        <ele>260</ele>
        <time>2024-01-23T18:56:10Z</time>
      </trkpt>
      <trkpt lat="48.11608" lon="7.28557">
        <ele>258</ele>
        <time>2024-01-23T18:56:13Z</time>
      </trkpt>
      <trkpt lat="48.11618" lon="7.28557">
        <ele>257</ele>
        <time>2024-01-23T18:56:15Z</time>
      </trkpt>
      <trkpt lat="48.11632" lon="7.28553">
        <ele>257</ele>
        <time>2024-01-23T18:56:17Z</time>
      </trkpt>
      <trkpt lat="48.11681" lon="7.28511">
        <ele>254</ele>
        <time>2024-01-23T18:56:27Z</time>
      </trkpt>
      <trkpt lat="48.1169" lon="7.28506">
        <ele>254</ele>
        <time>2024-01-23T18:56:29Z</time>
      </trkpt>
      <trkpt lat="48.11784" lon="7.28522">
        <ele>246</ele>
        <time>2024-01-23T18:56:46Z</time>
      </trkpt>
      <trkpt lat="48.11835" lon="7.28524">
        <ele>243</ele>
        <time>2024-01-23T18:56:55Z</time>
      </trkpt>
      <trkpt lat="48.11858" lon="7.28517">
        <ele>243</ele>
        <time>2024-01-23T18:56:59Z</time>
      </trkpt>
      <trkpt lat="48.11851" lon="7.28501">
        <ele>244</ele>
        <time>2024-01-23T18:57:02Z</time>
      </trkpt>
      <trkpt lat="48.11726" lon="7.28331">
        <ele>258</ele>
        <time>2024-01-23T18:57:32Z</time>
      </trkpt>
      <trkpt lat="48.11722" lon="7.28322">
        <ele>259</ele>
        <time>2024-01-23T18:57:33Z</time>
      </trkpt>
      <trkpt lat="48.11725" lon="7.28315">
        <ele>259</ele>
        <time>2024-01-23T18:57:34Z</time>
      </trkpt>
      <trkpt lat="48.11786" lon="7.28305">
        <ele>258</ele>
        <time>2024-01-23T18:57:45Z</time>
      </trkpt>
      <trkpt lat="48.11833" lon="7.28278">
        <ele>258</ele>
        <time>2024-01-23T18:57:54Z</time>
      </trkpt>
      <trkpt lat="48.11944" lon="7.28177">
        <ele>250</ele>
        <time>2024-01-23T18:58:17Z</time>
      </trkpt>
      <trkpt lat="48.11958" lon="7.28169">
        <ele>249</ele>
        <time>2024-01-23T18:58:20Z</time>
      </trkpt>
      <trkpt lat="48.1197" lon="7.28167">
        <ele>248</ele>
        <time>2024-01-23T18:58:22Z</time>
      </trkpt>
      <trkpt lat="48.11995" lon="7.28155">
        <ele>247</ele>
        <time>2024-01-23T18:58:26Z</time>
      </trkpt>
      <trkpt lat="48.12114" lon="7.28084">
        <ele>243</ele>
        <time>2024-01-23T18:58:49Z</time>
      </trkpt>
      <trkpt lat="48.12122" lon="7.28081">
        <ele>243</ele>
        <time>2024-01-23T18:58:51Z</time>
      </trkpt>
      <trkpt lat="48.12174" lon="7.28085">
        <ele>242</ele>
        <time>2024-01-23T18:59:00Z</time>
      </trkpt>
      <trkpt lat="48.12179" lon="7.28121">
        <ele>240</ele>
        <time>2024-01-23T18:59:04Z</time>
      </trkpt>
      <trkpt lat="48.12221" lon="7.28152">
        <ele>237</ele>
        <time>2024-01-23T18:59:13Z</time>
      </trkpt>
      <trkpt lat="48.1223" lon="7.28157">
        <ele>237</ele>
        <time>2024-01-23T18:59:14Z</time>
      </trkpt>
      <trkpt lat="48.12241" lon="7.28156">
        <ele>237</ele>
        <time>2024-01-23T18:59:16Z</time>
      </trkpt>
      <trkpt lat="48.12257" lon="7.28147">
        <ele>237</ele>
        <time>2024-01-23T18:59:19Z</time>
      </trkpt>
      <trkpt lat="48.1229" lon="7.28111">
        <ele>239</ele>
        <time>2024-01-23T18:59:27Z</time>
      </trkpt>
      <trkpt lat="48.1232" lon="7.28103">
        <ele>240</ele>
        <time>2024-01-23T18:59:32Z</time>
      </trkpt>
      <trkpt lat="48.12355" lon="7.28106">
        <ele>240</ele>
        <time>2024-01-23T18:59:38Z</time>
      </trkpt>
      <trkpt lat="48.12392" lon="7.28125">
        <ele>240</ele>
        <time>2024-01-23T18:59:45Z</time>
      </trkpt>
      <trkpt lat="48.12396" lon="7.28133">
        <ele>240</ele>
        <time>2024-01-23T18:59:46Z</time>
      </trkpt>
      <trkpt lat="48.12404" lon="7.2813">
        <ele>240</ele>
        <time>2024-01-23T18:59:48Z</time>
      </trkpt>
      <trkpt lat="48.12462" lon="7.28132">
        <ele>240</ele>
        <time>2024-01-23T18:59:58Z</time>
      </trkpt>
      <trkpt lat="48.12483" lon="7.28143">
        <ele>240</ele>
        <time>2024-01-23T19:00:02Z</time>
      </trkpt>
      <trkpt lat="48.12492" lon="7.28145">
        <ele>240</ele>
        <time>2024-01-23T19:00:04Z</time>
      </trkpt>
      <trkpt lat="48.12525" lon="7.28146">
        <ele>240</ele>
        <time>2024-01-23T19:00:10Z</time>
      </trkpt>
      <trkpt lat="48.12537" lon="7.28142">
        <ele>240</ele>
        <time>2024-01-23T19:00:12Z</time>
      </trkpt>
      <trkpt lat="48.1256" lon="7.28143">
        <ele>240</ele>
        <time>2024-01-23T19:00:16Z</time>
      </trkpt>
      <trkpt lat="48.1258" lon="7.2813">
        <ele>240</ele>
        <time>2024-01-23T19:00:20Z</time>
      </trkpt>
      <trkpt lat="48.12621" lon="7.28097">
        <ele>241</ele>
        <time>2024-01-23T19:00:28Z</time>
      </trkpt>
      <trkpt lat="48.1264" lon="7.28087">
        <ele>241</ele>
        <time>2024-01-23T19:00:32Z</time>
      </trkpt>
      <trkpt lat="48.12646" lon="7.28082">
        <ele>241</ele>
        <time>2024-01-23T19:00:33Z</time>
      </trkpt>
      <trkpt lat="48.1265" lon="7.28088">
        <ele>241</ele>
        <time>2024-01-23T19:00:34Z</time>
      </trkpt>
      <trkpt lat="48.1266" lon="7.28084">
        <ele>241</ele>
        <time>2024-01-23T19:00:36Z</time>
      </trkpt>
      <trkpt lat="48.12685" lon="7.28079">
        <ele>240</ele>
        <time>2024-01-23T19:00:40Z</time>
      </trkpt>
      <trkpt lat="48.12705" lon="7.28107">
        <ele>239</ele>
        <time>2024-01-23T19:00:45Z</time>
      </trkpt>
      <trkpt lat="48.1271" lon="7.2811">
        <ele>239</ele>
        <time>2024-01-23T19:00:46Z</time>
      </trkpt>
      <trkpt lat="48.12731" lon="7.28104">
        <ele>238</ele>
        <time>2024-01-23T19:00:50Z</time>
      </trkpt>
      <trkpt lat="48.12744" lon="7.28096">
        <ele>237</ele>
        <time>2024-01-23T19:00:52Z</time>
      </trkpt>
      <trkpt lat="48.12769" lon="7.28138">
        <ele>237</ele>
        <time>2024-01-23T19:00:59Z</time>
      </trkpt>
      <trkpt lat="48.12783" lon="7.28179">
        <ele>237</ele>
        <time>2024-01-23T19:01:04Z</time>
      </trkpt>
      <trkpt lat="48.12779" lon="7.28224">
        <ele>236</ele>
        <time>2024-01-23T19:01:10Z</time>
      </trkpt>
      <trkpt lat="48.12788" lon="7.28238">
        <ele>236</ele>
        <time>2024-01-23T19:01:12Z</time>
      </trkpt>
      <trkpt lat="48.12786" lon="7.28238">
        <ele>236</ele>
        <time>2024-01-23T19:01:13Z</time>
      </trkpt>
      <trkpt lat="48.12791" lon="7.28248">
        <ele>236</ele>
        <time>2024-01-23T19:01:14Z</time>
      </trkpt>
      <trkpt lat="48.12797" lon="7.28253">
        <ele>235</ele>
        <time>2024-01-23T19:01:15Z</time>
      </trkpt>
      <trkpt lat="48.12805" lon="7.28252">
        <ele>235</ele>
        <time>2024-01-23T19:01:17Z</time>
      </trkpt>
      <trkpt lat="48.12815" lon="7.28321">
        <ele>234</ele>
        <time>2024-01-23T19:01:25Z</time>
      </trkpt>
      <trkpt lat="48.12815" lon="7.28352">
        <ele>233</ele>
        <time>2024-01-23T19:01:29Z</time>
      </trkpt>
      <trkpt lat="48.12838" lon="7.28351">
        <ele>232</ele>
        <time>2024-01-23T19:01:33Z</time>
      </trkpt>
      <trkpt lat="48.12891" lon="7.28323">
        <ele>232</ele>
        <time>2024-01-23T19:01:43Z</time>
      </trkpt>
      <trkpt lat="48.12898" lon="7.28321">
        <ele>232</ele>
        <time>2024-01-23T19:01:44Z</time>
      </trkpt>
      <trkpt lat="48.12898" lon="7.2833">
        <ele>231</ele>
        <time>2024-01-23T19:01:45Z</time>
      </trkpt>
      <trkpt lat="48.12983" lon="7.28324">
        <ele>229</ele>
        <time>2024-01-23T19:02:00Z</time>
      </trkpt>
      <trkpt lat="48.13015" lon="7.28318">
        <ele>227</ele>
        <time>2024-01-23T19:02:06Z</time>
      </trkpt>
      <trkpt lat="48.13031" lon="7.28309">
        <ele>227</ele>
        <time>2024-01-23T19:02:09Z</time>
      </trkpt>
      <trkpt lat="48.13044" lon="7.28307">
        <ele>226</ele>
        <time>2024-01-23T19:02:11Z</time>
      </trkpt>
      <trkpt lat="48.13058" lon="7.28309">
        <ele>225</ele>
        <time>2024-01-23T19:02:14Z</time>
      </trkpt>
      <trkpt lat="48.13113" lon="7.2834">
        <ele>223</ele>
        <time>2024-01-23T19:02:24Z</time>
      </trkpt>
      <trkpt lat="48.13146" lon="7.28353">
        <ele>223</ele>
        <time>2024-01-23T19:02:30Z</time>
      </trkpt>
      <trkpt lat="48.13162" lon="7.28353">
        <ele>223</ele>
        <time>2024-01-23T19:02:33Z</time>
      </trkpt>
      <trkpt lat="48.13171" lon="7.28351">
        <ele>223</ele>
        <time>2024-01-23T19:02:35Z</time>
      </trkpt>
      <trkpt lat="48.13178" lon="7.28355">
        <ele>223</ele>
        <time>2024-01-23T19:02:36Z</time>
      </trkpt>
      <trkpt lat="48.13202" lon="7.28358">
        <ele>223</ele>
        <time>2024-01-23T19:02:40Z</time>
      </trkpt>
      <trkpt lat="48.13211" lon="7.28368">
        <ele>222</ele>
        <time>2024-01-23T19:02:42Z</time>
      </trkpt>
      <trkpt lat="48.13223" lon="7.28376">
        <ele>222</ele>
        <time>2024-01-23T19:02:45Z</time>
      </trkpt>
      <trkpt lat="48.13284" lon="7.28406">
        <ele>222</ele>
        <time>2024-01-23T19:02:56Z</time>
      </trkpt>
      <trkpt lat="48.13292" lon="7.28401">
        <ele>223</ele>
        <time>2024-01-23T19:02:58Z</time>
      </trkpt>
      <trkpt lat="48.13296" lon="7.28365">
        <ele>223</ele>
        <time>2024-01-23T19:03:02Z</time>
      </trkpt>
      <trkpt lat="48.13309" lon="7.28329">
        <ele>223</ele>
        <time>2024-01-23T19:03:07Z</time>
      </trkpt>
      <trkpt lat="48.1334" lon="7.28279">
        <ele>223</ele>
        <time>2024-01-23T19:03:15Z</time>
      </trkpt>
      <trkpt lat="48.13382" lon="7.28274">
        <ele>224</ele>
        <time>2024-01-23T19:03:23Z</time>
      </trkpt>
      <trkpt lat="48.13386" lon="7.2826">
        <ele>224</ele>
        <time>2024-01-23T19:03:24Z</time>
      </trkpt>
      <trkpt lat="48.13397" lon="7.28184">
        <ele>224</ele>
        <time>2024-01-23T19:03:34Z</time>
      </trkpt>
      <trkpt lat="48.13413" lon="7.28128">
        <ele>224</ele>
        <time>2024-01-23T19:03:41Z</time>
      </trkpt>
      <trkpt lat="48.13424" lon="7.28107">
        <ele>224</ele>
        <time>2024-01-23T19:03:44Z</time>
      </trkpt>
      <trkpt lat="48.13445" lon="7.28074">
        <ele>225</ele>
        <time>2024-01-23T19:03:49Z</time>
      </trkpt>
      <trkpt lat="48.13463" lon="7.28057">
        <ele>226</ele>
        <time>2024-01-23T19:03:53Z</time>
      </trkpt>
      <trkpt lat="48.13471" lon="7.28057">
        <ele>226</ele>
        <time>2024-01-23T19:03:55Z</time>
      </trkpt>
      <trkpt lat="48.13491" lon="7.28063">
        <ele>226</ele>
        <time>2024-01-23T19:03:58Z</time>
      </trkpt>
      <trkpt lat="48.13507" lon="7.28051">
        <ele>227</ele>
        <time>2024-01-23T19:04:01Z</time>
      </trkpt>
      <trkpt lat="48.1352" lon="7.28036">
        <ele>227</ele>
        <time>2024-01-23T19:04:04Z</time>
      </trkpt>
      <trkpt lat="48.13511" lon="7.27999">
        <ele>228</ele>
        <time>2024-01-23T19:04:09Z</time>
      </trkpt>
      <trkpt lat="48.13511" lon="7.27973">
        <ele>228</ele>
        <time>2024-01-23T19:04:12Z</time>
      </trkpt>
      <trkpt lat="48.13521" lon="7.27897">
        <ele>228</ele>
        <time>2024-01-23T19:04:21Z</time>
      </trkpt>
      <trkpt lat="48.13532" lon="7.27832">
        <ele>229</ele>
        <time>2024-01-23T19:04:29Z</time>
      </trkpt>
      <trkpt lat="48.13533" lon="7.27806">
        <ele>230</ele>
        <time>2024-01-23T19:04:32Z</time>
      </trkpt>
      <trkpt lat="48.13527" lon="7.27747">
        <ele>231</ele>
        <time>2024-01-23T19:04:39Z</time>
      </trkpt>
      <trkpt lat="48.13533" lon="7.27701">
        <ele>231</ele>
        <time>2024-01-23T19:04:45Z</time>
      </trkpt>
      <trkpt lat="48.13543" lon="7.27666">
        <ele>230</ele>
        <time>2024-01-23T19:04:50Z</time>
      </trkpt>
      <trkpt lat="48.13569" lon="7.27608">
        <ele>231</ele>
        <time>2024-01-23T19:04:58Z</time>
      </trkpt>
      <trkpt lat="48.13568" lon="7.27598">
        <ele>231</ele>
        <time>2024-01-23T19:04:59Z</time>
      </trkpt>
      <trkpt lat="48.13558" lon="7.27574">
        <ele>231</ele>
        <time>2024-01-23T19:05:02Z</time>
      </trkpt>
      <trkpt lat="48.13556" lon="7.27559">
        <ele>231</ele>
        <time>2024-01-23T19:05:04Z</time>
      </trkpt>
      <trkpt lat="48.13562" lon="7.27496">
        <ele>231</ele>
        <time>2024-01-23T19:05:12Z</time>
      </trkpt>
      <trkpt lat="48.13569" lon="7.27449">
        <ele>231</ele>
        <time>2024-01-23T19:05:18Z</time>
      </trkpt>
      <trkpt lat="48.13573" lon="7.27439">
        <ele>231</ele>
        <time>2024-01-23T19:05:19Z</time>
      </trkpt>
      <trkpt lat="48.13587" lon="7.27449">
        <ele>231</ele>
        <time>2024-01-23T19:05:22Z</time>
      </trkpt>
      <trkpt lat="48.13742" lon="7.27477">
        <ele>232</ele>
        <time>2024-01-23T19:05:49Z</time>
      </trkpt>
      <trkpt lat="48.13812" lon="7.26737">
        <ele>241</ele>
        <time>2024-01-23T19:07:18Z</time>
      </trkpt>
      <trkpt lat="48.13819" lon="7.26702">
        <ele>243</ele>
        <time>2024-01-23T19:07:23Z</time>
      </trkpt>
      <trkpt lat="48.13821" lon="7.26677">
        <ele>244</ele>
        <time>2024-01-23T19:07:26Z</time>
      </trkpt>
      <trkpt lat="48.13819" lon="7.26662">
        <ele>245</ele>
        <time>2024-01-23T19:07:27Z</time>
      </trkpt>
      <trkpt lat="48.13811" lon="7.2665">
        <ele>245</ele>
        <time>2024-01-23T19:07:29Z</time>
      </trkpt>
      <trkpt lat="48.13778" lon="7.26628">
        <ele>244</ele>
        <time>2024-01-23T19:07:36Z</time>
      </trkpt>
      <trkpt lat="48.13676" lon="7.26577">
        <ele>242</ele>
        <time>2024-01-23T19:07:55Z</time>
      </trkpt>
      <trkpt lat="48.13694" lon="7.26503">
        <ele>245</ele>
        <time>2024-01-23T19:08:04Z</time>
      </trkpt>
      <trkpt lat="48.13694" lon="7.26468">
        <ele>246</ele>
        <time>2024-01-23T19:08:08Z</time>
      </trkpt>
      <trkpt lat="48.13697" lon="7.2645">
        <ele>246</ele>
        <time>2024-01-23T19:08:11Z</time>
      </trkpt>
      <trkpt lat="48.13706" lon="7.26421">
        <ele>247</ele>
        <time>2024-01-23T19:08:14Z</time>
      </trkpt>
      <trkpt lat="48.13721" lon="7.2639">
        <ele>248</ele>
        <time>2024-01-23T19:08:19Z</time>
      </trkpt>
      <trkpt lat="48.13724" lon="7.26371">
        <ele>248</ele>
        <time>2024-01-23T19:08:21Z</time>
      </trkpt>
      <trkpt lat="48.13741" lon="7.26329">
        <ele>248</ele>
        <time>2024-01-23T19:08:27Z</time>
      </trkpt>
      <trkpt lat="48.13743" lon="7.26319">
        <ele>248</ele>
        <time>2024-01-23T19:08:28Z</time>
      </trkpt>
      <trkpt lat="48.13743" lon="7.26271">
        <ele>248</ele>
        <time>2024-01-23T19:08:34Z</time>
      </trkpt>
      <trkpt lat="48.13765" lon="7.26194">
        <ele>247</ele>
        <time>2024-01-23T19:08:44Z</time>
      </trkpt>
      <trkpt lat="48.1377" lon="7.26185">
        <ele>247</ele>
        <time>2024-01-23T19:08:45Z</time>
      </trkpt>
      <trkpt lat="48.13827" lon="7.26136">
        <ele>249</ele>
        <time>2024-01-23T19:08:57Z</time>
      </trkpt>
      <trkpt lat="48.13814" lon="7.26116">
        <ele>249</ele>
        <time>2024-01-23T19:09:00Z</time>
      </trkpt>
      <trkpt lat="48.13804" lon="7.26106">
        <ele>249</ele>
        <time>2024-01-23T19:09:03Z</time>
      </trkpt>
      <trkpt lat="48.1379" lon="7.26107">
        <ele>248</ele>
        <time>2024-01-23T19:09:05Z</time>
      </trkpt>
      <trkpt lat="48.13787" lon="7.26099">
        <ele>248</ele>
        <time>2024-01-23T19:09:06Z</time>
      </trkpt>
      <trkpt lat="48.13766" lon="7.26069">
        <ele>248</ele>
        <time>2024-01-23T19:09:11Z</time>
      </trkpt>
      <trkpt lat="48.13764" lon="7.26062">
        <ele>248</ele>
        <time>2024-01-23T19:09:12Z</time>
      </trkpt>
      <trkpt lat="48.13764" lon="7.26053">
        <ele>248</ele>
        <time>2024-01-23T19:09:13Z</time>
      </trkpt>
      <trkpt lat="48.1379" lon="7.25988">
        <ele>251</ele>
        <time>2024-01-23T19:09:22Z</time>
      </trkpt>
      <trkpt lat="48.13801" lon="7.25972">
        <ele>251</ele>
        <time>2024-01-23T19:09:25Z</time>
      </trkpt>
      <trkpt lat="48.1387" lon="7.25922">
        <ele>252</ele>
        <time>2024-01-23T19:09:39Z</time>
      </trkpt>
      <trkpt lat="48.13913" lon="7.25912">
        <ele>251</ele>
        <time>2024-01-23T19:09:46Z</time>
      </trkpt>
      <trkpt lat="48.13958" lon="7.25907">
        <ele>252</ele>
        <time>2024-01-23T19:09:54Z</time>
      </trkpt>
      <trkpt lat="48.13971" lon="7.25894">
        <ele>252</ele>
        <time>2024-01-23T19:09:57Z</time>
      </trkpt>
      <trkpt lat="48.14025" lon="7.25819">
        <ele>256</ele>
        <time>2024-01-23T19:10:10Z</time>
      </trkpt>
      <trkpt lat="48.1404" lon="7.25808">
        <ele>257</ele>
        <time>2024-01-23T19:10:13Z</time>
      </trkpt>
      <trkpt lat="48.14058" lon="7.25804">
        <ele>257</ele>
        <time>2024-01-23T19:10:16Z</time>
      </trkpt>
      <trkpt lat="48.14065" lon="7.25806">
        <ele>257</ele>
        <time>2024-01-23T19:10:18Z</time>
      </trkpt>
      <trkpt lat="48.14082" lon="7.25818">
        <ele>256</ele>
        <time>2024-01-23T19:10:21Z</time>
      </trkpt>
      <trkpt lat="48.14118" lon="7.25864">
        <ele>255</ele>
        <time>2024-01-23T19:10:30Z</time>
      </trkpt>
      <trkpt lat="48.14009" lon="7.25991">
        <ele>252</ele>
        <time>2024-01-23T19:10:54Z</time>
      </trkpt>
      <trkpt lat="48.13999" lon="7.26009">
        <ele>252</ele>
        <time>2024-01-23T19:10:57Z</time>
      </trkpt>
      <trkpt lat="48.13989" lon="7.26035">
        <ele>252</ele>
        <time>2024-01-23T19:11:00Z</time>
      </trkpt>
      <trkpt lat="48.13993" lon="7.26082">
        <ele>253</ele>
        <time>2024-01-23T19:11:06Z</time>
      </trkpt>
      <trkpt lat="48.13993" lon="7.26094">
        <ele>254</ele>
        <time>2024-01-23T19:11:07Z</time>
      </trkpt>
      <trkpt lat="48.13988" lon="7.26093">
        <ele>254</ele>
        <time>2024-01-23T19:11:08Z</time>
      </trkpt>
      <trkpt lat="48.13993" lon="7.26094">
        <ele>254</ele>
        <time>2024-01-23T19:11:09Z</time>
      </trkpt>
      <trkpt lat="48.1399" lon="7.26112">
        <ele>256</ele>
        <time>2024-01-23T19:11:11Z</time>
      </trkpt>
      <trkpt lat="48.13966" lon="7.26119">
        <ele>256</ele>
        <time>2024-01-23T19:11:16Z</time>
      </trkpt>
      <trkpt lat="48.13929" lon="7.26136">
        <ele>255</ele>
        <time>2024-01-23T19:11:23Z</time>
      </trkpt>
      <trkpt lat="48.13918" lon="7.26144">
        <ele>254</ele>
        <time>2024-01-23T19:11:25Z</time>
      </trkpt>
      <trkpt lat="48.13911" lon="7.26153">
        <ele>254</ele>
        <time>2024-01-23T19:11:27Z</time>
      </trkpt>
      <trkpt lat="48.13897" lon="7.26184">
        <ele>253</ele>
        <time>2024-01-23T19:11:31Z</time>
      </trkpt>
      <trkpt lat="48.13893" lon="7.26198">
        <ele>253</ele>
        <time>2024-01-23T19:11:33Z</time>
      </trkpt>
      <trkpt lat="48.13885" lon="7.26251">
        <ele>253</ele>
        <time>2024-01-23T19:11:39Z</time>
      </trkpt>
      <trkpt lat="48.13872" lon="7.26438">
        <ele>249</ele>
        <time>2024-01-23T19:12:02Z</time>
      </trkpt>
      <trkpt lat="48.13903" lon="7.26442">
        <ele>249</ele>
        <time>2024-01-23T19:12:07Z</time>
      </trkpt>
      <trkpt lat="48.13907" lon="7.2644">
        <ele>249</ele>
        <time>2024-01-23T19:12:08Z</time>
      </trkpt>
      <trkpt lat="48.13907" lon="7.26418">
        <ele>249</ele>
        <time>2024-01-23T19:12:10Z</time>
      </trkpt>
      <trkpt lat="48.13911" lon="7.26417">
        <ele>249</ele>
        <time>2024-01-23T19:12:11Z</time>
      </trkpt>
      <trkpt lat="48.13927" lon="7.26418">
        <ele>250</ele>
        <time>2024-01-23T19:12:14Z</time>
      </trkpt>
      <trkpt lat="48.13926" lon="7.26433">
        <ele>250</ele>
        <time>2024-01-23T19:12:16Z</time>
      </trkpt>
      <trkpt lat="48.13935" lon="7.26434">
        <ele>251</ele>
        <time>2024-01-23T19:12:17Z</time>
      </trkpt>
      <trkpt lat="48.13935" lon="7.26484">
        <ele>249</ele>
        <time>2024-01-23T19:12:23Z</time>
      </trkpt>
      <trkpt lat="48.13948" lon="7.26495">
        <ele>251</ele>
        <time>2024-01-23T19:12:26Z</time>
      </trkpt>
      <trkpt lat="48.13958" lon="7.26558">
        <ele>250</ele>
        <time>2024-01-23T19:12:34Z</time>
      </trkpt>
      <trkpt lat="48.13956" lon="7.26566">
        <ele>250</ele>
        <time>2024-01-23T19:12:35Z</time>
      </trkpt>
      <trkpt lat="48.13959" lon="7.26588">
        <ele>250</ele>
        <time>2024-01-23T19:12:37Z</time>
      </trkpt>
      <trkpt lat="48.13976" lon="7.26692">
        <ele>248</ele>
        <time>2024-01-23T19:12:50Z</time>
      </trkpt>
      <trkpt lat="48.13974" lon="7.26741">
        <ele>248</ele>
        <time>2024-01-23T19:12:56Z</time>
      </trkpt>
      <trkpt lat="48.13967" lon="7.26834">
        <ele>249</ele>
        <time>2024-01-23T19:13:07Z</time>
      </trkpt>
      <trkpt lat="48.13967" lon="7.26873">
        <ele>249</ele>
        <time>2024-01-23T19:13:12Z</time>
      </trkpt>
      <trkpt lat="48.13969" lon="7.26881">
        <ele>249</ele>
        <time>2024-01-23T19:13:13Z</time>
      </trkpt>
      <trkpt lat="48.13994" lon="7.26901">
        <ele>252</ele>
        <time>2024-01-23T19:13:18Z</time>
      </trkpt>
      <trkpt lat="48.14002" lon="7.2691">
        <ele>253</ele>
        <time>2024-01-23T19:13:20Z</time>
      </trkpt>
      <trkpt lat="48.1401" lon="7.26926">
        <ele>255</ele>
        <time>2024-01-23T19:13:22Z</time>
      </trkpt>
      <trkpt lat="48.14011" lon="7.26934">
        <ele>256</ele>
        <time>2024-01-23T19:13:23Z</time>
      </trkpt>
      <trkpt lat="48.1401" lon="7.26967">
        <ele>257</ele>
        <time>2024-01-23T19:13:27Z</time>
      </trkpt>
      <trkpt lat="48.14002" lon="7.27015">
        <ele>256</ele>
        <time>2024-01-23T19:13:33Z</time>
      </trkpt>
      <trkpt lat="48.1399" lon="7.27133">
        <ele>254</ele>
        <time>2024-01-23T19:13:47Z</time>
      </trkpt>
      <trkpt lat="48.13992" lon="7.27176">
        <ele>252</ele>
        <time>2024-01-23T19:13:52Z</time>
      </trkpt>
      <trkpt lat="48.14003" lon="7.27275">
        <ele>253</ele>
        <time>2024-01-23T19:14:04Z</time>
      </trkpt>
      <trkpt lat="48.14001" lon="7.27408">
        <ele>253</ele>
        <time>2024-01-23T19:14:20Z</time>
      </trkpt>
      <trkpt lat="48.14009" lon="7.27532">
        <ele>253</ele>
        <time>2024-01-23T19:14:34Z</time>
      </trkpt>
      <trkpt lat="48.14008" lon="7.27538">
        <ele>253</ele>
        <time>2024-01-23T19:14:35Z</time>
      </trkpt>
      <trkpt lat="48.14005" lon="7.27545">
        <ele>253</ele>
        <time>2024-01-23T19:14:36Z</time>
      </trkpt>
      <trkpt lat="48.13989" lon="7.27556">
        <ele>250</ele>
        <time>2024-01-23T19:14:39Z</time>
      </trkpt>
      <trkpt lat="48.13973" lon="7.27595">
        <ele>247</ele>
        <time>2024-01-23T19:14:45Z</time>
      </trkpt>
      <trkpt lat="48.13913" lon="7.27714">
        <ele>236</ele>
        <time>2024-01-23T19:15:02Z</time>
      </trkpt>
      <trkpt lat="48.13897" lon="7.27734">
        <ele>234</ele>
        <time>2024-01-23T19:15:06Z</time>
      </trkpt>
      <trkpt lat="48.1388" lon="7.27764">
        <ele>233</ele>
        <time>2024-01-23T19:15:11Z</time>
      </trkpt>
      <trkpt lat="48.13877" lon="7.27788">
        <ele>232</ele>
        <time>2024-01-23T19:15:14Z</time>
      </trkpt>
      <trkpt lat="48.13866" lon="7.27822">
        <ele>231</ele>
        <time>2024-01-23T19:15:18Z</time>
      </trkpt>
      <trkpt lat="48.13856" lon="7.27838">
        <ele>230</ele>
        <time>2024-01-23T19:15:21Z</time>
      </trkpt>
      <trkpt lat="48.13817" lon="7.27889">
        <ele>228</ele>
        <time>2024-01-23T19:15:30Z</time>
      </trkpt>
      <trkpt lat="48.1377" lon="7.27958">
        <ele>227</ele>
        <time>2024-01-23T19:15:42Z</time>
      </trkpt>
      <trkpt lat="48.13738" lon="7.28">
        <ele>227</ele>
        <time>2024-01-23T19:15:49Z</time>
      </trkpt>
      <trkpt lat="48.13686" lon="7.28051">
        <ele>228</ele>
        <time>2024-01-23T19:16:00Z</time>
      </trkpt>
      <trkpt lat="48.13665" lon="7.28127">
        <ele>228</ele>
        <time>2024-01-23T19:16:10Z</time>
      </trkpt>
      <trkpt lat="48.13651" lon="7.28164">
        <ele>228</ele>
        <time>2024-01-23T19:16:15Z</time>
      </trkpt>
      <trkpt lat="48.13653" lon="7.28171">
        <ele>228</ele>
        <time>2024-01-23T19:16:16Z</time>
      </trkpt>
      <trkpt lat="48.13681" lon="7.28222">
        <ele>227</ele>
        <time>2024-01-23T19:16:24Z</time>
      </trkpt>
      <trkpt lat="48.13711" lon="7.28269">
        <ele>227</ele>
        <time>2024-01-23T19:16:32Z</time>
      </trkpt>
      <trkpt lat="48.13718" lon="7.28289">
        <ele>227</ele>
        <time>2024-01-23T19:16:34Z</time>
      </trkpt>
      <trkpt lat="48.1372" lon="7.28315">
        <ele>227</ele>
        <time>2024-01-23T19:16:37Z</time>
      </trkpt>
      <trkpt lat="48.13713" lon="7.28329">
        <ele>227</ele>
        <time>2024-01-23T19:16:39Z</time>
      </trkpt>
      <trkpt lat="48.13712" lon="7.28336">
        <ele>227</ele>
        <time>2024-01-23T19:16:40Z</time>
      </trkpt>
      <trkpt lat="48.13714" lon="7.28349">
        <ele>227</ele>
        <time>2024-01-23T19:16:42Z</time>
      </trkpt>
      <trkpt lat="48.13731" lon="7.2839">
        <ele>226</ele>
        <time>2024-01-23T19:16:48Z</time>
      </trkpt>
      <trkpt lat="48.13733" lon="7.28389">
        <ele>226</ele>
        <time>2024-01-23T19:16:48Z</time>
      </trkpt>
      <trkpt lat="48.13748" lon="7.28437">
        <ele>226</ele>
        <time>2024-01-23T19:16:54Z</time>
      </trkpt>
      <trkpt lat="48.1375" lon="7.28463">
        <ele>225</ele>
        <time>2024-01-23T19:16:57Z</time>
      </trkpt>
      <trkpt lat="48.13739" lon="7.28699">
        <ele>224</ele>
        <time>2024-01-23T19:17:26Z</time>
      </trkpt>
      <trkpt lat="48.1374" lon="7.28771">
        <ele>223</ele>
        <time>2024-01-23T19:17:34Z</time>
      </trkpt>
      <trkpt lat="48.13812" lon="7.2877">
        <ele>224</ele>
        <time>2024-01-23T19:17:47Z</time>
      </trkpt>
      <trkpt lat="48.13911" lon="7.28779">
        <ele>227</ele>
        <time>2024-01-23T19:18:05Z</time>
      </trkpt>
      <trkpt lat="48.13925" lon="7.28779">
        <ele>228</ele>
        <time>2024-01-23T19:18:07Z</time>
      </trkpt>
      <trkpt lat="48.14002" lon="7.2876">
        <ele>233</ele>
        <time>2024-01-23T19:18:21Z</time>
      </trkpt>
      <trkpt lat="48.14034" lon="7.28755">
        <ele>236</ele>
        <time>2024-01-23T19:18:27Z</time>
      </trkpt>
      <trkpt lat="48.14121" lon="7.28755">
        <ele>244</ele>
        <time>2024-01-23T19:18:42Z</time>
      </trkpt>
      <trkpt lat="48.14148" lon="7.28757">
        <ele>247</ele>
        <time>2024-01-23T19:18:47Z</time>
      </trkpt>
      <trkpt lat="48.14155" lon="7.28756">
        <ele>247</ele>
        <time>2024-01-23T19:18:48Z</time>
      </trkpt>
      <trkpt lat="48.14166" lon="7.28745">
        <ele>248</ele>
        <time>2024-01-23T19:18:51Z</time>
      </trkpt>
      <trkpt lat="48.14184" lon="7.28719">
        <ele>248</ele>
        <time>2024-01-23T19:18:55Z</time>
      </trkpt>
      <trkpt lat="48.14204" lon="7.28695">
        <ele>249</ele>
        <time>2024-01-23T19:19:00Z</time>
      </trkpt>
      <trkpt lat="48.14248" lon="7.28649">
        <ele>251</ele>
        <time>2024-01-23T19:19:09Z</time>
      </trkpt>
      <trkpt lat="48.14294" lon="7.28618">
        <ele>254</ele>
        <time>2024-01-23T19:19:18Z</time>
      </trkpt>
      <trkpt lat="48.14324" lon="7.28615">
        <ele>257</ele>
        <time>2024-01-23T19:19:23Z</time>
      </trkpt>
      <trkpt lat="48.14336" lon="7.28605">
        <ele>258</ele>
        <time>2024-01-23T19:19:26Z</time>
      </trkpt>
      <trkpt lat="48.14354" lon="7.28575">
        <ele>260</ele>
        <time>2024-01-23T19:19:31Z</time>
      </trkpt>
      <trkpt lat="48.14369" lon="7.28556">
        <ele>262</ele>
        <time>2024-01-23T19:19:34Z</time>
      </trkpt>
      <trkpt lat="48.14398" lon="7.28475">
        <ele>265</ele>
        <time>2024-01-23T19:19:45Z</time>
      </trkpt>
      <trkpt lat="48.14418" lon="7.28398">
        <ele>268</ele>
        <time>2024-01-23T19:19:55Z</time>
      </trkpt>
      <trkpt lat="48.14423" lon="7.28388">
        <ele>269</ele>
        <time>2024-01-23T19:19:56Z</time>
      </trkpt>
      <trkpt lat="48.14431" lon="7.28389">
        <ele>270</ele>
        <time>2024-01-23T19:19:58Z</time>
      </trkpt>
      <trkpt lat="48.14459" lon="7.28408">
        <ele>270</ele>
        <time>2024-01-23T19:20:03Z</time>
      </trkpt>
      <trkpt lat="48.14499" lon="7.28421">
        <ele>272</ele>
        <time>2024-01-23T19:20:11Z</time>
      </trkpt>
      <trkpt lat="48.14546" lon="7.28428">
        <ele>277</ele>
        <time>2024-01-23T19:20:19Z</time>
      </trkpt>
      <trkpt lat="48.14614" lon="7.28455">
        <ele>286</ele>
        <time>2024-01-23T19:20:31Z</time>
      </trkpt>
      <trkpt lat="48.14659" lon="7.28467">
        <ele>292</ele>
        <time>2024-01-23T19:20:40Z</time>
      </trkpt>
      <trkpt lat="48.14679" lon="7.28475">
        <ele>295</ele>
        <time>2024-01-23T19:20:43Z</time>
      </trkpt>
      <trkpt lat="48.14708" lon="7.2849">
        <ele>298</ele>
        <time>2024-01-23T19:20:49Z</time>
      </trkpt>
      <trkpt lat="48.1478" lon="7.28554">
        <ele>307</ele>
        <time>2024-01-23T19:21:04Z</time>
      </trkpt>
      <trkpt lat="48.14827" lon="7.28589">
        <ele>312</ele>
        <time>2024-01-23T19:21:13Z</time>
      </trkpt>
      <trkpt lat="48.14834" lon="7.28592">
        <ele>313</ele>
        <time>2024-01-23T19:21:14Z</time>
      </trkpt>
      <trkpt lat="48.14866" lon="7.28597">
        <ele>317</ele>
        <time>2024-01-23T19:21:20Z</time>
      </trkpt>
      <trkpt lat="48.14875" lon="7.28602">
        <ele>318</ele>
        <time>2024-01-23T19:21:22Z</time>
      </trkpt>
      <trkpt lat="48.14935" lon="7.28648">
        <ele>325</ele>
        <time>2024-01-23T19:21:34Z</time>
      </trkpt>
      <trkpt lat="48.14997" lon="7.28685">
        <ele>330</ele>
        <time>2024-01-23T19:21:46Z</time>
      </trkpt>
      <trkpt lat="48.1504" lon="7.28715">
        <ele>331</ele>
        <time>2024-01-23T19:21:54Z</time>
      </trkpt>
      <trkpt lat="48.15062" lon="7.28725">
        <ele>330</ele>
        <time>2024-01-23T19:21:58Z</time>
      </trkpt>
      <trkpt lat="48.15132" lon="7.28743">
        <ele>328</ele>
        <time>2024-01-23T19:22:11Z</time>
      </trkpt>
      <trkpt lat="48.15158" lon="7.28756">
        <ele>326</ele>
        <time>2024-01-23T19:22:16Z</time>
      </trkpt>
      <trkpt lat="48.15183" lon="7.28777">
        <ele>324</ele>
        <time>2024-01-23T19:22:21Z</time>
      </trkpt>
      <trkpt lat="48.15227" lon="7.28831">
        <ele>319</ele>
        <time>2024-01-23T19:22:31Z</time>
      </trkpt>
      <trkpt lat="48.15273" lon="7.2888">
        <ele>317</ele>
        <time>2024-01-23T19:22:41Z</time>
      </trkpt>
      <trkpt lat="48.153" lon="7.28917">
        <ele>315</ele>
        <time>2024-01-23T19:22:47Z</time>
      </trkpt>
      <trkpt lat="48.15316" lon="7.28935">
        <ele>314</ele>
        <time>2024-01-23T19:22:51Z</time>
      </trkpt>
      <trkpt lat="48.15339" lon="7.28949">
        <ele>314</ele>
        <time>2024-01-23T19:22:55Z</time>
      </trkpt>
      <trkpt lat="48.1543" lon="7.28986">
        <ele>315</ele>
        <time>2024-01-23T19:23:12Z</time>
      </trkpt>
      <trkpt lat="48.1547" lon="7.29009">
        <ele>316</ele>
        <time>2024-01-23T19:23:20Z</time>
      </trkpt>
      <trkpt lat="48.15531" lon="7.29053">
        <ele>318</ele>
        <time>2024-01-23T19:23:32Z</time>
      </trkpt>
      <trkpt lat="48.15538" lon="7.29067">
        <ele>318</ele>
        <time>2024-01-23T19:23:34Z</time>
      </trkpt>
      <trkpt lat="48.15548" lon="7.29079">
        <ele>318</ele>
        <time>2024-01-23T19:23:36Z</time>
      </trkpt>
      <trkpt lat="48.15565" lon="7.29092">
        <ele>318</ele>
        <time>2024-01-23T19:23:40Z</time>
      </trkpt>
      <trkpt lat="48.15618" lon="7.29124">
        <ele>321</ele>
        <time>2024-01-23T19:23:50Z</time>
      </trkpt>
      <trkpt lat="48.15634" lon="7.29137">
        <ele>322</ele>
        <time>2024-01-23T19:23:53Z</time>
      </trkpt>
      <trkpt lat="48.15695" lon="7.29205">
        <ele>324</ele>
        <time>2024-01-23T19:24:06Z</time>
      </trkpt>
      <trkpt lat="48.15739" lon="7.29237">
        <ele>327</ele>
        <time>2024-01-23T19:24:15Z</time>
      </trkpt>
      <trkpt lat="48.15771" lon="7.29254">
        <ele>328</ele>
        <time>2024-01-23T19:24:21Z</time>
      </trkpt>
      <trkpt lat="48.15813" lon="7.29283">
        <ele>330</ele>
        <time>2024-01-23T19:24:29Z</time>
      </trkpt>
      <trkpt lat="48.15846" lon="7.29308">
        <ele>331</ele>
        <time>2024-01-23T19:24:36Z</time>
      </trkpt>
      <trkpt lat="48.15866" lon="7.29326">
        <ele>331</ele>
        <time>2024-01-23T19:24:40Z</time>
      </trkpt>
      <trkpt lat="48.15916" lon="7.29385">
        <ele>331</ele>
        <time>2024-01-23T19:24:51Z</time>
      </trkpt>
      <trkpt lat="48.15944" lon="7.29409">
        <ele>331</ele>
        <time>2024-01-23T19:24:57Z</time>
      </trkpt>
      <trkpt lat="48.15961" lon="7.29419">
        <ele>332</ele>
        <time>2024-01-23T19:25:00Z</time>
      </trkpt>
      <trkpt lat="48.16005" lon="7.29439">
        <ele>333</ele>
        <time>2024-01-23T19:25:09Z</time>
      </trkpt>
      <trkpt lat="48.16046" lon="7.29462">
        <ele>332</ele>
        <time>2024-01-23T19:25:16Z</time>
      </trkpt>
      <trkpt lat="48.16062" lon="7.29476">
        <ele>332</ele>
        <time>2024-01-23T19:25:20Z</time>
      </trkpt>
      <trkpt lat="48.16083" lon="7.29505">
        <ele>332</ele>
        <time>2024-01-23T19:25:25Z</time>
      </trkpt>
      <trkpt lat="48.16092" lon="7.29513">
        <ele>331</ele>
        <time>2024-01-23T19:25:27Z</time>
      </trkpt>
      <trkpt lat="48.16124" lon="7.29531">
        <ele>327</ele>
        <time>2024-01-23T19:25:33Z</time>
      </trkpt>
      <trkpt lat="48.16142" lon="7.29539">
        <ele>325</ele>
        <time>2024-01-23T19:25:36Z</time>
      </trkpt>
      <trkpt lat="48.16191" lon="7.29572">
        <ele>321</ele>
        <time>2024-01-23T19:25:46Z</time>
      </trkpt>
      <trkpt lat="48.16205" lon="7.29579">
        <ele>319</ele>
        <time>2024-01-23T19:25:48Z</time>
      </trkpt>
      <trkpt lat="48.16282" lon="7.29605">
        <ele>312</ele>
        <time>2024-01-23T19:26:02Z</time>
      </trkpt>
      <trkpt lat="48.16328" lon="7.29624">
        <ele>307</ele>
        <time>2024-01-23T19:26:11Z</time>
      </trkpt>
      <trkpt lat="48.16352" lon="7.29639">
        <ele>306</ele>
        <time>2024-01-23T19:26:15Z</time>
      </trkpt>
      <trkpt lat="48.16375" lon="7.29629">
        <ele>305</ele>
        <time>2024-01-23T19:26:20Z</time>
      </trkpt>
      <trkpt lat="48.16392" lon="7.29627">
        <ele>304</ele>
        <time>2024-01-23T19:26:23Z</time>
      </trkpt>
      <trkpt lat="48.16456" lon="7.2964">
        <ele>303</ele>
        <time>2024-01-23T19:26:34Z</time>
      </trkpt>
      <trkpt lat="48.16459" lon="7.29627">
        <ele>304</ele>
        <time>2024-01-23T19:26:36Z</time>
      </trkpt>
      <trkpt lat="48.16474" lon="7.29583">
        <ele>307</ele>
        <time>2024-01-23T19:26:42Z</time>
      </trkpt>
      <trkpt lat="48.16495" lon="7.29549">
        <ele>309</ele>
        <time>2024-01-23T19:26:47Z</time>
      </trkpt>
      <trkpt lat="48.16576" lon="7.29457">
        <ele>314</ele>
        <time>2024-01-23T19:27:05Z</time>
      </trkpt>
      <trkpt lat="48.16582" lon="7.29452">
        <ele>314</ele>
        <time>2024-01-23T19:27:07Z</time>
      </trkpt>
      <trkpt lat="48.1659" lon="7.2945">
        <ele>314</ele>
        <time>2024-01-23T19:27:08Z</time>
      </trkpt>
      <trkpt lat="48.16647" lon="7.29453">
        <ele>315</ele>
        <time>2024-01-23T19:27:18Z</time>
      </trkpt>
      <trkpt lat="48.16703" lon="7.29451">
        <ele>317</ele>
        <time>2024-01-23T19:27:28Z</time>
      </trkpt>
      <trkpt lat="48.16727" lon="7.29455">
        <ele>317</ele>
        <time>2024-01-23T19:27:32Z</time>
      </trkpt>
      <trkpt lat="48.1673" lon="7.29457">
        <ele>317</ele>
        <time>2024-01-23T19:27:33Z</time>
      </trkpt>
      <trkpt lat="48.16733" lon="7.29463">
        <ele>317</ele>
        <time>2024-01-23T19:27:34Z</time>
      </trkpt>
      <trkpt lat="48.16733" lon="7.29471">
        <ele>317</ele>
        <time>2024-01-23T19:27:35Z</time>
      </trkpt>
      <trkpt lat="48.16722" lon="7.29522">
        <ele>314</ele>
        <time>2024-01-23T19:27:41Z</time>
      </trkpt>
      <trkpt lat="48.16721" lon="7.29598">
        <ele>312</ele>
        <time>2024-01-23T19:27:50Z</time>
      </trkpt>
      <trkpt lat="48.16713" lon="7.29663">
        <ele>310</ele>
        <time>2024-01-23T19:27:58Z</time>
      </trkpt>
      <trkpt lat="48.16704" lon="7.29706">
        <ele>308</ele>
        <time>2024-01-23T19:28:03Z</time>
      </trkpt>
      <trkpt lat="48.16673" lon="7.29792">
        <ele>304</ele>
        <time>2024-01-23T19:28:15Z</time>
      </trkpt>
      <trkpt lat="48.1663" lon="7.29956">
        <ele>293</ele>
        <time>2024-01-23T19:28:36Z</time>
      </trkpt>
      <trkpt lat="48.16617" lon="7.30014">
        <ele>288</ele>
        <time>2024-01-23T19:28:43Z</time>
      </trkpt>
      <trkpt lat="48.16611" lon="7.30066">
        <ele>284</ele>
        <time>2024-01-23T19:28:49Z</time>
      </trkpt>
      <trkpt lat="48.16597" lon="7.30371">
        <ele>276</ele>
        <time>2024-01-23T19:29:26Z</time>
      </trkpt>
      <trkpt lat="48.16592" lon="7.30389">
        <ele>276</ele>
        <time>2024-01-23T19:29:28Z</time>
      </trkpt>
      <trkpt lat="48.16586" lon="7.30404">
        <ele>275</ele>
        <time>2024-01-23T19:29:30Z</time>
      </trkpt>
      <trkpt lat="48.16581" lon="7.30412">
        <ele>275</ele>
        <time>2024-01-23T19:29:31Z</time>
      </trkpt>
      <trkpt lat="48.1658" lon="7.30424">
        <ele>275</ele>
        <time>2024-01-23T19:29:33Z</time>
      </trkpt>
      <trkpt lat="48.16581" lon="7.30429">
        <ele>274</ele>
        <time>2024-01-23T19:29:33Z</time>
      </trkpt>
      <trkpt lat="48.16587" lon="7.30437">
        <ele>274</ele>
        <time>2024-01-23T19:29:35Z</time>
      </trkpt>
      <trkpt lat="48.16594" lon="7.30439">
        <ele>275</ele>
        <time>2024-01-23T19:29:36Z</time>
      </trkpt>
      <trkpt lat="48.16603" lon="7.30431">
        <ele>276</ele>
        <time>2024-01-23T19:29:38Z</time>
      </trkpt>
      <trkpt lat="48.16608" lon="7.30439">
        <ele>276</ele>
        <time>2024-01-23T19:29:39Z</time>
      </trkpt>
      <trkpt lat="48.16617" lon="7.30466">
        <ele>275</ele>
        <time>2024-01-23T19:29:43Z</time>
      </trkpt>
      <trkpt lat="48.16622" lon="7.30491">
        <ele>274</ele>
        <time>2024-01-23T19:29:46Z</time>
      </trkpt>
      <trkpt lat="48.16625" lon="7.30525">
        <ele>273</ele>
        <time>2024-01-23T19:29:50Z</time>
      </trkpt>
      <trkpt lat="48.16626" lon="7.30632">
        <ele>269</ele>
        <time>2024-01-23T19:30:03Z</time>
      </trkpt>
      <trkpt lat="48.16635" lon="7.30678">
        <ele>268</ele>
        <time>2024-01-23T19:30:08Z</time>
      </trkpt>
      <trkpt lat="48.16644" lon="7.30699">
        <ele>268</ele>
        <time>2024-01-23T19:30:11Z</time>
      </trkpt>
      <trkpt lat="48.16652" lon="7.30712">
        <ele>268</ele>
        <time>2024-01-23T19:30:14Z</time>
      </trkpt>
      <trkpt lat="48.16696" lon="7.30763">
        <ele>270</ele>
        <time>2024-01-23T19:30:23Z</time>
      </trkpt>
      <trkpt lat="48.1672" lon="7.30798">
        <ele>271</ele>
        <time>2024-01-23T19:30:29Z</time>
      </trkpt>
      <trkpt lat="48.16746" lon="7.30846">
        <ele>270</ele>
        <time>2024-01-23T19:30:37Z</time>
      </trkpt>
      <trkpt lat="48.16754" lon="7.30865">
        <ele>270</ele>
        <time>2024-01-23T19:30:39Z</time>
      </trkpt>
      <trkpt lat="48.1676" lon="7.30885">
        <ele>270</ele>
        <time>2024-01-23T19:30:42Z</time>
      </trkpt>
      <trkpt lat="48.16783" lon="7.31011">
        <ele>268</ele>
        <time>2024-01-23T19:30:57Z</time>
      </trkpt>
      <trkpt lat="48.16785" lon="7.31043">
        <ele>268</ele>
        <time>2024-01-23T19:31:01Z</time>
      </trkpt>
      <trkpt lat="48.16784" lon="7.31146">
        <ele>268</ele>
        <time>2024-01-23T19:31:14Z</time>
      </trkpt>
      <trkpt lat="48.16785" lon="7.31176">
        <ele>268</ele>
        <time>2024-01-23T19:31:17Z</time>
      </trkpt>
      <trkpt lat="48.16789" lon="7.31226">
        <ele>268</ele>
        <time>2024-01-23T19:31:23Z</time>
      </trkpt>
      <trkpt lat="48.16812" lon="7.31378">
        <ele>265</ele>
        <time>2024-01-23T19:31:42Z</time>
      </trkpt>
      <trkpt lat="48.16809" lon="7.31402">
        <ele>264</ele>
        <time>2024-01-23T19:31:44Z</time>
      </trkpt>
      <trkpt lat="48.16799" lon="7.31424">
        <ele>263</ele>
        <time>2024-01-23T19:31:48Z</time>
      </trkpt>
      <trkpt lat="48.16889" lon="7.31516">
        <ele>269</ele>
        <time>2024-01-23T19:32:07Z</time>
      </trkpt>
      <trkpt lat="48.16913" lon="7.31545">
        <ele>269</ele>
        <time>2024-01-23T19:32:12Z</time>
      </trkpt>
      <trkpt lat="48.16933" lon="7.31578">
        <ele>268</ele>
        <time>2024-01-23T19:32:18Z</time>
      </trkpt>
      <trkpt lat="48.16984" lon="7.31694">
        <ele>268</ele>
        <time>2024-01-23T19:32:34Z</time>
      </trkpt>
      <trkpt lat="48.17023" lon="7.3177">
        <ele>267</ele>
        <time>2024-01-23T19:32:46Z</time>
      </trkpt>
      <trkpt lat="48.17052" lon="7.31838">
        <ele>267</ele>
        <time>2024-01-23T19:32:55Z</time>
      </trkpt>
      <trkpt lat="48.17081" lon="7.31916">
        <ele>267</ele>
        <time>2024-01-23T19:33:06Z</time>
      </trkpt>
      <trkpt lat="48.17171" lon="7.321">
        <ele>267</ele>
        <time>2024-01-23T19:33:33Z</time>
      </trkpt>
      <trkpt lat="48.17182" lon="7.32117">
        <ele>267</ele>
        <time>2024-01-23T19:33:36Z</time>
      </trkpt>
      <trkpt lat="48.17204" lon="7.32141">
        <ele>267</ele>
        <time>2024-01-23T19:33:41Z</time>
      </trkpt>
      <trkpt lat="48.17219" lon="7.32151">
        <ele>267</ele>
        <time>2024-01-23T19:33:43Z</time>
      </trkpt>
      <trkpt lat="48.17314" lon="7.32189">
        <ele>269</ele>
        <time>2024-01-23T19:34:01Z</time>
      </trkpt>
      <trkpt lat="48.17383" lon="7.32214">
        <ele>270</ele>
        <time>2024-01-23T19:34:14Z</time>
      </trkpt>
      <trkpt lat="48.17407" lon="7.32227">
        <ele>270</ele>
        <time>2024-01-23T19:34:18Z</time>
      </trkpt>
      <trkpt lat="48.17471" lon="7.32283">
        <ele>267</ele>
        <time>2024-01-23T19:34:31Z</time>
      </trkpt>
      <trkpt lat="48.17502" lon="7.32301">
        <ele>265</ele>
        <time>2024-01-23T19:34:37Z</time>
      </trkpt>
      <trkpt lat="48.17609" lon="7.3234">
        <ele>258</ele>
        <time>2024-01-23T19:34:57Z</time>
      </trkpt>
      <trkpt lat="48.17783" lon="7.32412">
        <ele>240</ele>
        <time>2024-01-23T19:35:29Z</time>
      </trkpt>
      <trkpt lat="48.17829" lon="7.32421">
        <ele>237</ele>
        <time>2024-01-23T19:35:37Z</time>
      </trkpt>
      <trkpt lat="48.17874" lon="7.32421">
        <ele>234</ele>
        <time>2024-01-23T19:35:45Z</time>
      </trkpt>
      <trkpt lat="48.18011" lon="7.32406">
        <ele>229</ele>
        <time>2024-01-23T19:36:10Z</time>
      </trkpt>
      <trkpt lat="48.18033" lon="7.32402">
        <ele>229</ele>
        <time>2024-01-23T19:36:14Z</time>
      </trkpt>
      <trkpt lat="48.18063" lon="7.32393">
        <ele>228</ele>
        <time>2024-01-23T19:36:19Z</time>
      </trkpt>
      <trkpt lat="48.18095" lon="7.32378">
        <ele>229</ele>
        <time>2024-01-23T19:36:25Z</time>
      </trkpt>
      <trkpt lat="48.18123" lon="7.32362">
        <ele>230</ele>
        <time>2024-01-23T19:36:30Z</time>
      </trkpt>
      <trkpt lat="48.18171" lon="7.32349">
        <ele>232</ele>
        <time>2024-01-23T19:36:39Z</time>
      </trkpt>
      <trkpt lat="48.18188" lon="7.32347">
        <ele>233</ele>
        <time>2024-01-23T19:36:42Z</time>
      </trkpt>
      <trkpt lat="48.18207" lon="7.3235">
        <ele>233</ele>
        <time>2024-01-23T19:36:45Z</time>
      </trkpt>
      <trkpt lat="48.18212" lon="7.32343">
        <ele>234</ele>
        <time>2024-01-23T19:36:47Z</time>
      </trkpt>
      <trkpt lat="48.18217" lon="7.32319">
        <ele>235</ele>
        <time>2024-01-23T19:36:50Z</time>
      </trkpt>
      <trkpt lat="48.18214" lon="7.32276">
        <ele>235</ele>
        <time>2024-01-23T19:36:55Z</time>
      </trkpt>
      <trkpt lat="48.18226" lon="7.32154">
        <ele>236</ele>
        <time>2024-01-23T19:37:09Z</time>
      </trkpt>
      <trkpt lat="48.18227" lon="7.32139">
        <ele>236</ele>
        <time>2024-01-23T19:37:11Z</time>
      </trkpt>
      <trkpt lat="48.18226" lon="7.32113">
        <ele>237</ele>
        <time>2024-01-23T19:37:14Z</time>
      </trkpt>
      <trkpt lat="48.18222" lon="7.3209">
        <ele>237</ele>
        <time>2024-01-23T19:37:17Z</time>
      </trkpt>
      <trkpt lat="48.18215" lon="7.32071">
        <ele>237</ele>
        <time>2024-01-23T19:37:20Z</time>
      </trkpt>
      <trkpt lat="48.18158" lon="7.31967">
        <ele>238</ele>
        <time>2024-01-23T19:37:36Z</time>
      </trkpt>
      <trkpt lat="48.18149" lon="7.31945">
        <ele>238</ele>
        <time>2024-01-23T19:37:39Z</time>
      </trkpt>
      <trkpt lat="48.1811" lon="7.31814">
        <ele>239</ele>
        <time>2024-01-23T19:37:56Z</time>
      </trkpt>
      <trkpt lat="48.18101" lon="7.31777">
        <ele>239</ele>
        <time>2024-01-23T19:38:00Z</time>
      </trkpt>
      <trkpt lat="48.18092" lon="7.31727">
        <ele>239</ele>
        <time>2024-01-23T19:38:07Z</time>
      </trkpt>
      <trkpt lat="48.18078" lon="7.31391">
        <ele>254</ele>
        <time>2024-01-23T19:38:46Z</time>
      </trkpt>
      <trkpt lat="48.1802" lon="7.3138">
        <ele>253</ele>
        <time>2024-01-23T19:38:57Z</time>
      </trkpt>
      <trkpt lat="48.17967" lon="7.31381">
        <ele>252</ele>
        <time>2024-01-23T19:39:06Z</time>
      </trkpt>
      <trkpt lat="48.1796" lon="7.3138">
        <ele>252</ele>
        <time>2024-01-23T19:39:08Z</time>
      </trkpt>
      <trkpt lat="48.17948" lon="7.31395">
        <ele>252</ele>
        <time>2024-01-23T19:39:10Z</time>
      </trkpt>
      <trkpt lat="48.17941" lon="7.31401">
        <ele>251</ele>
        <time>2024-01-23T19:39:12Z</time>
      </trkpt>
      <trkpt lat="48.17913" lon="7.31413">
        <ele>251</ele>
        <time>2024-01-23T19:39:17Z</time>
      </trkpt>
      <trkpt lat="48.17844" lon="7.31431">
        <ele>256</ele>
        <time>2024-01-23T19:39:29Z</time>
      </trkpt>
      <trkpt lat="48.17835" lon="7.31403">
        <ele>257</ele>
        <time>2024-01-23T19:39:33Z</time>
      </trkpt>
      <trkpt lat="48.17826" lon="7.31318">
        <ele>260</ele>
        <time>2024-01-23T19:39:43Z</time>
      </trkpt>
      <trkpt lat="48.17817" lon="7.31277">
        <ele>263</ele>
        <time>2024-01-23T19:39:48Z</time>
      </trkpt>
      <trkpt lat="48.17785" lon="7.31199">
        <ele>269</ele>
        <time>2024-01-23T19:39:59Z</time>
      </trkpt>
      <trkpt lat="48.17702" lon="7.30928">
        <ele>296</ele>
        <time>2024-01-23T19:40:35Z</time>
      </trkpt>
      <trkpt lat="48.17692" lon="7.30876">
        <ele>299</ele>
        <time>2024-01-23T19:40:41Z</time>
      </trkpt>
      <trkpt lat="48.17721" lon="7.3084">
        <ele>297</ele>
        <time>2024-01-23T19:40:48Z</time>
      </trkpt>
      <trkpt lat="48.17779" lon="7.30892">
        <ele>289</ele>
        <time>2024-01-23T19:41:00Z</time>
      </trkpt>
      <trkpt lat="48.1783" lon="7.30912">
        <ele>283</ele>
        <time>2024-01-23T19:41:09Z</time>
      </trkpt>
      <trkpt lat="48.17896" lon="7.30983">
        <ele>280</ele>
        <time>2024-01-23T19:41:24Z</time>
      </trkpt>
      <trkpt lat="48.17905" lon="7.30954">
        <ele>279</ele>
        <time>2024-01-23T19:41:27Z</time>
      </trkpt>
      <trkpt lat="48.17907" lon="7.30942">
        <ele>279</ele>
        <time>2024-01-23T19:41:29Z</time>
      </trkpt>
      <trkpt lat="48.17916" lon="7.30925">
        <ele>279</ele>
        <time>2024-01-23T19:41:31Z</time>
      </trkpt>
      <trkpt lat="48.17939" lon="7.30917">
        <ele>279</ele>
        <time>2024-01-23T19:41:36Z</time>
      </trkpt>
      <trkpt lat="48.17944" lon="7.30878">
        <ele>281</ele>
        <time>2024-01-23T19:41:40Z</time>
      </trkpt>
      <trkpt lat="48.17955" lon="7.30831">
        <ele>283</ele>
        <time>2024-01-23T19:41:46Z</time>
      </trkpt>
      <trkpt lat="48.17995" lon="7.30833">
        <ele>282</ele>
        <time>2024-01-23T19:41:53Z</time>
      </trkpt>
      <trkpt lat="48.17995" lon="7.30826">
        <ele>282</ele>
        <time>2024-01-23T19:41:54Z</time>
      </trkpt>
      <trkpt lat="48.18042" lon="7.30831">
        <ele>282</ele>
        <time>2024-01-23T19:42:03Z</time>
      </trkpt>
      <trkpt lat="48.18128" lon="7.30853">
        <ele>281</ele>
        <time>2024-01-23T19:42:18Z</time>
      </trkpt>
      <trkpt lat="48.18212" lon="7.30853">
        <ele>286</ele>
        <time>2024-01-23T19:42:33Z</time>
      </trkpt>
      <trkpt lat="48.18284" lon="7.30865">
        <ele>290</ele>
        <time>2024-01-23T19:42:46Z</time>
      </trkpt>
      <trkpt lat="48.18331" lon="7.30884">
        <ele>293</ele>
        <time>2024-01-23T19:42:55Z</time>
      </trkpt>
      <trkpt lat="48.18502" lon="7.30984">
        <ele>300</ele>
        <time>2024-01-23T19:43:27Z</time>
      </trkpt>
      <trkpt lat="48.18598" lon="7.31007">
        <ele>297</ele>
        <time>2024-01-23T19:43:45Z</time>
      </trkpt>
      <trkpt lat="48.18656" lon="7.31015">
        <ele>296</ele>
        <time>2024-01-23T19:43:55Z</time>
      </trkpt>
      <trkpt lat="48.18677" lon="7.3102">
        <ele>296</ele>
        <time>2024-01-23T19:43:59Z</time>
      </trkpt>
      <trkpt lat="48.18791" lon="7.31055">
        <ele>301</ele>
        <time>2024-01-23T19:44:19Z</time>
      </trkpt>
      <trkpt lat="48.18835" lon="7.31076">
        <ele>304</ele>
        <time>2024-01-23T19:44:28Z</time>
      </trkpt>
      <trkpt lat="48.18893" lon="7.31094">
        <ele>306</ele>
        <time>2024-01-23T19:44:38Z</time>
      </trkpt>
      <trkpt lat="48.18939" lon="7.31111">
        <ele>306</ele>
        <time>2024-01-23T19:44:47Z</time>
      </trkpt>
      <trkpt lat="48.18987" lon="7.3112">
        <ele>304</ele>
        <time>2024-01-23T19:44:55Z</time>
      </trkpt>
      <trkpt lat="48.19004" lon="7.31115">
        <ele>303</ele>
        <time>2024-01-23T19:44:58Z</time>
      </trkpt>
      <trkpt lat="48.19056" lon="7.31125">
        <ele>298</ele>
        <time>2024-01-23T19:45:08Z</time>
      </trkpt>
      <trkpt lat="48.19082" lon="7.31135">
        <ele>296</ele>
        <time>2024-01-23T19:45:12Z</time>
      </trkpt>
      <trkpt lat="48.19195" lon="7.31204">
        <ele>284</ele>
        <time>2024-01-23T19:45:34Z</time>
      </trkpt>
      <trkpt lat="48.19221" lon="7.31217">
        <ele>284</ele>
        <time>2024-01-23T19:45:39Z</time>
      </trkpt>
      <trkpt lat="48.19241" lon="7.31222">
        <ele>283</ele>
        <time>2024-01-23T19:45:43Z</time>
      </trkpt>
      <trkpt lat="48.19249" lon="7.31226">
        <ele>283</ele>
        <time>2024-01-23T19:45:44Z</time>
      </trkpt>
      <trkpt lat="48.19255" lon="7.31232">
        <ele>282</ele>
        <time>2024-01-23T19:45:45Z</time>
      </trkpt>
      <trkpt lat="48.19272" lon="7.31266">
        <ele>280</ele>
        <time>2024-01-23T19:45:50Z</time>
      </trkpt>
      <trkpt lat="48.19282" lon="7.31281">
        <ele>279</ele>
        <time>2024-01-23T19:45:53Z</time>
      </trkpt>
      <trkpt lat="48.193" lon="7.31299">
        <ele>277</ele>
        <time>2024-01-23T19:45:57Z</time>
      </trkpt>
      <trkpt lat="48.19339" lon="7.31331">
        <ele>274</ele>
        <time>2024-01-23T19:46:05Z</time>
      </trkpt>
      <trkpt lat="48.19374" lon="7.31374">
        <ele>271</ele>
        <time>2024-01-23T19:46:13Z</time>
      </trkpt>
      <trkpt lat="48.19396" lon="7.31391">
        <ele>269</ele>
        <time>2024-01-23T19:46:17Z</time>
      </trkpt>
      <trkpt lat="48.19346" lon="7.31488">
        <ele>270</ele>
        <time>2024-01-23T19:46:32Z</time>
      </trkpt>
      <trkpt lat="48.19334" lon="7.31522">
        <ele>271</ele>
        <time>2024-01-23T19:46:36Z</time>
      </trkpt>
      <trkpt lat="48.19326" lon="7.3156">
        <ele>271</ele>
        <time>2024-01-23T19:46:41Z</time>
      </trkpt>
      <trkpt lat="48.19306" lon="7.31715">
        <ele>268</ele>
        <time>2024-01-23T19:47:00Z</time>
      </trkpt>
      <trkpt lat="48.19173" lon="7.32335">
        <ele>246</ele>
        <time>2024-01-23T19:48:17Z</time>
      </trkpt>
      <trkpt lat="48.19161" lon="7.32421">
        <ele>242</ele>
        <time>2024-01-23T19:48:27Z</time>
      </trkpt>
      <trkpt lat="48.19152" lon="7.32467">
        <ele>240</ele>
        <time>2024-01-23T19:48:33Z</time>
      </trkpt>
      <trkpt lat="48.19155" lon="7.32476">
        <ele>239</ele>
        <time>2024-01-23T19:48:34Z</time>
      </trkpt>
      <trkpt lat="48.19161" lon="7.32477">
        <ele>238</ele>
        <time>2024-01-23T19:48:35Z</time>
      </trkpt>
      <trkpt lat="48.19164" lon="7.32474">
        <ele>238</ele>
        <time>2024-01-23T19:48:36Z</time>
      </trkpt>
      <trkpt lat="48.19165" lon="7.32464">
        <ele>239</ele>
        <time>2024-01-23T19:48:37Z</time>
      </trkpt>
      <trkpt lat="48.19162" lon="7.32459">
        <ele>239</ele>
        <time>2024-01-23T19:48:38Z</time>
      </trkpt>
      <trkpt lat="48.19161" lon="7.32421">
        <ele>242</ele>
        <time>2024-01-23T19:48:43Z</time>
      </trkpt>
      <trkpt lat="48.19152" lon="7.32467">
        <ele>240</ele>
        <time>2024-01-23T19:48:48Z</time>
      </trkpt>
      <trkpt lat="48.19155" lon="7.32476">
        <ele>239</ele>
        <time>2024-01-23T19:48:49Z</time>
      </trkpt>
      <trkpt lat="48.19174" lon="7.32475">
        <ele>238</ele>
        <time>2024-01-23T19:48:53Z</time>
      </trkpt>
      <trkpt lat="48.19221" lon="7.32469">
        <ele>239</ele>
        <time>2024-01-23T19:49:01Z</time>
      </trkpt>
      <trkpt lat="48.19229" lon="7.32476">
        <ele>238</ele>
        <time>2024-01-23T19:49:03Z</time>
      </trkpt>
      <trkpt lat="48.19233" lon="7.32483">
        <ele>238</ele>
        <time>2024-01-23T19:49:04Z</time>
      </trkpt>
      <trkpt lat="48.19234" lon="7.32493">
        <ele>238</ele>
        <time>2024-01-23T19:49:05Z</time>
      </trkpt>
      <trkpt lat="48.19241" lon="7.32503">
        <ele>238</ele>
        <time>2024-01-23T19:49:07Z</time>
      </trkpt>
      <trkpt lat="48.19247" lon="7.32504">
        <ele>238</ele>
        <time>2024-01-23T19:49:08Z</time>
      </trkpt>
      <trkpt lat="48.19253" lon="7.32501">
        <ele>238</ele>
        <time>2024-01-23T19:49:09Z</time>
      </trkpt>
      <trkpt lat="48.19282" lon="7.32459">
        <ele>240</ele>
        <time>2024-01-23T19:49:16Z</time>
      </trkpt>
      <trkpt lat="48.19291" lon="7.32454">
        <ele>240</ele>
        <time>2024-01-23T19:49:18Z</time>
      </trkpt>
      <trkpt lat="48.19297" lon="7.32454">
        <ele>241</ele>
        <time>2024-01-23T19:49:19Z</time>
      </trkpt>
      <trkpt lat="48.19336" lon="7.32332">
        <ele>246</ele>
        <time>2024-01-23T19:49:35Z</time>
      </trkpt>
      <trkpt lat="48.19342" lon="7.32319">
        <ele>246</ele>
        <time>2024-01-23T19:49:37Z</time>
      </trkpt>
      <trkpt lat="48.19357" lon="7.32302">
        <ele>246</ele>
        <time>2024-01-23T19:49:40Z</time>
      </trkpt>
      <trkpt lat="48.19399" lon="7.32219">
        <ele>248</ele>
        <time>2024-01-23T19:49:53Z</time>
      </trkpt>
      <trkpt lat="48.19417" lon="7.32175">
        <ele>249</ele>
        <time>2024-01-23T19:49:59Z</time>
      </trkpt>
      <trkpt lat="48.19426" lon="7.32145">
        <ele>250</ele>
        <time>2024-01-23T19:50:03Z</time>
      </trkpt>
      <trkpt lat="48.1944" lon="7.32081">
        <ele>251</ele>
        <time>2024-01-23T19:50:11Z</time>
      </trkpt>
      <trkpt lat="48.19454" lon="7.32041">
        <ele>251</ele>
        <time>2024-01-23T19:50:16Z</time>
      </trkpt>
      <trkpt lat="48.19471" lon="7.32003">
        <ele>251</ele>
        <time>2024-01-23T19:50:21Z</time>
      </trkpt>
      <trkpt lat="48.19493" lon="7.31933">
        <ele>252</ele>
        <time>2024-01-23T19:50:31Z</time>
      </trkpt>
      <trkpt lat="48.19502" lon="7.31895">
        <ele>253</ele>
        <time>2024-01-23T19:50:35Z</time>
      </trkpt>
      <trkpt lat="48.19509" lon="7.31875">
        <ele>254</ele>
        <time>2024-01-23T19:50:38Z</time>
      </trkpt>
      <trkpt lat="48.19544" lon="7.31828">
        <ele>256</ele>
        <time>2024-01-23T19:50:46Z</time>
      </trkpt>
      <trkpt lat="48.19563" lon="7.31787">
        <ele>257</ele>
        <time>2024-01-23T19:50:52Z</time>
      </trkpt>
      <trkpt lat="48.19576" lon="7.31771">
        <ele>257</ele>
        <time>2024-01-23T19:50:55Z</time>
      </trkpt>
      <trkpt lat="48.19582" lon="7.3176">
        <ele>258</ele>
        <time>2024-01-23T19:50:57Z</time>
      </trkpt>
      <trkpt lat="48.19587" lon="7.3174">
        <ele>258</ele>
        <time>2024-01-23T19:51:00Z</time>
      </trkpt>
      <trkpt lat="48.1959" lon="7.31739">
        <ele>259</ele>
        <time>2024-01-23T19:51:00Z</time>
      </trkpt>
      <trkpt lat="48.1961" lon="7.31719">
        <ele>260</ele>
        <time>2024-01-23T19:51:04Z</time>
      </trkpt>
      <trkpt lat="48.19635" lon="7.31714">
        <ele>261</ele>
        <time>2024-01-23T19:51:09Z</time>
      </trkpt>
      <trkpt lat="48.19683" lon="7.31723">
        <ele>264</ele>
        <time>2024-01-23T19:51:17Z</time>
      </trkpt>
      <trkpt lat="48.19727" lon="7.31741">
        <ele>268</ele>
        <time>2024-01-23T19:51:26Z</time>
      </trkpt>
      <trkpt lat="48.19731" lon="7.31744">
        <ele>268</ele>
        <time>2024-01-23T19:51:26Z</time>
      </trkpt>
      <trkpt lat="48.19734" lon="7.31751">
        <ele>269</ele>
        <time>2024-01-23T19:51:27Z</time>
      </trkpt>
      <trkpt lat="48.19684" lon="7.31807">
        <ele>267</ele>
        <time>2024-01-23T19:51:38Z</time>
      </trkpt>
      <trkpt lat="48.19656" lon="7.31818">
        <ele>264</ele>
        <time>2024-01-23T19:51:44Z</time>
      </trkpt>
      <trkpt lat="48.19649" lon="7.31826">
        <ele>263</ele>
        <time>2024-01-23T19:51:45Z</time>
      </trkpt>
      <trkpt lat="48.19621" lon="7.31885">
        <ele>262</ele>
        <time>2024-01-23T19:51:54Z</time>
      </trkpt>
      <trkpt lat="48.19607" lon="7.3191">
        <ele>260</ele>
        <time>2024-01-23T19:51:58Z</time>
      </trkpt>
      <trkpt lat="48.19595" lon="7.31924">
        <ele>257</ele>
        <time>2024-01-23T19:52:00Z</time>
      </trkpt>
      <trkpt lat="48.19555" lon="7.32061">
        <ele>257</ele>
        <time>2024-01-23T19:52:18Z</time>
      </trkpt>
      <trkpt lat="48.19522" lon="7.32212">
        <ele>255</ele>
        <time>2024-01-23T19:52:37Z</time>
      </trkpt>
      <trkpt lat="48.19508" lon="7.32269">
        <ele>253</ele>
        <time>2024-01-23T19:52:44Z</time>
      </trkpt>
      <trkpt lat="48.19471" lon="7.32391">
        <ele>250</ele>
        <time>2024-01-23T19:53:00Z</time>
      </trkpt>
      <trkpt lat="48.19439" lon="7.32489">
        <ele>245</ele>
        <time>2024-01-23T19:53:13Z</time>
      </trkpt>
      <trkpt lat="48.19426" lon="7.32507">
        <ele>242</ele>
        <time>2024-01-23T19:53:16Z</time>
      </trkpt>
      <trkpt lat="48.19439" lon="7.3255">
        <ele>244</ele>
        <time>2024-01-23T19:53:22Z</time>
      </trkpt>
      <trkpt lat="48.19447" lon="7.32604">
        <ele>244</ele>
        <time>2024-01-23T19:53:28Z</time>
      </trkpt>
      <trkpt lat="48.19454" lon="7.32784">
        <ele>239</ele>
        <time>2024-01-23T19:53:50Z</time>
      </trkpt>
      <trkpt lat="48.19466" lon="7.32909">
        <ele>236</ele>
        <time>2024-01-23T19:54:05Z</time>
      </trkpt>
      <trkpt lat="48.19475" lon="7.32959">
        <ele>236</ele>
        <time>2024-01-23T19:54:11Z</time>
      </trkpt>
      <trkpt lat="48.19486" lon="7.32997">
        <ele>236</ele>
        <time>2024-01-23T19:54:16Z</time>
      </trkpt>
      <trkpt lat="48.195" lon="7.33037">
        <ele>236</ele>
        <time>2024-01-23T19:54:21Z</time>
      </trkpt>
      <trkpt lat="48.19521" lon="7.33081">
        <ele>237</ele>
        <time>2024-01-23T19:54:27Z</time>
      </trkpt>
      <trkpt lat="48.19584" lon="7.33184">
        <ele>236</ele>
        <time>2024-01-23T19:54:44Z</time>
      </trkpt>
      <trkpt lat="48.19619" lon="7.33253">
        <ele>234</ele>
        <time>2024-01-23T19:54:54Z</time>
      </trkpt>
      <trkpt lat="48.19636" lon="7.33278">
        <ele>234</ele>
        <time>2024-01-23T19:54:59Z</time>
      </trkpt>
      <trkpt lat="48.19733" lon="7.33396">
        <ele>229</ele>
        <time>2024-01-23T19:55:21Z</time>
      </trkpt>
      <trkpt lat="48.19771" lon="7.33452">
        <ele>228</ele>
        <time>2024-01-23T19:55:30Z</time>
      </trkpt>
      <trkpt lat="48.19785" lon="7.33488">
        <ele>229</ele>
        <time>2024-01-23T19:55:35Z</time>
      </trkpt>
      <trkpt lat="48.19807" lon="7.33587">
        <ele>228</ele>
        <time>2024-01-23T19:55:48Z</time>
      </trkpt>
      <trkpt lat="48.19853" lon="7.33694">
        <ele>229</ele>
        <time>2024-01-23T19:56:03Z</time>
      </trkpt>
      <trkpt lat="48.1987" lon="7.33725">
        <ele>229</ele>
        <time>2024-01-23T19:56:07Z</time>
      </trkpt>
      <trkpt lat="48.19889" lon="7.3375">
        <ele>229</ele>
        <time>2024-01-23T19:56:12Z</time>
      </trkpt>
      <trkpt lat="48.19955" lon="7.33803">
        <ele>233</ele>
        <time>2024-01-23T19:56:25Z</time>
      </trkpt>
      <trkpt lat="48.19968" lon="7.33818">
        <ele>234</ele>
        <time>2024-01-23T19:56:28Z</time>
      </trkpt>
      <trkpt lat="48.19981" lon="7.33841">
        <ele>235</ele>
        <time>2024-01-23T19:56:32Z</time>
      </trkpt>
      <trkpt lat="48.20012" lon="7.33915">
        <ele>238</ele>
        <time>2024-01-23T19:56:42Z</time>
      </trkpt>
      <trkpt lat="48.20021" lon="7.33931">
        <ele>238</ele>
        <time>2024-01-23T19:56:45Z</time>
      </trkpt>
      <trkpt lat="48.20086" lon="7.34018">
        <ele>238</ele>
        <time>2024-01-23T19:57:00Z</time>
      </trkpt>
      <trkpt lat="48.20109" lon="7.34054">
        <ele>239</ele>
        <time>2024-01-23T19:57:06Z</time>
      </trkpt>
      <trkpt lat="48.20119" lon="7.34078">
        <ele>239</ele>
        <time>2024-01-23T19:57:09Z</time>
      </trkpt>
      <trkpt lat="48.20127" lon="7.34109">
        <ele>239</ele>
        <time>2024-01-23T19:57:13Z</time>
      </trkpt>
      <trkpt lat="48.20137" lon="7.34183">
        <ele>239</ele>
        <time>2024-01-23T19:57:22Z</time>
      </trkpt>
      <trkpt lat="48.20144" lon="7.34297">
        <ele>238</ele>
        <time>2024-01-23T19:57:36Z</time>
      </trkpt>
      <trkpt lat="48.20147" lon="7.34397">
        <ele>239</ele>
        <time>2024-01-23T19:57:48Z</time>
      </trkpt>
      <trkpt lat="48.2015" lon="7.34429">
        <ele>240</ele>
        <time>2024-01-23T19:57:52Z</time>
      </trkpt>
      <trkpt lat="48.20157" lon="7.34461">
        <ele>240</ele>
        <time>2024-01-23T19:57:56Z</time>
      </trkpt>
      <trkpt lat="48.20176" lon="7.34508">
        <ele>240</ele>
        <time>2024-01-23T19:58:02Z</time>
      </trkpt>
      <trkpt lat="48.20205" lon="7.34604">
        <ele>240</ele>
        <time>2024-01-23T19:58:15Z</time>
      </trkpt>
      <trkpt lat="48.20231" lon="7.34668">
        <ele>241</ele>
        <time>2024-01-23T19:58:23Z</time>
      </trkpt>
      <trkpt lat="48.2027" lon="7.34738">
        <ele>239</ele>
        <time>2024-01-23T19:58:34Z</time>
      </trkpt>
      <trkpt lat="48.20281" lon="7.34755">
        <ele>238</ele>
        <time>2024-01-23T19:58:37Z</time>
      </trkpt>
      <trkpt lat="48.20295" lon="7.34771">
        <ele>236</ele>
        <time>2024-01-23T19:58:40Z</time>
      </trkpt>
      <trkpt lat="48.20333" lon="7.34806">
        <ele>233</ele>
        <time>2024-01-23T19:58:48Z</time>
      </trkpt>
      <trkpt lat="48.20351" lon="7.34825">
        <ele>231</ele>
        <time>2024-01-23T19:58:52Z</time>
      </trkpt>
      <trkpt lat="48.20368" lon="7.3485">
        <ele>229</ele>
        <time>2024-01-23T19:58:56Z</time>
      </trkpt>
      <trkpt lat="48.20393" lon="7.34905">
        <ele>228</ele>
        <time>2024-01-23T19:59:04Z</time>
      </trkpt>
      <trkpt lat="48.20411" lon="7.34969">
        <ele>228</ele>
        <time>2024-01-23T19:59:12Z</time>
      </trkpt>
      <trkpt lat="48.20421" lon="7.34998">
        <ele>228</ele>
        <time>2024-01-23T19:59:16Z</time>
      </trkpt>
      <trkpt lat="48.20458" lon="7.35057">
        <ele>226</ele>
        <time>2024-01-23T19:59:26Z</time>
      </trkpt>
      <trkpt lat="48.20476" lon="7.35111">
        <ele>225</ele>
        <time>2024-01-23T19:59:33Z</time>
      </trkpt>
      <trkpt lat="48.2048" lon="7.3517">
        <ele>225</ele>
        <time>2024-01-23T19:59:40Z</time>
      </trkpt>
      <trkpt lat="48.20482" lon="7.35305">
        <ele>221</ele>
        <time>2024-01-23T19:59:56Z</time>
      </trkpt>
      <trkpt lat="48.20485" lon="7.35343">
        <ele>220</ele>
        <time>2024-01-23T20:00:01Z</time>
      </trkpt>
      <trkpt lat="48.20491" lon="7.3537">
        <ele>220</ele>
        <time>2024-01-23T20:00:04Z</time>
      </trkpt>
      <trkpt lat="48.20514" lon="7.35432">
        <ele>219</ele>
        <time>2024-01-23T20:00:12Z</time>
      </trkpt>
      <trkpt lat="48.20519" lon="7.35463">
        <ele>218</ele>
        <time>2024-01-23T20:00:16Z</time>
      </trkpt>
      <trkpt lat="48.20504" lon="7.35614">
        <ele>217</ele>
        <time>2024-01-23T20:00:34Z</time>
      </trkpt>
      <trkpt lat="48.20506" lon="7.35661">
        <ele>215</ele>
        <time>2024-01-23T20:00:40Z</time>
      </trkpt>
      <trkpt lat="48.20513" lon="7.35685">
        <ele>215</ele>
        <time>2024-01-23T20:00:43Z</time>
      </trkpt>
      <trkpt lat="48.20507" lon="7.3569">
        <ele>215</ele>
        <time>2024-01-23T20:00:44Z</time>
      </trkpt>
      <trkpt lat="48.20503" lon="7.35701">
        <ele>215</ele>
        <time>2024-01-23T20:00:46Z</time>
      </trkpt>
      <trkpt lat="48.20488" lon="7.35868">
        <ele>213</ele>
        <time>2024-01-23T20:01:06Z</time>
      </trkpt>
      <trkpt lat="48.20523" lon="7.35865">
        <ele>213</ele>
        <time>2024-01-23T20:01:12Z</time>
      </trkpt>
      <trkpt lat="48.20529" lon="7.35857">
        <ele>213</ele>
        <time>2024-01-23T20:01:13Z</time>
      </trkpt>
      <trkpt lat="48.20585" lon="7.35854">
        <ele>214</ele>
        <time>2024-01-23T20:01:23Z</time>
      </trkpt>
      <trkpt lat="48.20584" lon="7.35898">
        <ele>214</ele>
        <time>2024-01-23T20:01:29Z</time>
      </trkpt>
      <trkpt lat="48.20581" lon="7.35898">
        <ele>214</ele>
        <time>2024-01-23T20:01:29Z</time>
      </trkpt>
      <trkpt lat="48.20576" lon="7.35929">
        <ele>214</ele>
        <time>2024-01-23T20:01:33Z</time>
      </trkpt>
      <trkpt lat="48.20574" lon="7.3598">
        <ele>213</ele>
        <time>2024-01-23T20:01:39Z</time>
      </trkpt>
      <trkpt lat="48.20577" lon="7.35979">
        <ele>213</ele>
        <time>2024-01-23T20:01:40Z</time>
      </trkpt>
      <trkpt lat="48.20578" lon="7.35993">
        <ele>213</ele>
        <time>2024-01-23T20:01:41Z</time>
      </trkpt>
      <trkpt lat="48.20575" lon="7.35993">
        <ele>213</ele>
        <time>2024-01-23T20:01:42Z</time>
      </trkpt>
      <trkpt lat="48.20578" lon="7.35993">
        <ele>213</ele>
        <time>2024-01-23T20:01:42Z</time>
      </trkpt>
      <trkpt lat="48.20575" lon="7.36053">
        <ele>212</ele>
        <time>2024-01-23T20:01:49Z</time>
      </trkpt>
      <trkpt lat="48.2056" lon="7.3615">
        <ele>211</ele>
        <time>2024-01-23T20:02:01Z</time>
      </trkpt>
      <trkpt lat="48.20553" lon="7.36232">
        <ele>211</ele>
        <time>2024-01-23T20:02:11Z</time>
      </trkpt>
      <trkpt lat="48.20538" lon="7.36321">
        <ele>210</ele>
        <time>2024-01-23T20:02:22Z</time>
      </trkpt>
      <trkpt lat="48.2051" lon="7.36542">
        <ele>205</ele>
        <time>2024-01-23T20:02:49Z</time>
      </trkpt>
      <trkpt lat="48.20506" lon="7.36606">
        <ele>204</ele>
        <time>2024-01-23T20:02:56Z</time>
      </trkpt>
      <trkpt lat="48.20507" lon="7.36672">
        <ele>204</ele>
        <time>2024-01-23T20:03:04Z</time>
      </trkpt>
      <trkpt lat="48.20499" lon="7.36703">
        <ele>203</ele>
        <time>2024-01-23T20:03:08Z</time>
      </trkpt>
      <trkpt lat="48.20507" lon="7.36717">
        <ele>203</ele>
        <time>2024-01-23T20:03:10Z</time>
      </trkpt>
      <trkpt lat="48.2051" lon="7.36729">
        <ele>202</ele>
        <time>2024-01-23T20:03:12Z</time>
      </trkpt>
      <trkpt lat="48.20516" lon="7.36875">
        <ele>200</ele>
        <time>2024-01-23T20:03:29Z</time>
      </trkpt>
      <trkpt lat="48.20527" lon="7.36875">
        <ele>200</ele>
        <time>2024-01-23T20:03:31Z</time>
      </trkpt>
      <trkpt lat="48.20615" lon="7.36899">
        <ele>198</ele>
        <time>2024-01-23T20:03:47Z</time>
      </trkpt>
      <trkpt lat="48.20654" lon="7.36898">
        <ele>196</ele>
        <time>2024-01-23T20:03:54Z</time>
      </trkpt>
      <trkpt lat="48.20667" lon="7.36888">
        <ele>196</ele>
        <time>2024-01-23T20:03:56Z</time>
      </trkpt>
      <trkpt lat="48.20675" lon="7.36873">
        <ele>197</ele>
        <time>2024-01-23T20:03:59Z</time>
      </trkpt>
      <trkpt lat="48.20683" lon="7.36844">
        <ele>199</ele>
        <time>2024-01-23T20:04:02Z</time>
      </trkpt>
      <trkpt lat="48.20692" lon="7.36834">
        <ele>199</ele>
        <time>2024-01-23T20:04:04Z</time>
      </trkpt>
      <trkpt lat="48.20687" lon="7.36823">
        <ele>199</ele>
        <time>2024-01-23T20:04:06Z</time>
      </trkpt>
      <trkpt lat="48.20655" lon="7.3679">
        <ele>200</ele>
        <time>2024-01-23T20:04:13Z</time>
      </trkpt>
      <trkpt lat="48.20636" lon="7.36758">
        <ele>201</ele>
        <time>2024-01-23T20:04:18Z</time>
      </trkpt>
      <trkpt lat="48.20632" lon="7.36746">
        <ele>201</ele>
        <time>2024-01-23T20:04:20Z</time>
      </trkpt>
      <trkpt lat="48.20637" lon="7.36694">
        <ele>201</ele>
        <time>2024-01-23T20:04:26Z</time>
      </trkpt>
      <trkpt lat="48.20638" lon="7.3665">
        <ele>201</ele>
        <time>2024-01-23T20:04:31Z</time>
      </trkpt>
      <trkpt lat="48.2064" lon="7.36634">
        <ele>201</ele>
        <time>2024-01-23T20:04:33Z</time>
      </trkpt>
      <trkpt lat="48.20649" lon="7.36607">
        <ele>201</ele>
        <time>2024-01-23T20:04:37Z</time>
      </trkpt>
      <trkpt lat="48.20668" lon="7.36565">
        <ele>201</ele>
        <time>2024-01-23T20:04:43Z</time>
      </trkpt>
      <trkpt lat="48.20678" lon="7.36513">
        <ele>203</ele>
        <time>2024-01-23T20:04:49Z</time>
      </trkpt>
      <trkpt lat="48.2069" lon="7.36419">
        <ele>205</ele>
        <time>2024-01-23T20:05:00Z</time>
      </trkpt>
      <trkpt lat="48.20707" lon="7.36311">
        <ele>207</ele>
        <time>2024-01-23T20:05:13Z</time>
      </trkpt>
      <trkpt lat="48.20707" lon="7.36294">
        <ele>207</ele>
        <time>2024-01-23T20:05:15Z</time>
      </trkpt>
      <trkpt lat="48.207" lon="7.3628">
        <ele>207</ele>
        <time>2024-01-23T20:05:18Z</time>
      </trkpt>
      <trkpt lat="48.20699" lon="7.3626">
        <ele>207</ele>
        <time>2024-01-23T20:05:20Z</time>
      </trkpt>
      <trkpt lat="48.20706" lon="7.3622">
        <ele>208</ele>
        <time>2024-01-23T20:05:25Z</time>
      </trkpt>
      <trkpt lat="48.20708" lon="7.36187">
        <ele>209</ele>
        <time>2024-01-23T20:05:29Z</time>
      </trkpt>
      <trkpt lat="48.20704" lon="7.36141">
        <ele>210</ele>
        <time>2024-01-23T20:05:34Z</time>
      </trkpt>
      <trkpt lat="48.20685" lon="7.36026">
        <ele>213</ele>
        <time>2024-01-23T20:05:48Z</time>
      </trkpt>
      <trkpt lat="48.20678" lon="7.36024">
        <ele>212</ele>
        <time>2024-01-23T20:05:50Z</time>
      </trkpt>
      <trkpt lat="48.20668" lon="7.36025">
        <ele>212</ele>
        <time>2024-01-23T20:05:51Z</time>
      </trkpt>
      <trkpt lat="48.2067" lon="7.36016">
        <ele>212</ele>
        <time>2024-01-23T20:05:53Z</time>
      </trkpt>
      <trkpt lat="48.20677" lon="7.35937">
        <ele>213</ele>
        <time>2024-01-23T20:06:02Z</time>
      </trkpt>
      <trkpt lat="48.20686" lon="7.35929">
        <ele>214</ele>
        <time>2024-01-23T20:06:04Z</time>
      </trkpt>
      <trkpt lat="48.2069" lon="7.35891">
        <ele>215</ele>
        <time>2024-01-23T20:06:08Z</time>
      </trkpt>
      <trkpt lat="48.20689" lon="7.35879">
        <ele>215</ele>
        <time>2024-01-23T20:06:10Z</time>
      </trkpt>
      <trkpt lat="48.20685" lon="7.35866">
        <ele>215</ele>
        <time>2024-01-23T20:06:12Z</time>
      </trkpt>
      <trkpt lat="48.20679" lon="7.35859">
        <ele>215</ele>
        <time>2024-01-23T20:06:13Z</time>
      </trkpt>
      <trkpt lat="48.20669" lon="7.35853">
        <ele>214</ele>
        <time>2024-01-23T20:06:15Z</time>
      </trkpt>
      <trkpt lat="48.20673" lon="7.35839">
        <ele>214</ele>
        <time>2024-01-23T20:06:17Z</time>
      </trkpt>
      <trkpt lat="48.20671" lon="7.35812">
        <ele>215</ele>
        <time>2024-01-23T20:06:20Z</time>
      </trkpt>
      <trkpt lat="48.20663" lon="7.3577">
        <ele>215</ele>
        <time>2024-01-23T20:06:25Z</time>
      </trkpt>
      <trkpt lat="48.20645" lon="7.3577">
        <ele>215</ele>
        <time>2024-01-23T20:06:28Z</time>
      </trkpt>
      <trkpt lat="48.20609" lon="7.3578">
        <ele>214</ele>
        <time>2024-01-23T20:06:35Z</time>
      </trkpt>
      <trkpt lat="48.20595" lon="7.35781">
        <ele>214</ele>
        <time>2024-01-23T20:06:37Z</time>
      </trkpt>
      <trkpt lat="48.20594" lon="7.35773">
        <ele>214</ele>
        <time>2024-01-23T20:06:38Z</time>
      </trkpt>
      <trkpt lat="48.2059" lon="7.35768">
        <ele>214</ele>
        <time>2024-01-23T20:06:39Z</time>
      </trkpt>
      <trkpt lat="48.20585" lon="7.35766">
        <ele>214</ele>
        <time>2024-01-23T20:06:40Z</time>
      </trkpt>
      <trkpt lat="48.20584" lon="7.35719">
        <ele>214</ele>
        <time>2024-01-23T20:06:46Z</time>
      </trkpt>
      <trkpt lat="48.20646" lon="7.35513">
        <ele>217</ele>
        <time>2024-01-23T20:07:12Z</time>
      </trkpt>
      <trkpt lat="48.20656" lon="7.3547">
        <ele>217</ele>
        <time>2024-01-23T20:07:18Z</time>
      </trkpt>
      <trkpt lat="48.20671" lon="7.35356">
        <ele>219</ele>
        <time>2024-01-23T20:07:32Z</time>
      </trkpt>
      <trkpt lat="48.20714" lon="7.35153">
        <ele>224</ele>
        <time>2024-01-23T20:07:57Z</time>
      </trkpt>
      <trkpt lat="48.20742" lon="7.35082">
        <ele>223</ele>
        <time>2024-01-23T20:08:07Z</time>
      </trkpt>
      <trkpt lat="48.20754" lon="7.35035">
        <ele>223</ele>
        <time>2024-01-23T20:08:13Z</time>
      </trkpt>
      <trkpt lat="48.20781" lon="7.34961">
        <ele>226</ele>
        <time>2024-01-23T20:08:23Z</time>
      </trkpt>
      <trkpt lat="48.20789" lon="7.34922">
        <ele>227</ele>
        <time>2024-01-23T20:08:27Z</time>
      </trkpt>
      <trkpt lat="48.20791" lon="7.3489">
        <ele>228</ele>
        <time>2024-01-23T20:08:31Z</time>
      </trkpt>
      <trkpt lat="48.20788" lon="7.34813">
        <ele>228</ele>
        <time>2024-01-23T20:08:40Z</time>
      </trkpt>
      <trkpt lat="48.20803" lon="7.3468">
        <ele>230</ele>
        <time>2024-01-23T20:08:56Z</time>
      </trkpt>
      <trkpt lat="48.20827" lon="7.34598">
        <ele>233</ele>
        <time>2024-01-23T20:09:07Z</time>
      </trkpt>
      <trkpt lat="48.20838" lon="7.34532">
        <ele>234</ele>
        <time>2024-01-23T20:09:15Z</time>
      </trkpt>
      <trkpt lat="48.20855" lon="7.3448">
        <ele>235</ele>
        <time>2024-01-23T20:09:22Z</time>
      </trkpt>
      <trkpt lat="48.20878" lon="7.34438">
        <ele>237</ele>
        <time>2024-01-23T20:09:28Z</time>
      </trkpt>
      <trkpt lat="48.20893" lon="7.34417">
        <ele>238</ele>
        <time>2024-01-23T20:09:32Z</time>
      </trkpt>
      <trkpt lat="48.20924" lon="7.3439">
        <ele>240</ele>
        <time>2024-01-23T20:09:38Z</time>
      </trkpt>
      <trkpt lat="48.20939" lon="7.34382">
        <ele>240</ele>
        <time>2024-01-23T20:09:41Z</time>
      </trkpt>
      <trkpt lat="48.20976" lon="7.3437">
        <ele>240</ele>
        <time>2024-01-23T20:09:48Z</time>
      </trkpt>
      <trkpt lat="48.20993" lon="7.3436">
        <ele>240</ele>
        <time>2024-01-23T20:09:51Z</time>
      </trkpt>
      <trkpt lat="48.21006" lon="7.34349">
        <ele>240</ele>
        <time>2024-01-23T20:09:54Z</time>
      </trkpt>
      <trkpt lat="48.21109" lon="7.3424">
        <ele>247</ele>
        <time>2024-01-23T20:10:16Z</time>
      </trkpt>
      <trkpt lat="48.21148" lon="7.34195">
        <ele>250</ele>
        <time>2024-01-23T20:10:25Z</time>
      </trkpt>
      <trkpt lat="48.21188" lon="7.34143">
        <ele>252</ele>
        <time>2024-01-23T20:10:34Z</time>
      </trkpt>
      <trkpt lat="48.21227" lon="7.34077">
        <ele>252</ele>
        <time>2024-01-23T20:10:45Z</time>
      </trkpt>
      <trkpt lat="48.21273" lon="7.33989">
        <ele>254</ele>
        <time>2024-01-23T20:10:58Z</time>
      </trkpt>
      <trkpt lat="48.21339" lon="7.33802">
        <ele>260</ele>
        <time>2024-01-23T20:11:23Z</time>
      </trkpt>
      <trkpt lat="48.21374" lon="7.33748">
        <ele>267</ele>
        <time>2024-01-23T20:11:32Z</time>
      </trkpt>
      <trkpt lat="48.21406" lon="7.33686">
        <ele>269</ele>
        <time>2024-01-23T20:11:42Z</time>
      </trkpt>
      <trkpt lat="48.21427" lon="7.33666">
        <ele>268</ele>
        <time>2024-01-23T20:11:46Z</time>
      </trkpt>
      <trkpt lat="48.21476" lon="7.33633">
        <ele>270</ele>
        <time>2024-01-23T20:11:55Z</time>
      </trkpt>
      <trkpt lat="48.21493" lon="7.33619">
        <ele>270</ele>
        <time>2024-01-23T20:11:59Z</time>
      </trkpt>
      <trkpt lat="48.21526" lon="7.33582">
        <ele>268</ele>
        <time>2024-01-23T20:12:06Z</time>
      </trkpt>
      <trkpt lat="48.21596" lon="7.3352">
        <ele>273</ele>
        <time>2024-01-23T20:12:21Z</time>
      </trkpt>
      <trkpt lat="48.21613" lon="7.33499">
        <ele>276</ele>
        <time>2024-01-23T20:12:25Z</time>
      </trkpt>
      <trkpt lat="48.21635" lon="7.33468">
        <ele>281</ele>
        <time>2024-01-23T20:12:30Z</time>
      </trkpt>
      <trkpt lat="48.21658" lon="7.33432">
        <ele>283</ele>
        <time>2024-01-23T20:12:36Z</time>
      </trkpt>
      <trkpt lat="48.21724" lon="7.33344">
        <ele>290</ele>
        <time>2024-01-23T20:12:52Z</time>
      </trkpt>
      <trkpt lat="48.21738" lon="7.33317">
        <ele>289</ele>
        <time>2024-01-23T20:12:56Z</time>
      </trkpt>
      <trkpt lat="48.21744" lon="7.333">
        <ele>289</ele>
        <time>2024-01-23T20:12:58Z</time>
      </trkpt>
      <trkpt lat="48.21752" lon="7.33268">
        <ele>287</ele>
        <time>2024-01-23T20:13:02Z</time>
      </trkpt>
      <trkpt lat="48.21762" lon="7.33209">
        <ele>290</ele>
        <time>2024-01-23T20:13:09Z</time>
      </trkpt>
      <trkpt lat="48.2177" lon="7.3318">
        <ele>292</ele>
        <time>2024-01-23T20:13:13Z</time>
      </trkpt>
      <trkpt lat="48.2178" lon="7.33154">
        <ele>294</ele>
        <time>2024-01-23T20:13:17Z</time>
      </trkpt>
      <trkpt lat="48.21802" lon="7.33112">
        <ele>294</ele>
        <time>2024-01-23T20:13:23Z</time>
      </trkpt>
      <trkpt lat="48.21833" lon="7.33061">
        <ele>293</ele>
        <time>2024-01-23T20:13:31Z</time>
      </trkpt>
      <trkpt lat="48.21922" lon="7.32888">
        <ele>295</ele>
        <time>2024-01-23T20:13:57Z</time>
      </trkpt>
      <trkpt lat="48.21977" lon="7.32791">
        <ele>299</ele>
        <time>2024-01-23T20:14:12Z</time>
      </trkpt>
      <trkpt lat="48.22042" lon="7.32707">
        <ele>301</ele>
        <time>2024-01-23T20:14:27Z</time>
      </trkpt>
      <trkpt lat="48.22062" lon="7.32671">
        <ele>301</ele>
        <time>2024-01-23T20:14:33Z</time>
      </trkpt>
      <trkpt lat="48.22119" lon="7.32543">
        <ele>307</ele>
        <time>2024-01-23T20:14:51Z</time>
      </trkpt>
      <trkpt lat="48.22142" lon="7.32455">
        <ele>318</ele>
        <time>2024-01-23T20:15:02Z</time>
      </trkpt>
      <trkpt lat="48.22145" lon="7.32418">
        <ele>322</ele>
        <time>2024-01-23T20:15:07Z</time>
      </trkpt>
      <trkpt lat="48.22152" lon="7.32261">
        <ele>325</ele>
        <time>2024-01-23T20:15:25Z</time>
      </trkpt>
      <trkpt lat="48.22155" lon="7.32242">
        <ele>325</ele>
        <time>2024-01-23T20:15:28Z</time>
      </trkpt>
      <trkpt lat="48.2216" lon="7.32228">
        <ele>325</ele>
        <time>2024-01-23T20:15:30Z</time>
      </trkpt>
      <trkpt lat="48.22169" lon="7.32214">
        <ele>325</ele>
        <time>2024-01-23T20:15:32Z</time>
      </trkpt>
      <trkpt lat="48.22197" lon="7.32186">
        <ele>330</ele>
        <time>2024-01-23T20:15:38Z</time>
      </trkpt>
      <trkpt lat="48.22213" lon="7.32164">
        <ele>330</ele>
        <time>2024-01-23T20:15:42Z</time>
      </trkpt>
      <trkpt lat="48.22222" lon="7.3214">
        <ele>329</ele>
        <time>2024-01-23T20:15:45Z</time>
      </trkpt>
      <trkpt lat="48.22227" lon="7.3212">
        <ele>328</ele>
        <time>2024-01-23T20:15:48Z</time>
      </trkpt>
      <trkpt lat="48.22232" lon="7.32083">
        <ele>326</ele>
        <time>2024-01-23T20:15:52Z</time>
      </trkpt>
      <trkpt lat="48.22233" lon="7.32046">
        <ele>327</ele>
        <time>2024-01-23T20:15:56Z</time>
      </trkpt>
      <trkpt lat="48.22231" lon="7.32021">
        <ele>329</ele>
        <time>2024-01-23T20:15:59Z</time>
      </trkpt>
      <trkpt lat="48.22226" lon="7.31996">
        <ele>330</ele>
        <time>2024-01-23T20:16:02Z</time>
      </trkpt>
      <trkpt lat="48.22219" lon="7.31966">
        <ele>333</ele>
        <time>2024-01-23T20:16:06Z</time>
      </trkpt>
      <trkpt lat="48.22203" lon="7.31922">
        <ele>336</ele>
        <time>2024-01-23T20:16:12Z</time>
      </trkpt>
      <trkpt lat="48.22191" lon="7.31882">
        <ele>335</ele>
        <time>2024-01-23T20:16:17Z</time>
      </trkpt>
      <trkpt lat="48.22181" lon="7.31832">
        <ele>333</ele>
        <time>2024-01-23T20:16:24Z</time>
      </trkpt>
      <trkpt lat="48.22178" lon="7.31785">
        <ele>334</ele>
        <time>2024-01-23T20:16:29Z</time>
      </trkpt>
      <trkpt lat="48.22188" lon="7.317">
        <ele>342</ele>
        <time>2024-01-23T20:16:39Z</time>
      </trkpt>
      <trkpt lat="48.22197" lon="7.31675">
        <ele>343</ele>
        <time>2024-01-23T20:16:43Z</time>
      </trkpt>
      <trkpt lat="48.22207" lon="7.31661">
        <ele>344</ele>
        <time>2024-01-23T20:16:45Z</time>
      </trkpt>
      <trkpt lat="48.22216" lon="7.31653">
        <ele>345</ele>
        <time>2024-01-23T20:16:47Z</time>
      </trkpt>
      <trkpt lat="48.22257" lon="7.31636">
        <ele>345</ele>
        <time>2024-01-23T20:16:55Z</time>
      </trkpt>
      <trkpt lat="48.22321" lon="7.31623">
        <ele>347</ele>
        <time>2024-01-23T20:17:06Z</time>
      </trkpt>
      <trkpt lat="48.2233" lon="7.31617">
        <ele>347</ele>
        <time>2024-01-23T20:17:08Z</time>
      </trkpt>
      <trkpt lat="48.22341" lon="7.31595">
        <ele>350</ele>
        <time>2024-01-23T20:17:11Z</time>
      </trkpt>
      <trkpt lat="48.2236" lon="7.31515">
        <ele>363</ele>
        <time>2024-01-23T20:17:21Z</time>
      </trkpt>
      <trkpt lat="48.2236" lon="7.31501">
        <ele>364</ele>
        <time>2024-01-23T20:17:23Z</time>
      </trkpt>
      <trkpt lat="48.22352" lon="7.31453">
        <ele>368</ele>
        <time>2024-01-23T20:17:29Z</time>
      </trkpt>
      <trkpt lat="48.22352" lon="7.31434">
        <ele>370</ele>
        <time>2024-01-23T20:17:31Z</time>
      </trkpt>
      <trkpt lat="48.22356" lon="7.31415">
        <ele>372</ele>
        <time>2024-01-23T20:17:33Z</time>
      </trkpt>
      <trkpt lat="48.2236" lon="7.31405">
        <ele>373</ele>
        <time>2024-01-23T20:17:35Z</time>
      </trkpt>
      <trkpt lat="48.22366" lon="7.31399">
        <ele>374</ele>
        <time>2024-01-23T20:17:36Z</time>
      </trkpt>
      <trkpt lat="48.22373" lon="7.31395">
        <ele>375</ele>
        <time>2024-01-23T20:17:37Z</time>
      </trkpt>
      <trkpt lat="48.22381" lon="7.31396">
        <ele>374</ele>
        <time>2024-01-23T20:17:39Z</time>
      </trkpt>
      <trkpt lat="48.22388" lon="7.31401">
        <ele>373</ele>
        <time>2024-01-23T20:17:40Z</time>
      </trkpt>
      <trkpt lat="48.22401" lon="7.3142">
        <ele>369</ele>
        <time>2024-01-23T20:17:43Z</time>
      </trkpt>
      <trkpt lat="48.2241" lon="7.3143">
        <ele>368</ele>
        <time>2024-01-23T20:17:45Z</time>
      </trkpt>
      <trkpt lat="48.22418" lon="7.31432">
        <ele>368</ele>
        <time>2024-01-23T20:17:47Z</time>
      </trkpt>
      <trkpt lat="48.22426" lon="7.31428">
        <ele>370</ele>
        <time>2024-01-23T20:17:48Z</time>
      </trkpt>
      <trkpt lat="48.22462" lon="7.31391">
        <ele>377</ele>
        <time>2024-01-23T20:17:56Z</time>
      </trkpt>
      <trkpt lat="48.22482" lon="7.31375">
        <ele>381</ele>
        <time>2024-01-23T20:18:00Z</time>
      </trkpt>
      <trkpt lat="48.22535" lon="7.3135">
        <ele>388</ele>
        <time>2024-01-23T20:18:10Z</time>
      </trkpt>
      <trkpt lat="48.22545" lon="7.31343">
        <ele>389</ele>
        <time>2024-01-23T20:18:12Z</time>
      </trkpt>
      <trkpt lat="48.22557" lon="7.31328">
        <ele>390</ele>
        <time>2024-01-23T20:18:15Z</time>
      </trkpt>
      <trkpt lat="48.22565" lon="7.31307">
        <ele>391</ele>
        <time>2024-01-23T20:18:18Z</time>
      </trkpt>
      <trkpt lat="48.2257" lon="7.31288">
        <ele>391</ele>
        <time>2024-01-23T20:18:20Z</time>
      </trkpt>
      <trkpt lat="48.22591" lon="7.31184">
        <ele>392</ele>
        <time>2024-01-23T20:18:33Z</time>
      </trkpt>
      <trkpt lat="48.22592" lon="7.31148">
        <ele>393</ele>
        <time>2024-01-23T20:18:37Z</time>
      </trkpt>
      <trkpt lat="48.22589" lon="7.31113">
        <ele>395</ele>
        <time>2024-01-23T20:18:41Z</time>
      </trkpt>
      <trkpt lat="48.22589" lon="7.31095">
        <ele>396</ele>
        <time>2024-01-23T20:18:44Z</time>
      </trkpt>
      <trkpt lat="48.22593" lon="7.31082">
        <ele>397</ele>
        <time>2024-01-23T20:18:45Z</time>
      </trkpt>
      <trkpt lat="48.22631" lon="7.31031">
        <ele>402</ele>
        <time>2024-01-23T20:18:54Z</time>
      </trkpt>
      <trkpt lat="48.22642" lon="7.31013">
        <ele>403</ele>
        <time>2024-01-23T20:18:57Z</time>
      </trkpt>
      <trkpt lat="48.2265" lon="7.31007">
        <ele>403</ele>
        <time>2024-01-23T20:18:59Z</time>
      </trkpt>
      <trkpt lat="48.22658" lon="7.31006">
        <ele>402</ele>
        <time>2024-01-23T20:19:00Z</time>
      </trkpt>
      <trkpt lat="48.22666" lon="7.31009">
        <ele>402</ele>
        <time>2024-01-23T20:19:02Z</time>
      </trkpt>
      <trkpt lat="48.22674" lon="7.31019">
        <ele>402</ele>
        <time>2024-01-23T20:19:04Z</time>
      </trkpt>
      <trkpt lat="48.22678" lon="7.3103">
        <ele>402</ele>
        <time>2024-01-23T20:19:05Z</time>
      </trkpt>
      <trkpt lat="48.2268" lon="7.31043">
        <ele>402</ele>
        <time>2024-01-23T20:19:07Z</time>
      </trkpt>
      <trkpt lat="48.22682" lon="7.311">
        <ele>403</ele>
        <time>2024-01-23T20:19:13Z</time>
      </trkpt>
      <trkpt lat="48.22685" lon="7.31111">
        <ele>406</ele>
        <time>2024-01-23T20:19:15Z</time>
      </trkpt>
      <trkpt lat="48.22697" lon="7.31126">
        <ele>411</ele>
        <time>2024-01-23T20:19:18Z</time>
      </trkpt>
      <trkpt lat="48.22704" lon="7.31128">
        <ele>413</ele>
        <time>2024-01-23T20:19:19Z</time>
      </trkpt>
      <trkpt lat="48.22712" lon="7.31125">
        <ele>414</ele>
        <time>2024-01-23T20:19:20Z</time>
      </trkpt>
      <trkpt lat="48.22719" lon="7.31119">
        <ele>414</ele>
        <time>2024-01-23T20:19:22Z</time>
      </trkpt>
      <trkpt lat="48.22748" lon="7.31069">
        <ele>411</ele>
        <time>2024-01-23T20:19:30Z</time>
      </trkpt>
      <trkpt lat="48.22768" lon="7.31049">
        <ele>416</ele>
        <time>2024-01-23T20:19:34Z</time>
      </trkpt>
      <trkpt lat="48.22792" lon="7.3103">
        <ele>420</ele>
        <time>2024-01-23T20:19:39Z</time>
      </trkpt>
      <trkpt lat="48.22808" lon="7.31007">
        <ele>420</ele>
        <time>2024-01-23T20:19:43Z</time>
      </trkpt>
      <trkpt lat="48.22824" lon="7.30974">
        <ele>420</ele>
        <time>2024-01-23T20:19:47Z</time>
      </trkpt>
      <trkpt lat="48.22839" lon="7.3095">
        <ele>421</ele>
        <time>2024-01-23T20:19:51Z</time>
      </trkpt>
      <trkpt lat="48.22856" lon="7.30929">
        <ele>423</ele>
        <time>2024-01-23T20:19:55Z</time>
      </trkpt>
      <trkpt lat="48.22916" lon="7.30871">
        <ele>429</ele>
        <time>2024-01-23T20:20:08Z</time>
      </trkpt>
      <trkpt lat="48.22929" lon="7.30862">
        <ele>431</ele>
        <time>2024-01-23T20:20:11Z</time>
      </trkpt>
      <trkpt lat="48.22987" lon="7.30847">
        <ele>435</ele>
        <time>2024-01-23T20:20:21Z</time>
      </trkpt>
      <trkpt lat="48.22997" lon="7.30837">
        <ele>433</ele>
        <time>2024-01-23T20:20:23Z</time>
      </trkpt>
      <trkpt lat="48.23003" lon="7.30826">
        <ele>433</ele>
        <time>2024-01-23T20:20:25Z</time>
      </trkpt>
      <trkpt lat="48.23004" lon="7.30816">
        <ele>434</ele>
        <time>2024-01-23T20:20:26Z</time>
      </trkpt>
      <trkpt lat="48.23002" lon="7.30801">
        <ele>435</ele>
        <time>2024-01-23T20:20:28Z</time>
      </trkpt>
      <trkpt lat="48.22998" lon="7.30793">
        <ele>436</ele>
        <time>2024-01-23T20:20:29Z</time>
      </trkpt>
      <trkpt lat="48.2299" lon="7.30784">
        <ele>437</ele>
        <time>2024-01-23T20:20:31Z</time>
      </trkpt>
      <trkpt lat="48.22979" lon="7.30784">
        <ele>438</ele>
        <time>2024-01-23T20:20:33Z</time>
      </trkpt>
      <trkpt lat="48.22926" lon="7.30795">
        <ele>438</ele>
        <time>2024-01-23T20:20:42Z</time>
      </trkpt>
      <trkpt lat="48.22844" lon="7.3083">
        <ele>437</ele>
        <time>2024-01-23T20:20:57Z</time>
      </trkpt>
      <trkpt lat="48.22783" lon="7.30884">
        <ele>431</ele>
        <time>2024-01-23T20:21:10Z</time>
      </trkpt>
      <trkpt lat="48.22763" lon="7.30898">
        <ele>431</ele>
        <time>2024-01-23T20:21:14Z</time>
      </trkpt>
      <trkpt lat="48.22745" lon="7.30901">
        <ele>432</ele>
        <time>2024-01-23T20:21:17Z</time>
      </trkpt>
      <trkpt lat="48.22727" lon="7.30893">
        <ele>432</ele>
        <time>2024-01-23T20:21:21Z</time>
      </trkpt>
      <trkpt lat="48.22708" lon="7.30871">
        <ele>435</ele>
        <time>2024-01-23T20:21:25Z</time>
      </trkpt>
      <trkpt lat="48.22688" lon="7.30839">
        <ele>439</ele>
        <time>2024-01-23T20:21:30Z</time>
      </trkpt>
      <trkpt lat="48.22659" lon="7.30777">
        <ele>444</ele>
        <time>2024-01-23T20:21:39Z</time>
      </trkpt>
      <trkpt lat="48.22645" lon="7.30743">
        <ele>445</ele>
        <time>2024-01-23T20:21:44Z</time>
      </trkpt>
      <trkpt lat="48.22637" lon="7.30714">
        <ele>446</ele>
        <time>2024-01-23T20:21:47Z</time>
      </trkpt>
      <trkpt lat="48.22634" lon="7.30696">
        <ele>447</ele>
        <time>2024-01-23T20:21:50Z</time>
      </trkpt>
      <trkpt lat="48.22634" lon="7.30681">
        <ele>449</ele>
        <time>2024-01-23T20:21:51Z</time>
      </trkpt>
      <trkpt lat="48.22636" lon="7.30669">
        <ele>450</ele>
        <time>2024-01-23T20:21:53Z</time>
      </trkpt>
      <trkpt lat="48.22642" lon="7.30657">
        <ele>451</ele>
        <time>2024-01-23T20:21:55Z</time>
      </trkpt>
      <trkpt lat="48.22671" lon="7.30623">
        <ele>454</ele>
        <time>2024-01-23T20:22:01Z</time>
      </trkpt>
      <trkpt lat="48.22706" lon="7.30561">
        <ele>459</ele>
        <time>2024-01-23T20:22:11Z</time>
      </trkpt>
      <trkpt lat="48.22729" lon="7.3053">
        <ele>463</ele>
        <time>2024-01-23T20:22:16Z</time>
      </trkpt>
      <trkpt lat="48.22734" lon="7.30517">
        <ele>464</ele>
        <time>2024-01-23T20:22:18Z</time>
      </trkpt>
      <trkpt lat="48.22734" lon="7.30505">
        <ele>464</ele>
        <time>2024-01-23T20:22:20Z</time>
      </trkpt>
      <trkpt lat="48.22728" lon="7.30494">
        <ele>464</ele>
        <time>2024-01-23T20:22:21Z</time>
      </trkpt>
      <trkpt lat="48.22719" lon="7.30488">
        <ele>464</ele>
        <time>2024-01-23T20:22:23Z</time>
      </trkpt>
      <trkpt lat="48.22703" lon="7.30481">
        <ele>463</ele>
        <time>2024-01-23T20:22:26Z</time>
      </trkpt>
      <trkpt lat="48.22697" lon="7.3047">
        <ele>463</ele>
        <time>2024-01-23T20:22:28Z</time>
      </trkpt>
      <trkpt lat="48.22696" lon="7.30456">
        <ele>464</ele>
        <time>2024-01-23T20:22:29Z</time>
      </trkpt>
      <trkpt lat="48.227" lon="7.30445">
        <ele>465</ele>
        <time>2024-01-23T20:22:31Z</time>
      </trkpt>
      <trkpt lat="48.22711" lon="7.30437">
        <ele>467</ele>
        <time>2024-01-23T20:22:33Z</time>
      </trkpt>
      <trkpt lat="48.22733" lon="7.3044">
        <ele>468</ele>
        <time>2024-01-23T20:22:37Z</time>
      </trkpt>
      <trkpt lat="48.22747" lon="7.30451">
        <ele>469</ele>
        <time>2024-01-23T20:22:40Z</time>
      </trkpt>
      <trkpt lat="48.22753" lon="7.3046">
        <ele>469</ele>
        <time>2024-01-23T20:22:41Z</time>
      </trkpt>
      <trkpt lat="48.22794" lon="7.30542">
        <ele>470</ele>
        <time>2024-01-23T20:22:53Z</time>
      </trkpt>
      <trkpt lat="48.22805" lon="7.3055">
        <ele>471</ele>
        <time>2024-01-23T20:22:56Z</time>
      </trkpt>
      <trkpt lat="48.22828" lon="7.30555">
        <ele>473</ele>
        <time>2024-01-23T20:23:00Z</time>
      </trkpt>
      <trkpt lat="48.22835" lon="7.30554">
        <ele>474</ele>
        <time>2024-01-23T20:23:01Z</time>
      </trkpt>
      <trkpt lat="48.22886" lon="7.30502">
        <ele>475</ele>
        <time>2024-01-23T20:23:12Z</time>
      </trkpt>
      <trkpt lat="48.22905" lon="7.30476">
        <ele>475</ele>
        <time>2024-01-23T20:23:16Z</time>
      </trkpt>
      <trkpt lat="48.22935" lon="7.30428">
        <ele>474</ele>
        <time>2024-01-23T20:23:24Z</time>
      </trkpt>
      <trkpt lat="48.23032" lon="7.30255">
        <ele>481</ele>
        <time>2024-01-23T20:23:51Z</time>
      </trkpt>
      <trkpt lat="48.23043" lon="7.30231">
        <ele>480</ele>
        <time>2024-01-23T20:23:55Z</time>
      </trkpt>
      <trkpt lat="48.23069" lon="7.30154">
        <ele>481</ele>
        <time>2024-01-23T20:24:05Z</time>
      </trkpt>
      <trkpt lat="48.23074" lon="7.30145">
        <ele>481</ele>
        <time>2024-01-23T20:24:06Z</time>
      </trkpt>
      <trkpt lat="48.23141" lon="7.30105">
        <ele>479</ele>
        <time>2024-01-23T20:24:19Z</time>
      </trkpt>
      <trkpt lat="48.2315" lon="7.30097">
        <ele>480</ele>
        <time>2024-01-23T20:24:21Z</time>
      </trkpt>
      <trkpt lat="48.23156" lon="7.30086">
        <ele>480</ele>
        <time>2024-01-23T20:24:23Z</time>
      </trkpt>
      <trkpt lat="48.23178" lon="7.30033">
        <ele>485</ele>
        <time>2024-01-23T20:24:30Z</time>
      </trkpt>
      <trkpt lat="48.23188" lon="7.30026">
        <ele>486</ele>
        <time>2024-01-23T20:24:32Z</time>
      </trkpt>
      <trkpt lat="48.23201" lon="7.30028">
        <ele>488</ele>
        <time>2024-01-23T20:24:34Z</time>
      </trkpt>
      <trkpt lat="48.23209" lon="7.30036">
        <ele>488</ele>
        <time>2024-01-23T20:24:36Z</time>
      </trkpt>
      <trkpt lat="48.23213" lon="7.30045">
        <ele>488</ele>
        <time>2024-01-23T20:24:37Z</time>
      </trkpt>
      <trkpt lat="48.23234" lon="7.30134">
        <ele>485</ele>
        <time>2024-01-23T20:24:48Z</time>
      </trkpt>
      <trkpt lat="48.2325" lon="7.30212">
        <ele>485</ele>
        <time>2024-01-23T20:24:58Z</time>
      </trkpt>
      <trkpt lat="48.23263" lon="7.30287">
        <ele>483</ele>
        <time>2024-01-23T20:25:07Z</time>
      </trkpt>
      <trkpt lat="48.23266" lon="7.30319">
        <ele>482</ele>
        <time>2024-01-23T20:25:11Z</time>
      </trkpt>
      <trkpt lat="48.23275" lon="7.30576">
        <ele>474</ele>
        <time>2024-01-23T20:25:42Z</time>
      </trkpt>
      <trkpt lat="48.23278" lon="7.30602">
        <ele>473</ele>
        <time>2024-01-23T20:25:45Z</time>
      </trkpt>
      <trkpt lat="48.23286" lon="7.30619">
        <ele>473</ele>
        <time>2024-01-23T20:25:47Z</time>
      </trkpt>
      <trkpt lat="48.23293" lon="7.30629">
        <ele>473</ele>
        <time>2024-01-23T20:25:49Z</time>
      </trkpt>
      <trkpt lat="48.2332" lon="7.30649">
        <ele>474</ele>
        <time>2024-01-23T20:25:54Z</time>
      </trkpt>
      <trkpt lat="48.23338" lon="7.30657">
        <ele>474</ele>
        <time>2024-01-23T20:25:58Z</time>
      </trkpt>
      <trkpt lat="48.23355" lon="7.3066">
        <ele>473</ele>
        <time>2024-01-23T20:26:01Z</time>
      </trkpt>
      <trkpt lat="48.23392" lon="7.30648">
        <ele>473</ele>
        <time>2024-01-23T20:26:07Z</time>
      </trkpt>
      <trkpt lat="48.23413" lon="7.30639">
        <ele>473</ele>
        <time>2024-01-23T20:26:11Z</time>
      </trkpt>
      <trkpt lat="48.23429" lon="7.30638">
        <ele>474</ele>
        <time>2024-01-23T20:26:14Z</time>
      </trkpt>
      <trkpt lat="48.23442" lon="7.30646">
        <ele>475</ele>
        <time>2024-01-23T20:26:17Z</time>
      </trkpt>
      <trkpt lat="48.23453" lon="7.30662">
        <ele>476</ele>
        <time>2024-01-23T20:26:19Z</time>
      </trkpt>
      <trkpt lat="48.23461" lon="7.30684">
        <ele>476</ele>
        <time>2024-01-23T20:26:22Z</time>
      </trkpt>
      <trkpt lat="48.23472" lon="7.3075">
        <ele>475</ele>
        <time>2024-01-23T20:26:30Z</time>
      </trkpt>
      <trkpt lat="48.23477" lon="7.30769">
        <ele>475</ele>
        <time>2024-01-23T20:26:33Z</time>
      </trkpt>
      <trkpt lat="48.23487" lon="7.30794">
        <ele>475</ele>
        <time>2024-01-23T20:26:36Z</time>
      </trkpt>
      <trkpt lat="48.23494" lon="7.30807">
        <ele>475</ele>
        <time>2024-01-23T20:26:38Z</time>
      </trkpt>
      <trkpt lat="48.23509" lon="7.30828">
        <ele>477</ele>
        <time>2024-01-23T20:26:42Z</time>
      </trkpt>
      <trkpt lat="48.2354" lon="7.30858">
        <ele>482</ele>
        <time>2024-01-23T20:26:48Z</time>
      </trkpt>
      <trkpt lat="48.23548" lon="7.30875">
        <ele>484</ele>
        <time>2024-01-23T20:26:51Z</time>
      </trkpt>
      <trkpt lat="48.23551" lon="7.3089">
        <ele>485</ele>
        <time>2024-01-23T20:26:53Z</time>
      </trkpt>
      <trkpt lat="48.23567" lon="7.31161">
        <ele>501</ele>
        <time>2024-01-23T20:27:25Z</time>
      </trkpt>
      <trkpt lat="48.23572" lon="7.31179">
        <ele>502</ele>
        <time>2024-01-23T20:27:27Z</time>
      </trkpt>
      <trkpt lat="48.236" lon="7.31237">
        <ele>510</ele>
        <time>2024-01-23T20:27:36Z</time>
      </trkpt>
      <trkpt lat="48.23604" lon="7.31251">
        <ele>512</ele>
        <time>2024-01-23T20:27:38Z</time>
      </trkpt>
      <trkpt lat="48.23563" lon="7.31459">
        <ele>521</ele>
        <time>2024-01-23T20:28:03Z</time>
      </trkpt>
      <trkpt lat="48.23554" lon="7.3148">
        <ele>521</ele>
        <time>2024-01-23T20:28:06Z</time>
      </trkpt>
      <trkpt lat="48.23523" lon="7.31526">
        <ele>520</ele>
        <time>2024-01-23T20:28:14Z</time>
      </trkpt>
      <trkpt lat="48.23515" lon="7.3155">
        <ele>520</ele>
        <time>2024-01-23T20:28:17Z</time>
      </trkpt>
      <trkpt lat="48.23515" lon="7.31581">
        <ele>521</ele>
        <time>2024-01-23T20:28:21Z</time>
      </trkpt>
      <trkpt lat="48.23525" lon="7.31609">
        <ele>521</ele>
        <time>2024-01-23T20:28:25Z</time>
      </trkpt>
      <trkpt lat="48.23541" lon="7.31628">
        <ele>522</ele>
        <time>2024-01-23T20:28:28Z</time>
      </trkpt>
      <trkpt lat="48.23608" lon="7.31668">
        <ele>529</ele>
        <time>2024-01-23T20:28:41Z</time>
      </trkpt>
      <trkpt lat="48.23631" lon="7.3168">
        <ele>532</ele>
        <time>2024-01-23T20:28:45Z</time>
      </trkpt>
      <trkpt lat="48.23645" lon="7.31684">
        <ele>534</ele>
        <time>2024-01-23T20:28:48Z</time>
      </trkpt>
      <trkpt lat="48.23673" lon="7.31678">
        <ele>538</ele>
        <time>2024-01-23T20:28:53Z</time>
      </trkpt>
      <trkpt lat="48.23691" lon="7.31669">
        <ele>540</ele>
        <time>2024-01-23T20:28:56Z</time>
      </trkpt>
      <trkpt lat="48.2376" lon="7.31626">
        <ele>552</ele>
        <time>2024-01-23T20:29:10Z</time>
      </trkpt>
      <trkpt lat="48.23802" lon="7.31595">
        <ele>555</ele>
        <time>2024-01-23T20:29:18Z</time>
      </trkpt>
      <trkpt lat="48.2381" lon="7.31592">
        <ele>555</ele>
        <time>2024-01-23T20:29:19Z</time>
      </trkpt>
      <trkpt lat="48.23817" lon="7.31598">
        <ele>554</ele>
        <time>2024-01-23T20:29:21Z</time>
      </trkpt>
      <trkpt lat="48.2382" lon="7.31609">
        <ele>554</ele>
        <time>2024-01-23T20:29:22Z</time>
      </trkpt>
      <trkpt lat="48.23818" lon="7.31625">
        <ele>553</ele>
        <time>2024-01-23T20:29:24Z</time>
      </trkpt>
      <trkpt lat="48.2381" lon="7.31643">
        <ele>552</ele>
        <time>2024-01-23T20:29:27Z</time>
      </trkpt>
      <trkpt lat="48.23798" lon="7.31678">
        <ele>551</ele>
        <time>2024-01-23T20:29:31Z</time>
      </trkpt>
      <trkpt lat="48.23788" lon="7.31751">
        <ele>555</ele>
        <time>2024-01-23T20:29:40Z</time>
      </trkpt>
      <trkpt lat="48.23783" lon="7.31772">
        <ele>554</ele>
        <time>2024-01-23T20:29:43Z</time>
      </trkpt>
      <trkpt lat="48.23756" lon="7.31816">
        <ele>552</ele>
        <time>2024-01-23T20:29:50Z</time>
      </trkpt>
      <trkpt lat="48.2375" lon="7.31831">
        <ele>551</ele>
        <time>2024-01-23T20:29:52Z</time>
      </trkpt>
      <trkpt lat="48.23749" lon="7.31845">
        <ele>549</ele>
        <time>2024-01-23T20:29:54Z</time>
      </trkpt>
      <trkpt lat="48.23751" lon="7.31856">
        <ele>548</ele>
        <time>2024-01-23T20:29:55Z</time>
      </trkpt>
      <trkpt lat="48.23757" lon="7.31866">
        <ele>548</ele>
        <time>2024-01-23T20:29:57Z</time>
      </trkpt>
      <trkpt lat="48.23763" lon="7.31871">
        <ele>548</ele>
        <time>2024-01-23T20:29:58Z</time>
      </trkpt>
      <trkpt lat="48.23773" lon="7.31873">
        <ele>549</ele>
        <time>2024-01-23T20:30:00Z</time>
      </trkpt>
      <trkpt lat="48.23789" lon="7.31872">
        <ele>551</ele>
        <time>2024-01-23T20:30:03Z</time>
      </trkpt>
      <trkpt lat="48.23832" lon="7.31863">
        <ele>557</ele>
        <time>2024-01-23T20:30:10Z</time>
      </trkpt>
      <trkpt lat="48.23886" lon="7.31858">
        <ele>564</ele>
        <time>2024-01-23T20:30:20Z</time>
      </trkpt>
      <trkpt lat="48.23905" lon="7.31863">
        <ele>566</ele>
        <time>2024-01-23T20:30:23Z</time>
      </trkpt>
      <trkpt lat="48.23917" lon="7.3187">
        <ele>567</ele>
        <time>2024-01-23T20:30:26Z</time>
      </trkpt>
      <trkpt lat="48.23943" lon="7.31903">
        <ele>572</ele>
        <time>2024-01-23T20:30:32Z</time>
      </trkpt>
      <trkpt lat="48.23954" lon="7.31924">
        <ele>574</ele>
        <time>2024-01-23T20:30:35Z</time>
      </trkpt>
      <trkpt lat="48.23956" lon="7.31933">
        <ele>574</ele>
        <time>2024-01-23T20:30:36Z</time>
      </trkpt>
      <trkpt lat="48.23956" lon="7.31945">
        <ele>573</ele>
        <time>2024-01-23T20:30:37Z</time>
      </trkpt>
      <trkpt lat="48.23951" lon="7.31958">
        <ele>571</ele>
        <time>2024-01-23T20:30:39Z</time>
      </trkpt>
      <trkpt lat="48.23939" lon="7.3198">
        <ele>567</ele>
        <time>2024-01-23T20:30:43Z</time>
      </trkpt>
      <trkpt lat="48.23934" lon="7.31997">
        <ele>565</ele>
        <time>2024-01-23T20:30:45Z</time>
      </trkpt>
      <trkpt lat="48.23921" lon="7.32062">
        <ele>564</ele>
        <time>2024-01-23T20:30:53Z</time>
      </trkpt>
      <trkpt lat="48.23919" lon="7.32084">
        <ele>564</ele>
        <time>2024-01-23T20:30:55Z</time>
      </trkpt>
      <trkpt lat="48.2392" lon="7.32128">
        <ele>567</ele>
        <time>2024-01-23T20:31:01Z</time>
      </trkpt>
      <trkpt lat="48.2393" lon="7.32213">
        <ele>576</ele>
        <time>2024-01-23T20:31:11Z</time>
      </trkpt>
      <trkpt lat="48.2393" lon="7.32264">
        <ele>579</ele>
        <time>2024-01-23T20:31:17Z</time>
      </trkpt>
      <trkpt lat="48.23924" lon="7.32329">
        <ele>577</ele>
        <time>2024-01-23T20:31:25Z</time>
      </trkpt>
      <trkpt lat="48.23929" lon="7.32365">
        <ele>581</ele>
        <time>2024-01-23T20:31:29Z</time>
      </trkpt>
      <trkpt lat="48.23939" lon="7.32406">
        <ele>585</ele>
        <time>2024-01-23T20:31:34Z</time>
      </trkpt>
      <trkpt lat="48.23947" lon="7.32424">
        <ele>586</ele>
        <time>2024-01-23T20:31:37Z</time>
      </trkpt>
      <trkpt lat="48.23955" lon="7.32434">
        <ele>586</ele>
        <time>2024-01-23T20:31:39Z</time>
      </trkpt>
      <trkpt lat="48.23964" lon="7.3244">
        <ele>586</ele>
        <time>2024-01-23T20:31:40Z</time>
      </trkpt>
      <trkpt lat="48.24034" lon="7.32461">
        <ele>588</ele>
        <time>2024-01-23T20:31:53Z</time>
      </trkpt>
      <trkpt lat="48.24049" lon="7.32471">
        <ele>587</ele>
        <time>2024-01-23T20:31:56Z</time>
      </trkpt>
      <trkpt lat="48.24095" lon="7.32508">
        <ele>584</ele>
        <time>2024-01-23T20:32:05Z</time>
      </trkpt>
      <trkpt lat="48.24131" lon="7.3253">
        <ele>584</ele>
        <time>2024-01-23T20:32:12Z</time>
      </trkpt>
      <trkpt lat="48.24224" lon="7.32564">
        <ele>588</ele>
        <time>2024-01-23T20:32:29Z</time>
      </trkpt>
      <trkpt lat="48.24327" lon="7.32598">
        <ele>589</ele>
        <time>2024-01-23T20:32:48Z</time>
      </trkpt>
      <trkpt lat="48.2436" lon="7.32618">
        <ele>584</ele>
        <time>2024-01-23T20:32:54Z</time>
      </trkpt>
      <trkpt lat="48.24387" lon="7.32647">
        <ele>581</ele>
        <time>2024-01-23T20:33:00Z</time>
      </trkpt>
      <trkpt lat="48.24396" lon="7.32661">
        <ele>581</ele>
        <time>2024-01-23T20:33:03Z</time>
      </trkpt>
      <trkpt lat="48.24411" lon="7.32693">
        <ele>580</ele>
        <time>2024-01-23T20:33:07Z</time>
      </trkpt>
      <trkpt lat="48.24418" lon="7.32718">
        <ele>580</ele>
        <time>2024-01-23T20:33:10Z</time>
      </trkpt>
      <trkpt lat="48.24427" lon="7.32805">
        <ele>575</ele>
        <time>2024-01-23T20:33:21Z</time>
      </trkpt>
      <trkpt lat="48.24434" lon="7.32827">
        <ele>575</ele>
        <time>2024-01-23T20:33:24Z</time>
      </trkpt>
      <trkpt lat="48.24481" lon="7.32935">
        <ele>570</ele>
        <time>2024-01-23T20:33:39Z</time>
      </trkpt>
      <trkpt lat="48.24489" lon="7.3297">
        <ele>568</ele>
        <time>2024-01-23T20:33:43Z</time>
      </trkpt>
      <trkpt lat="48.24494" lon="7.33005">
        <ele>566</ele>
        <time>2024-01-23T20:33:48Z</time>
      </trkpt>
      <trkpt lat="48.24498" lon="7.33069">
        <ele>564</ele>
        <time>2024-01-23T20:33:55Z</time>
      </trkpt>
      <trkpt lat="48.24499" lon="7.33133">
        <ele>563</ele>
        <time>2024-01-23T20:34:03Z</time>
      </trkpt>
      <trkpt lat="48.24492" lon="7.33218">
        <ele>559</ele>
        <time>2024-01-23T20:34:13Z</time>
      </trkpt>
      <trkpt lat="48.24482" lon="7.3329">
        <ele>553</ele>
        <time>2024-01-23T20:34:22Z</time>
      </trkpt>
      <trkpt lat="48.24481" lon="7.33326">
        <ele>551</ele>
        <time>2024-01-23T20:34:26Z</time>
      </trkpt>
      <trkpt lat="48.24487" lon="7.33387">
        <ele>550</ele>
        <time>2024-01-23T20:34:33Z</time>
      </trkpt>
      <trkpt lat="48.24492" lon="7.3354">
        <ele>541</ele>
        <time>2024-01-23T20:34:51Z</time>
      </trkpt>
      <trkpt lat="48.24472" lon="7.33699">
        <ele>530</ele>
        <time>2024-01-23T20:35:11Z</time>
      </trkpt>
      <trkpt lat="48.24479" lon="7.33702">
        <ele>533</ele>
        <time>2024-01-23T20:35:12Z</time>
      </trkpt>
      <trkpt lat="48.24485" lon="7.33713">
        <ele>535</ele>
        <time>2024-01-23T20:35:14Z</time>
      </trkpt>
      <trkpt lat="48.24488" lon="7.33735">
        <ele>536</ele>
        <time>2024-01-23T20:35:16Z</time>
      </trkpt>
      <trkpt lat="48.2449" lon="7.33789">
        <ele>534</ele>
        <time>2024-01-23T20:35:23Z</time>
      </trkpt>
      <trkpt lat="48.24492" lon="7.33806">
        <ele>534</ele>
        <time>2024-01-23T20:35:25Z</time>
      </trkpt>
      <trkpt lat="48.24498" lon="7.33819">
        <ele>535</ele>
        <time>2024-01-23T20:35:27Z</time>
      </trkpt>
      <trkpt lat="48.24514" lon="7.33839">
        <ele>540</ele>
        <time>2024-01-23T20:35:30Z</time>
      </trkpt>
      <trkpt lat="48.24523" lon="7.3386">
        <ele>543</ele>
        <time>2024-01-23T20:35:33Z</time>
      </trkpt>
      <trkpt lat="48.24526" lon="7.33878">
        <ele>543</ele>
        <time>2024-01-23T20:35:35Z</time>
      </trkpt>
      <trkpt lat="48.24521" lon="7.33972">
        <ele>541</ele>
        <time>2024-01-23T20:35:47Z</time>
      </trkpt>
      <trkpt lat="48.24523" lon="7.34002">
        <ele>542</ele>
        <time>2024-01-23T20:35:50Z</time>
      </trkpt>
      <trkpt lat="48.24553" lon="7.34129">
        <ele>554</ele>
        <time>2024-01-23T20:36:06Z</time>
      </trkpt>
      <trkpt lat="48.24575" lon="7.34342">
        <ele>560</ele>
        <time>2024-01-23T20:36:32Z</time>
      </trkpt>
      <trkpt lat="48.24585" lon="7.34381">
        <ele>560</ele>
        <time>2024-01-23T20:36:37Z</time>
      </trkpt>
      <trkpt lat="48.24632" lon="7.34507">
        <ele>564</ele>
        <time>2024-01-23T20:36:54Z</time>
      </trkpt>
      <trkpt lat="48.24649" lon="7.34611">
        <ele>560</ele>
        <time>2024-01-23T20:37:06Z</time>
      </trkpt>
      <trkpt lat="48.24642" lon="7.34667">
        <ele>554</ele>
        <time>2024-01-23T20:37:13Z</time>
      </trkpt>
      <trkpt lat="48.24643" lon="7.34687">
        <ele>552</ele>
        <time>2024-01-23T20:37:16Z</time>
      </trkpt>
      <trkpt lat="48.24646" lon="7.34695">
        <ele>553</ele>
        <time>2024-01-23T20:37:17Z</time>
      </trkpt>
      <trkpt lat="48.24652" lon="7.347">
        <ele>554</ele>
        <time>2024-01-23T20:37:18Z</time>
      </trkpt>
      <trkpt lat="48.24666" lon="7.34703">
        <ele>557</ele>
        <time>2024-01-23T20:37:20Z</time>
      </trkpt>
      <trkpt lat="48.24676" lon="7.34701">
        <ele>561</ele>
        <time>2024-01-23T20:37:22Z</time>
      </trkpt>
      <trkpt lat="48.24672" lon="7.34664">
        <ele>564</ele>
        <time>2024-01-23T20:37:27Z</time>
      </trkpt>
      <trkpt lat="48.24669" lon="7.34568">
        <ele>572</ele>
        <time>2024-01-23T20:37:38Z</time>
      </trkpt>
      <trkpt lat="48.24663" lon="7.34482">
        <ele>577</ele>
        <time>2024-01-23T20:37:48Z</time>
      </trkpt>
      <trkpt lat="48.24661" lon="7.34402">
        <ele>584</ele>
        <time>2024-01-23T20:37:58Z</time>
      </trkpt>
      <trkpt lat="48.24662" lon="7.34323">
        <ele>590</ele>
        <time>2024-01-23T20:38:07Z</time>
      </trkpt>
      <trkpt lat="48.24656" lon="7.34216">
        <ele>592</ele>
        <time>2024-01-23T20:38:20Z</time>
      </trkpt>
      <trkpt lat="48.24667" lon="7.34055">
        <ele>600</ele>
        <time>2024-01-23T20:38:39Z</time>
      </trkpt>
      <trkpt lat="48.24669" lon="7.33971">
        <ele>601</ele>
        <time>2024-01-23T20:38:49Z</time>
      </trkpt>
      <trkpt lat="48.24677" lon="7.33873">
        <ele>610</ele>
        <time>2024-01-23T20:39:01Z</time>
      </trkpt>
      <trkpt lat="48.24679" lon="7.33745">
        <ele>619</ele>
        <time>2024-01-23T20:39:16Z</time>
      </trkpt>
      <trkpt lat="48.24677" lon="7.33647">
        <ele>620</ele>
        <time>2024-01-23T20:39:27Z</time>
      </trkpt>
      <trkpt lat="48.24682" lon="7.33578">
        <ele>622</ele>
        <time>2024-01-23T20:39:36Z</time>
      </trkpt>
      <trkpt lat="48.24682" lon="7.33506">
        <ele>621</ele>
        <time>2024-01-23T20:39:44Z</time>
      </trkpt>
      <trkpt lat="48.24686" lon="7.33452">
        <ele>625</ele>
        <time>2024-01-23T20:39:51Z</time>
      </trkpt>
      <trkpt lat="48.24696" lon="7.3339">
        <ele>629</ele>
        <time>2024-01-23T20:39:58Z</time>
      </trkpt>
      <trkpt lat="48.24702" lon="7.33369">
        <ele>629</ele>
        <time>2024-01-23T20:40:01Z</time>
      </trkpt>
      <trkpt lat="48.24711" lon="7.33351">
        <ele>630</ele>
        <time>2024-01-23T20:40:04Z</time>
      </trkpt>
      <trkpt lat="48.2472" lon="7.33342">
        <ele>631</ele>
        <time>2024-01-23T20:40:06Z</time>
      </trkpt>
      <trkpt lat="48.24727" lon="7.3334">
        <ele>633</ele>
        <time>2024-01-23T20:40:07Z</time>
      </trkpt>
      <trkpt lat="48.24735" lon="7.3334">
        <ele>634</ele>
        <time>2024-01-23T20:40:08Z</time>
      </trkpt>
      <trkpt lat="48.24759" lon="7.33355">
        <ele>639</ele>
        <time>2024-01-23T20:40:13Z</time>
      </trkpt>
      <trkpt lat="48.24841" lon="7.33443">
        <ele>652</ele>
        <time>2024-01-23T20:40:31Z</time>
      </trkpt>
      <trkpt lat="48.24851" lon="7.33459">
        <ele>652</ele>
        <time>2024-01-23T20:40:33Z</time>
      </trkpt>
      <trkpt lat="48.24853" lon="7.33476">
        <ele>654</ele>
        <time>2024-01-23T20:40:35Z</time>
      </trkpt>
      <trkpt lat="48.2485" lon="7.33485">
        <ele>655</ele>
        <time>2024-01-23T20:40:37Z</time>
      </trkpt>
      <trkpt lat="48.24846" lon="7.33489">
        <ele>656</ele>
        <time>2024-01-23T20:40:37Z</time>
      </trkpt>
      <trkpt lat="48.24841" lon="7.33491">
        <ele>657</ele>
        <time>2024-01-23T20:40:38Z</time>
      </trkpt>
      <trkpt lat="48.24802" lon="7.33486">
        <ele>654</ele>
        <time>2024-01-23T20:40:45Z</time>
      </trkpt>
      <trkpt lat="48.24788" lon="7.33488">
        <ele>653</ele>
        <time>2024-01-23T20:40:48Z</time>
      </trkpt>
      <trkpt lat="48.24779" lon="7.33492">
        <ele>652</ele>
        <time>2024-01-23T20:40:50Z</time>
      </trkpt>
      <trkpt lat="48.24771" lon="7.33499">
        <ele>651</ele>
        <time>2024-01-23T20:40:51Z</time>
      </trkpt>
      <trkpt lat="48.24765" lon="7.33508">
        <ele>651</ele>
        <time>2024-01-23T20:40:53Z</time>
      </trkpt>
      <trkpt lat="48.24762" lon="7.33523">
        <ele>652</ele>
        <time>2024-01-23T20:40:55Z</time>
      </trkpt>
      <trkpt lat="48.2476" lon="7.33559">
        <ele>654</ele>
        <time>2024-01-23T20:40:59Z</time>
      </trkpt>
      <trkpt lat="48.24765" lon="7.33647">
        <ele>660</ele>
        <time>2024-01-23T20:41:09Z</time>
      </trkpt>
      <trkpt lat="48.24772" lon="7.33717">
        <ele>666</ele>
        <time>2024-01-23T20:41:18Z</time>
      </trkpt>
      <trkpt lat="48.24829" lon="7.34095">
        <ele>687</ele>
        <time>2024-01-23T20:42:04Z</time>
      </trkpt>
      <trkpt lat="48.24863" lon="7.34343">
        <ele>694</ele>
        <time>2024-01-23T20:42:34Z</time>
      </trkpt>
      <trkpt lat="48.24874" lon="7.34402">
        <ele>696</ele>
        <time>2024-01-23T20:42:41Z</time>
      </trkpt>
      <trkpt lat="48.24907" lon="7.34545">
        <ele>698</ele>
        <time>2024-01-23T20:42:59Z</time>
      </trkpt>
      <trkpt lat="48.24924" lon="7.346">
        <ele>694</ele>
        <time>2024-01-23T20:43:06Z</time>
      </trkpt>
      <trkpt lat="48.24937" lon="7.34622">
        <ele>691</ele>
        <time>2024-01-23T20:43:09Z</time>
      </trkpt>
      <trkpt lat="48.24937" lon="7.34622">
        <ele>691</ele>
        <time>2024-01-23T20:43:09Z</time>
      </trkpt>
      <trkpt lat="48.2494" lon="7.34627">
        <ele>690</ele>
        <time>2024-01-23T20:43:10Z</time>
      </trkpt>
      <trkpt lat="48.24945" lon="7.34629">
        <ele>690</ele>
        <time>2024-01-23T20:43:11Z</time>
      </trkpt>
      <trkpt lat="48.24955" lon="7.34626">
        <ele>691</ele>
        <time>2024-01-23T20:43:13Z</time>
      </trkpt>
      <trkpt lat="48.24968" lon="7.34613">
        <ele>695</ele>
        <time>2024-01-23T20:43:16Z</time>
      </trkpt>
      <trkpt lat="48.24975" lon="7.34601">
        <ele>698</ele>
        <time>2024-01-23T20:43:18Z</time>
      </trkpt>
      <trkpt lat="48.24982" lon="7.34584">
        <ele>702</ele>
        <time>2024-01-23T20:43:20Z</time>
      </trkpt>
      <trkpt lat="48.24996" lon="7.34524">
        <ele>709</ele>
        <time>2024-01-23T20:43:28Z</time>
      </trkpt>
      <trkpt lat="48.25002" lon="7.34477">
        <ele>711</ele>
        <time>2024-01-23T20:43:33Z</time>
      </trkpt>
      <trkpt lat="48.25008" lon="7.34366">
        <ele>711</ele>
        <time>2024-01-23T20:43:46Z</time>
      </trkpt>
      <trkpt lat="48.25008" lon="7.34215">
        <ele>710</ele>
        <time>2024-01-23T20:44:04Z</time>
      </trkpt>
      <trkpt lat="48.25024" lon="7.33904">
        <ele>687</ele>
        <time>2024-01-23T20:44:41Z</time>
      </trkpt>
      <trkpt lat="48.25021" lon="7.3382">
        <ele>678</ele>
        <time>2024-01-23T20:44:51Z</time>
      </trkpt>
      <trkpt lat="48.25015" lon="7.33758">
        <ele>672</ele>
        <time>2024-01-23T20:44:59Z</time>
      </trkpt>
      <trkpt lat="48.24998" lon="7.33701">
        <ele>669</ele>
        <time>2024-01-23T20:45:06Z</time>
      </trkpt>
      <trkpt lat="48.24947" lon="7.33617">
        <ele>666</ele>
        <time>2024-01-23T20:45:20Z</time>
      </trkpt>
      <trkpt lat="48.24887" lon="7.33531">
        <ele>660</ele>
        <time>2024-01-23T20:45:34Z</time>
      </trkpt>
      <trkpt lat="48.24851" lon="7.33459">
        <ele>652</ele>
        <time>2024-01-23T20:45:45Z</time>
      </trkpt>
      <trkpt lat="48.24841" lon="7.33443">
        <ele>652</ele>
        <time>2024-01-23T20:45:48Z</time>
      </trkpt>
      <trkpt lat="48.24759" lon="7.33355">
        <ele>639</ele>
        <time>2024-01-23T20:46:05Z</time>
      </trkpt>
      <trkpt lat="48.24735" lon="7.3334">
        <ele>634</ele>
        <time>2024-01-23T20:46:10Z</time>
      </trkpt>
      <trkpt lat="48.24727" lon="7.3334">
        <ele>633</ele>
        <time>2024-01-23T20:46:12Z</time>
      </trkpt>
      <trkpt lat="48.2472" lon="7.33342">
        <ele>631</ele>
        <time>2024-01-23T20:46:13Z</time>
      </trkpt>
      <trkpt lat="48.24711" lon="7.33351">
        <ele>630</ele>
        <time>2024-01-23T20:46:15Z</time>
      </trkpt>
      <trkpt lat="48.24702" lon="7.33369">
        <ele>629</ele>
        <time>2024-01-23T20:46:17Z</time>
      </trkpt>
      <trkpt lat="48.24696" lon="7.3339">
        <ele>629</ele>
        <time>2024-01-23T20:46:20Z</time>
      </trkpt>
      <trkpt lat="48.24686" lon="7.33452">
        <ele>625</ele>
        <time>2024-01-23T20:46:28Z</time>
      </trkpt>
      <trkpt lat="48.24682" lon="7.33506">
        <ele>621</ele>
        <time>2024-01-23T20:46:34Z</time>
      </trkpt>
      <trkpt lat="48.24682" lon="7.33578">
        <ele>622</ele>
        <time>2024-01-23T20:46:43Z</time>
      </trkpt>
      <trkpt lat="48.24677" lon="7.33647">
        <ele>620</ele>
        <time>2024-01-23T20:46:51Z</time>
      </trkpt>
      <trkpt lat="48.24679" lon="7.33745">
        <ele>619</ele>
        <time>2024-01-23T20:47:02Z</time>
      </trkpt>
      <trkpt lat="48.24677" lon="7.33873">
        <ele>610</ele>
        <time>2024-01-23T20:47:18Z</time>
      </trkpt>
      <trkpt lat="48.24669" lon="7.33971">
        <ele>601</ele>
        <time>2024-01-23T20:47:29Z</time>
      </trkpt>
      <trkpt lat="48.24667" lon="7.34055">
        <ele>600</ele>
        <time>2024-01-23T20:47:39Z</time>
      </trkpt>
      <trkpt lat="48.24656" lon="7.34216">
        <ele>592</ele>
        <time>2024-01-23T20:47:58Z</time>
      </trkpt>
      <trkpt lat="48.24662" lon="7.34323">
        <ele>590</ele>
        <time>2024-01-23T20:48:11Z</time>
      </trkpt>
      <trkpt lat="48.24661" lon="7.34402">
        <ele>584</ele>
        <time>2024-01-23T20:48:21Z</time>
      </trkpt>
      <trkpt lat="48.24663" lon="7.34482">
        <ele>577</ele>
        <time>2024-01-23T20:48:30Z</time>
      </trkpt>
      <trkpt lat="48.24669" lon="7.34568">
        <ele>572</ele>
        <time>2024-01-23T20:48:40Z</time>
      </trkpt>
      <trkpt lat="48.24672" lon="7.34664">
        <ele>564</ele>
        <time>2024-01-23T20:48:52Z</time>
      </trkpt>
      <trkpt lat="48.24676" lon="7.34701">
        <ele>561</ele>
        <time>2024-01-23T20:48:56Z</time>
      </trkpt>
      <trkpt lat="48.24679" lon="7.34714">
        <ele>561</ele>
        <time>2024-01-23T20:48:58Z</time>
      </trkpt>
      <trkpt lat="48.24713" lon="7.34774">
        <ele>565</ele>
        <time>2024-01-23T20:49:07Z</time>
      </trkpt>
      <trkpt lat="48.24736" lon="7.3482">
        <ele>564</ele>
        <time>2024-01-23T20:49:14Z</time>
      </trkpt>
      <trkpt lat="48.24805" lon="7.34972">
        <ele>548</ele>
        <time>2024-01-23T20:49:36Z</time>
      </trkpt>
      <trkpt lat="48.2482" lon="7.34995">
        <ele>545</ele>
        <time>2024-01-23T20:49:40Z</time>
      </trkpt>
      <trkpt lat="48.24833" lon="7.35006">
        <ele>545</ele>
        <time>2024-01-23T20:49:42Z</time>
      </trkpt>
      <trkpt lat="48.24857" lon="7.35013">
        <ele>546</ele>
        <time>2024-01-23T20:49:47Z</time>
      </trkpt>
      <trkpt lat="48.24878" lon="7.35037">
        <ele>540</ele>
        <time>2024-01-23T20:49:51Z</time>
      </trkpt>
      <trkpt lat="48.2489" lon="7.35046">
        <ele>538</ele>
        <time>2024-01-23T20:49:54Z</time>
      </trkpt>
      <trkpt lat="48.24899" lon="7.35048">
        <ele>537</ele>
        <time>2024-01-23T20:49:55Z</time>
      </trkpt>
      <trkpt lat="48.24907" lon="7.35047">
        <ele>538</ele>
        <time>2024-01-23T20:49:57Z</time>
      </trkpt>
      <trkpt lat="48.24938" lon="7.35037">
        <ele>541</ele>
        <time>2024-01-23T20:50:02Z</time>
      </trkpt>
      <trkpt lat="48.24964" lon="7.35044">
        <ele>538</ele>
        <time>2024-01-23T20:50:07Z</time>
      </trkpt>
      <trkpt lat="48.24973" lon="7.35044">
        <ele>537</ele>
        <time>2024-01-23T20:50:09Z</time>
      </trkpt>
      <trkpt lat="48.25035" lon="7.35016">
        <ele>538</ele>
        <time>2024-01-23T20:50:20Z</time>
      </trkpt>
      <trkpt lat="48.25052" lon="7.35003">
        <ele>538</ele>
        <time>2024-01-23T20:50:23Z</time>
      </trkpt>
      <trkpt lat="48.25066" lon="7.34988">
        <ele>542</ele>
        <time>2024-01-23T20:50:27Z</time>
      </trkpt>
      <trkpt lat="48.25075" lon="7.34987">
        <ele>540</ele>
        <time>2024-01-23T20:50:28Z</time>
      </trkpt>
      <trkpt lat="48.25082" lon="7.34991">
        <ele>537</ele>
        <time>2024-01-23T20:50:29Z</time>
      </trkpt>
      <trkpt lat="48.25088" lon="7.35003">
        <ele>531</ele>
        <time>2024-01-23T20:50:31Z</time>
      </trkpt>
      <trkpt lat="48.25087" lon="7.35016">
        <ele>527</ele>
        <time>2024-01-23T20:50:33Z</time>
      </trkpt>
      <trkpt lat="48.25082" lon="7.35028">
        <ele>525</ele>
        <time>2024-01-23T20:50:35Z</time>
      </trkpt>
      <trkpt lat="48.25077" lon="7.35034">
        <ele>524</ele>
        <time>2024-01-23T20:50:36Z</time>
      </trkpt>
      <trkpt lat="48.25038" lon="7.35046">
        <ele>528</ele>
        <time>2024-01-23T20:50:43Z</time>
      </trkpt>
      <trkpt lat="48.25013" lon="7.35058">
        <ele>529</ele>
        <time>2024-01-23T20:50:47Z</time>
      </trkpt>
      <trkpt lat="48.25002" lon="7.35065">
        <ele>529</ele>
        <time>2024-01-23T20:50:50Z</time>
      </trkpt>
      <trkpt lat="48.24969" lon="7.35098">
        <ele>521</ele>
        <time>2024-01-23T20:50:57Z</time>
      </trkpt>
      <trkpt lat="48.24953" lon="7.35106">
        <ele>519</ele>
        <time>2024-01-23T20:51:00Z</time>
      </trkpt>
      <trkpt lat="48.24878" lon="7.35124">
        <ele>517</ele>
        <time>2024-01-23T20:51:13Z</time>
      </trkpt>
      <trkpt lat="48.24866" lon="7.35133">
        <ele>516</ele>
        <time>2024-01-23T20:51:15Z</time>
      </trkpt>
      <trkpt lat="48.24859" lon="7.35141">
        <ele>515</ele>
        <time>2024-01-23T20:51:17Z</time>
      </trkpt>
      <trkpt lat="48.24857" lon="7.35147">
        <ele>514</ele>
        <time>2024-01-23T20:51:18Z</time>
      </trkpt>
      <trkpt lat="48.24856" lon="7.35167">
        <ele>510</ele>
        <time>2024-01-23T20:51:20Z</time>
      </trkpt>
      <trkpt lat="48.24862" lon="7.35312">
        <ele>495</ele>
        <time>2024-01-23T20:51:37Z</time>
      </trkpt>
      <trkpt lat="48.24859" lon="7.35398">
        <ele>488</ele>
        <time>2024-01-23T20:51:48Z</time>
      </trkpt>
      <trkpt lat="48.2486" lon="7.35436">
        <ele>485</ele>
        <time>2024-01-23T20:51:52Z</time>
      </trkpt>
      <trkpt lat="48.24878" lon="7.35599">
        <ele>479</ele>
        <time>2024-01-23T20:52:12Z</time>
      </trkpt>
      <trkpt lat="48.24878" lon="7.35649">
        <ele>479</ele>
        <time>2024-01-23T20:52:18Z</time>
      </trkpt>
      <trkpt lat="48.24871" lon="7.35713">
        <ele>479</ele>
        <time>2024-01-23T20:52:25Z</time>
      </trkpt>
      <trkpt lat="48.24846" lon="7.35793">
        <ele>482</ele>
        <time>2024-01-23T20:52:36Z</time>
      </trkpt>
      <trkpt lat="48.24844" lon="7.35802">
        <ele>481</ele>
        <time>2024-01-23T20:52:37Z</time>
      </trkpt>
      <trkpt lat="48.24845" lon="7.35809">
        <ele>481</ele>
        <time>2024-01-23T20:52:38Z</time>
      </trkpt>
      <trkpt lat="48.2485" lon="7.35822">
        <ele>478</ele>
        <time>2024-01-23T20:52:40Z</time>
      </trkpt>
      <trkpt lat="48.24856" lon="7.35827">
        <ele>476</ele>
        <time>2024-01-23T20:52:41Z</time>
      </trkpt>
      <trkpt lat="48.24865" lon="7.35826">
        <ele>473</ele>
        <time>2024-01-23T20:52:42Z</time>
      </trkpt>
      <trkpt lat="48.24874" lon="7.35818">
        <ele>471</ele>
        <time>2024-01-23T20:52:44Z</time>
      </trkpt>
      <trkpt lat="48.24877" lon="7.35812">
        <ele>471</ele>
        <time>2024-01-23T20:52:45Z</time>
      </trkpt>
      <trkpt lat="48.24917" lon="7.35662">
        <ele>468</ele>
        <time>2024-01-23T20:53:04Z</time>
      </trkpt>
      <trkpt lat="48.24931" lon="7.35639">
        <ele>467</ele>
        <time>2024-01-23T20:53:08Z</time>
      </trkpt>
      <trkpt lat="48.24955" lon="7.3563">
        <ele>463</ele>
        <time>2024-01-23T20:53:12Z</time>
      </trkpt>
      <trkpt lat="48.24975" lon="7.35636">
        <ele>458</ele>
        <time>2024-01-23T20:53:16Z</time>
      </trkpt>
      <trkpt lat="48.25039" lon="7.35686">
        <ele>448</ele>
        <time>2024-01-23T20:53:29Z</time>
      </trkpt>
      <trkpt lat="48.25051" lon="7.35698">
        <ele>447</ele>
        <time>2024-01-23T20:53:31Z</time>
      </trkpt>
      <trkpt lat="48.25062" lon="7.35714">
        <ele>447</ele>
        <time>2024-01-23T20:53:34Z</time>
      </trkpt>
      <trkpt lat="48.25071" lon="7.35737">
        <ele>447</ele>
        <time>2024-01-23T20:53:37Z</time>
      </trkpt>
      <trkpt lat="48.25094" lon="7.35815">
        <ele>444</ele>
        <time>2024-01-23T20:53:47Z</time>
      </trkpt>
      <trkpt lat="48.25109" lon="7.35853">
        <ele>442</ele>
        <time>2024-01-23T20:53:53Z</time>
      </trkpt>
      <trkpt lat="48.25174" lon="7.35963">
        <ele>445</ele>
        <time>2024-01-23T20:54:10Z</time>
      </trkpt>
      <trkpt lat="48.25247" lon="7.3608">
        <ele>440</ele>
        <time>2024-01-23T20:54:29Z</time>
      </trkpt>
      <trkpt lat="48.25259" lon="7.36104">
        <ele>439</ele>
        <time>2024-01-23T20:54:33Z</time>
      </trkpt>
      <trkpt lat="48.25478" lon="7.36624">
        <ele>412</ele>
        <time>2024-01-23T20:55:45Z</time>
      </trkpt>
      <trkpt lat="48.25489" lon="7.36644">
        <ele>410</ele>
        <time>2024-01-23T20:55:49Z</time>
      </trkpt>
      <trkpt lat="48.25629" lon="7.36839">
        <ele>396</ele>
        <time>2024-01-23T20:56:23Z</time>
      </trkpt>
      <trkpt lat="48.25739" lon="7.36978">
        <ele>391</ele>
        <time>2024-01-23T20:56:48Z</time>
      </trkpt>
      <trkpt lat="48.25753" lon="7.3701">
        <ele>390</ele>
        <time>2024-01-23T20:56:53Z</time>
      </trkpt>
      <trkpt lat="48.25763" lon="7.3705">
        <ele>389</ele>
        <time>2024-01-23T20:56:58Z</time>
      </trkpt>
      <trkpt lat="48.25791" lon="7.3733">
        <ele>373</ele>
        <time>2024-01-23T20:57:31Z</time>
      </trkpt>
      <trkpt lat="48.25814" lon="7.37529">
        <ele>364</ele>
        <time>2024-01-23T20:57:55Z</time>
      </trkpt>
      <trkpt lat="48.2583" lon="7.37616">
        <ele>364</ele>
        <time>2024-01-23T20:58:06Z</time>
      </trkpt>
      <trkpt lat="48.2583" lon="7.37628">
        <ele>364</ele>
        <time>2024-01-23T20:58:07Z</time>
      </trkpt>
      <trkpt lat="48.2582" lon="7.37652">
        <ele>360</ele>
        <time>2024-01-23T20:58:11Z</time>
      </trkpt>
      <trkpt lat="48.25795" lon="7.37683">
        <ele>354</ele>
        <time>2024-01-23T20:58:16Z</time>
      </trkpt>
      <trkpt lat="48.25779" lon="7.37714">
        <ele>351</ele>
        <time>2024-01-23T20:58:21Z</time>
      </trkpt>
      <trkpt lat="48.25769" lon="7.37744">
        <ele>350</ele>
        <time>2024-01-23T20:58:25Z</time>
      </trkpt>
      <trkpt lat="48.25746" lon="7.37853">
        <ele>346</ele>
        <time>2024-01-23T20:58:39Z</time>
      </trkpt>
      <trkpt lat="48.25726" lon="7.37932">
        <ele>339</ele>
        <time>2024-01-23T20:58:49Z</time>
      </trkpt>
      <trkpt lat="48.25719" lon="7.3795">
        <ele>337</ele>
        <time>2024-01-23T20:58:51Z</time>
      </trkpt>
      <trkpt lat="48.25713" lon="7.3796">
        <ele>335</ele>
        <time>2024-01-23T20:58:53Z</time>
      </trkpt>
      <trkpt lat="48.25706" lon="7.37963">
        <ele>334</ele>
        <time>2024-01-23T20:58:54Z</time>
      </trkpt>
      <trkpt lat="48.25699" lon="7.37963">
        <ele>333</ele>
        <time>2024-01-23T20:58:55Z</time>
      </trkpt>
      <trkpt lat="48.25692" lon="7.37958">
        <ele>332</ele>
        <time>2024-01-23T20:58:57Z</time>
      </trkpt>
      <trkpt lat="48.25689" lon="7.3795">
        <ele>332</ele>
        <time>2024-01-23T20:58:58Z</time>
      </trkpt>
      <trkpt lat="48.25689" lon="7.3793">
        <ele>333</ele>
        <time>2024-01-23T20:59:00Z</time>
      </trkpt>
      <trkpt lat="48.25707" lon="7.37877">
        <ele>336</ele>
        <time>2024-01-23T20:59:07Z</time>
      </trkpt>
      <trkpt lat="48.25713" lon="7.37843">
        <ele>338</ele>
        <time>2024-01-23T20:59:11Z</time>
      </trkpt>
      <trkpt lat="48.25713" lon="7.37716">
        <ele>340</ele>
        <time>2024-01-23T20:59:26Z</time>
      </trkpt>
      <trkpt lat="48.25711" lon="7.37686">
        <ele>341</ele>
        <time>2024-01-23T20:59:30Z</time>
      </trkpt>
      <trkpt lat="48.25707" lon="7.37657">
        <ele>342</ele>
        <time>2024-01-23T20:59:33Z</time>
      </trkpt>
      <trkpt lat="48.25702" lon="7.37638">
        <ele>343</ele>
        <time>2024-01-23T20:59:36Z</time>
      </trkpt>
      <trkpt lat="48.25697" lon="7.37629">
        <ele>343</ele>
        <time>2024-01-23T20:59:37Z</time>
      </trkpt>
      <trkpt lat="48.25691" lon="7.37626">
        <ele>344</ele>
        <time>2024-01-23T20:59:38Z</time>
      </trkpt>
      <trkpt lat="48.25684" lon="7.37626">
        <ele>344</ele>
        <time>2024-01-23T20:59:40Z</time>
      </trkpt>
      <trkpt lat="48.25679" lon="7.37629">
        <ele>344</ele>
        <time>2024-01-23T20:59:41Z</time>
      </trkpt>
      <trkpt lat="48.25672" lon="7.37637">
        <ele>344</ele>
        <time>2024-01-23T20:59:42Z</time>
      </trkpt>
      <trkpt lat="48.25663" lon="7.37665">
        <ele>343</ele>
        <time>2024-01-23T20:59:46Z</time>
      </trkpt>
      <trkpt lat="48.25655" lon="7.37708">
        <ele>338</ele>
        <time>2024-01-23T20:59:51Z</time>
      </trkpt>
      <trkpt lat="48.25634" lon="7.37778">
        <ele>331</ele>
        <time>2024-01-23T21:00:00Z</time>
      </trkpt>
      <trkpt lat="48.2562" lon="7.37807">
        <ele>328</ele>
        <time>2024-01-23T21:00:04Z</time>
      </trkpt>
      <trkpt lat="48.25606" lon="7.37827">
        <ele>325</ele>
        <time>2024-01-23T21:00:08Z</time>
      </trkpt>
      <trkpt lat="48.25588" lon="7.37847">
        <ele>323</ele>
        <time>2024-01-23T21:00:12Z</time>
      </trkpt>
      <trkpt lat="48.25573" lon="7.37873">
        <ele>323</ele>
        <time>2024-01-23T21:00:16Z</time>
      </trkpt>
      <trkpt lat="48.25556" lon="7.37929">
        <ele>323</ele>
        <time>2024-01-23T21:00:23Z</time>
      </trkpt>
      <trkpt lat="48.25541" lon="7.38018">
        <ele>322</ele>
        <time>2024-01-23T21:00:34Z</time>
      </trkpt>
      <trkpt lat="48.25529" lon="7.38142">
        <ele>315</ele>
        <time>2024-01-23T21:00:49Z</time>
      </trkpt>
      <trkpt lat="48.25521" lon="7.38179">
        <ele>312</ele>
        <time>2024-01-23T21:00:53Z</time>
      </trkpt>
      <trkpt lat="48.25501" lon="7.38239">
        <ele>308</ele>
        <time>2024-01-23T21:01:01Z</time>
      </trkpt>
      <trkpt lat="48.25483" lon="7.38304">
        <ele>306</ele>
        <time>2024-01-23T21:01:10Z</time>
      </trkpt>
      <trkpt lat="48.2548" lon="7.38329">
        <ele>304</ele>
        <time>2024-01-23T21:01:13Z</time>
      </trkpt>
      <trkpt lat="48.2548" lon="7.38374">
        <ele>298</ele>
        <time>2024-01-23T21:01:18Z</time>
      </trkpt>
      <trkpt lat="48.25477" lon="7.38399">
        <ele>295</ele>
        <time>2024-01-23T21:01:21Z</time>
      </trkpt>
      <trkpt lat="48.25461" lon="7.38447">
        <ele>295</ele>
        <time>2024-01-23T21:01:27Z</time>
      </trkpt>
      <trkpt lat="48.25416" lon="7.38564">
        <ele>294</ele>
        <time>2024-01-23T21:01:43Z</time>
      </trkpt>
      <trkpt lat="48.25413" lon="7.38576">
        <ele>293</ele>
        <time>2024-01-23T21:01:45Z</time>
      </trkpt>
      <trkpt lat="48.25415" lon="7.38587">
        <ele>291</ele>
        <time>2024-01-23T21:01:46Z</time>
      </trkpt>
      <trkpt lat="48.25421" lon="7.38594">
        <ele>289</ele>
        <time>2024-01-23T21:01:48Z</time>
      </trkpt>
      <trkpt lat="48.25427" lon="7.38595">
        <ele>288</ele>
        <time>2024-01-23T21:01:49Z</time>
      </trkpt>
      <trkpt lat="48.25434" lon="7.38591">
        <ele>287</ele>
        <time>2024-01-23T21:01:50Z</time>
      </trkpt>
      <trkpt lat="48.2544" lon="7.38582">
        <ele>286</ele>
        <time>2024-01-23T21:01:52Z</time>
      </trkpt>
      <trkpt lat="48.25454" lon="7.38534">
        <ele>288</ele>
        <time>2024-01-23T21:01:58Z</time>
      </trkpt>
      <trkpt lat="48.25466" lon="7.38509">
        <ele>286</ele>
        <time>2024-01-23T21:02:01Z</time>
      </trkpt>
      <trkpt lat="48.25499" lon="7.38457">
        <ele>281</ele>
        <time>2024-01-23T21:02:10Z</time>
      </trkpt>
      <trkpt lat="48.25508" lon="7.3845">
        <ele>282</ele>
        <time>2024-01-23T21:02:12Z</time>
      </trkpt>
      <trkpt lat="48.25519" lon="7.38455">
        <ele>283</ele>
        <time>2024-01-23T21:02:14Z</time>
      </trkpt>
      <trkpt lat="48.25526" lon="7.38467">
        <ele>283</ele>
        <time>2024-01-23T21:02:16Z</time>
      </trkpt>
      <trkpt lat="48.2553" lon="7.38483">
        <ele>283</ele>
        <time>2024-01-23T21:02:18Z</time>
      </trkpt>
      <trkpt lat="48.25529" lon="7.38498">
        <ele>282</ele>
        <time>2024-01-23T21:02:20Z</time>
      </trkpt>
      <trkpt lat="48.25506" lon="7.38566">
        <ele>275</ele>
        <time>2024-01-23T21:02:29Z</time>
      </trkpt>
      <trkpt lat="48.25486" lon="7.38664">
        <ele>274</ele>
        <time>2024-01-23T21:02:41Z</time>
      </trkpt>
      <trkpt lat="48.25478" lon="7.38741">
        <ele>264</ele>
        <time>2024-01-23T21:02:50Z</time>
      </trkpt>
      <trkpt lat="48.25476" lon="7.38778">
        <ele>257</ele>
        <time>2024-01-23T21:02:54Z</time>
      </trkpt>
      <trkpt lat="48.25482" lon="7.38817">
        <ele>250</ele>
        <time>2024-01-23T21:02:59Z</time>
      </trkpt>
      <trkpt lat="48.25499" lon="7.38857">
        <ele>242</ele>
        <time>2024-01-23T21:03:05Z</time>
      </trkpt>
      <trkpt lat="48.2552" lon="7.38893">
        <ele>239</ele>
        <time>2024-01-23T21:03:10Z</time>
      </trkpt>
      <trkpt lat="48.2555" lon="7.38931">
        <ele>236</ele>
        <time>2024-01-23T21:03:17Z</time>
      </trkpt>
      <trkpt lat="48.25574" lon="7.38948">
        <ele>237</ele>
        <time>2024-01-23T21:03:22Z</time>
      </trkpt>
      <trkpt lat="48.25607" lon="7.38964">
        <ele>235</ele>
        <time>2024-01-23T21:03:28Z</time>
      </trkpt>
      <trkpt lat="48.25614" lon="7.38971">
        <ele>234</ele>
        <time>2024-01-23T21:03:30Z</time>
      </trkpt>
      <trkpt lat="48.2562" lon="7.3898">
        <ele>233</ele>
        <time>2024-01-23T21:03:31Z</time>
      </trkpt>
      <trkpt lat="48.25627" lon="7.39004">
        <ele>231</ele>
        <time>2024-01-23T21:03:34Z</time>
      </trkpt>
      <trkpt lat="48.25628" lon="7.39054">
        <ele>229</ele>
        <time>2024-01-23T21:03:40Z</time>
      </trkpt>
      <trkpt lat="48.25639" lon="7.39187">
        <ele>223</ele>
        <time>2024-01-23T21:03:56Z</time>
      </trkpt>
      <trkpt lat="48.25639" lon="7.39221">
        <ele>221</ele>
        <time>2024-01-23T21:04:00Z</time>
      </trkpt>
      <trkpt lat="48.25617" lon="7.39296">
        <ele>218</ele>
        <time>2024-01-23T21:04:10Z</time>
      </trkpt>
      <trkpt lat="48.25599" lon="7.39348">
        <ele>216</ele>
        <time>2024-01-23T21:04:17Z</time>
      </trkpt>
      <trkpt lat="48.25542" lon="7.39468">
        <ele>210</ele>
        <time>2024-01-23T21:04:34Z</time>
      </trkpt>
      <trkpt lat="48.25513" lon="7.39522">
        <ele>208</ele>
        <time>2024-01-23T21:04:43Z</time>
      </trkpt>
      <trkpt lat="48.2548" lon="7.39522">
        <ele>208</ele>
        <time>2024-01-23T21:04:48Z</time>
      </trkpt>
      <trkpt lat="48.25472" lon="7.39539">
        <ele>207</ele>
        <time>2024-01-23T21:04:51Z</time>
      </trkpt>
      <trkpt lat="48.25413" lon="7.39701">
        <ele>201</ele>
        <time>2024-01-23T21:05:13Z</time>
      </trkpt>
      <trkpt lat="48.25356" lon="7.39877">
        <ele>197</ele>
        <time>2024-01-23T21:05:36Z</time>
      </trkpt>
      <trkpt lat="48.25372" lon="7.39887">
        <ele>197</ele>
        <time>2024-01-23T21:05:39Z</time>
      </trkpt>
      <trkpt lat="48.25448" lon="7.39921">
        <ele>197</ele>
        <time>2024-01-23T21:05:53Z</time>
      </trkpt>
      <trkpt lat="48.25507" lon="7.39937">
        <ele>195</ele>
        <time>2024-01-23T21:06:04Z</time>
      </trkpt>
      <trkpt lat="48.25584" lon="7.39946">
        <ele>195</ele>
        <time>2024-01-23T21:06:18Z</time>
      </trkpt>
      <trkpt lat="48.25623" lon="7.39943">
        <ele>195</ele>
        <time>2024-01-23T21:06:24Z</time>
      </trkpt>
      <trkpt lat="48.25645" lon="7.39946">
        <ele>194</ele>
        <time>2024-01-23T21:06:28Z</time>
      </trkpt>
      <trkpt lat="48.25759" lon="7.39997">
        <ele>194</ele>
        <time>2024-01-23T21:06:50Z</time>
      </trkpt>
      <trkpt lat="48.25803" lon="7.40024">
        <ele>195</ele>
        <time>2024-01-23T21:06:58Z</time>
      </trkpt>
      <trkpt lat="48.25842" lon="7.40055">
        <ele>196</ele>
        <time>2024-01-23T21:07:06Z</time>
      </trkpt>
      <trkpt lat="48.25889" lon="7.40103">
        <ele>195</ele>
        <time>2024-01-23T21:07:16Z</time>
      </trkpt>
      <trkpt lat="48.25984" lon="7.40317">
        <ele>190</ele>
        <time>2024-01-23T21:07:46Z</time>
      </trkpt>
      <trkpt lat="48.26019" lon="7.40379">
        <ele>189</ele>
        <time>2024-01-23T21:07:56Z</time>
      </trkpt>
      <trkpt lat="48.26049" lon="7.40421">
        <ele>188</ele>
        <time>2024-01-23T21:08:03Z</time>
      </trkpt>
      <trkpt lat="48.26076" lon="7.40433">
        <ele>188</ele>
        <time>2024-01-23T21:08:08Z</time>
      </trkpt>
      <trkpt lat="48.26085" lon="7.4044">
        <ele>187</ele>
        <time>2024-01-23T21:08:10Z</time>
      </trkpt>
      <trkpt lat="48.2609" lon="7.40451">
        <ele>187</ele>
        <time>2024-01-23T21:08:12Z</time>
      </trkpt>
      <trkpt lat="48.26094" lon="7.40476">
        <ele>186</ele>
        <time>2024-01-23T21:08:15Z</time>
      </trkpt>
      <trkpt lat="48.26105" lon="7.40487">
        <ele>186</ele>
        <time>2024-01-23T21:08:17Z</time>
      </trkpt>
      <trkpt lat="48.26114" lon="7.40493">
        <ele>185</ele>
        <time>2024-01-23T21:08:19Z</time>
      </trkpt>
      <trkpt lat="48.26144" lon="7.40503">
        <ele>184</ele>
        <time>2024-01-23T21:08:24Z</time>
      </trkpt>
      <trkpt lat="48.26174" lon="7.40505">
        <ele>184</ele>
        <time>2024-01-23T21:08:30Z</time>
      </trkpt>
      <trkpt lat="48.26322" lon="7.405">
        <ele>182</ele>
        <time>2024-01-23T21:08:56Z</time>
      </trkpt>
      <trkpt lat="48.26344" lon="7.40505">
        <ele>182</ele>
        <time>2024-01-23T21:09:00Z</time>
      </trkpt>
      <trkpt lat="48.26365" lon="7.40514">
        <ele>183</ele>
        <time>2024-01-23T21:09:04Z</time>
      </trkpt>
      <trkpt lat="48.26381" lon="7.40527">
        <ele>183</ele>
        <time>2024-01-23T21:09:07Z</time>
      </trkpt>
      <trkpt lat="48.26424" lon="7.40593">
        <ele>183</ele>
        <time>2024-01-23T21:09:18Z</time>
      </trkpt>
      <trkpt lat="48.26458" lon="7.4063">
        <ele>183</ele>
        <time>2024-01-23T21:09:26Z</time>
      </trkpt>
      <trkpt lat="48.26467" lon="7.40627">
        <ele>184</ele>
        <time>2024-01-23T21:09:27Z</time>
      </trkpt>
      <trkpt lat="48.26473" lon="7.40645">
        <ele>184</ele>
        <time>2024-01-23T21:09:30Z</time>
      </trkpt>
      <trkpt lat="48.2648" lon="7.40654">
        <ele>184</ele>
        <time>2024-01-23T21:09:31Z</time>
      </trkpt>
      <trkpt lat="48.26493" lon="7.40665">
        <ele>184</ele>
        <time>2024-01-23T21:09:34Z</time>
      </trkpt>
      <trkpt lat="48.26521" lon="7.40677">
        <ele>184</ele>
        <time>2024-01-23T21:09:39Z</time>
      </trkpt>
      <trkpt lat="48.2654" lon="7.40679">
        <ele>183</ele>
        <time>2024-01-23T21:09:42Z</time>
      </trkpt>
      <trkpt lat="48.26681" lon="7.4066">
        <ele>184</ele>
        <time>2024-01-23T21:10:08Z</time>
      </trkpt>
      <trkpt lat="48.26699" lon="7.40652">
        <ele>185</ele>
        <time>2024-01-23T21:10:11Z</time>
      </trkpt>
      <trkpt lat="48.26703" lon="7.40659">
        <ele>185</ele>
        <time>2024-01-23T21:10:12Z</time>
      </trkpt>
      <trkpt lat="48.2671" lon="7.40658">
        <ele>185</ele>
        <time>2024-01-23T21:10:13Z</time>
      </trkpt>
      <trkpt lat="48.26713" lon="7.40649">
        <ele>185</ele>
        <time>2024-01-23T21:10:15Z</time>
      </trkpt>
      <trkpt lat="48.26744" lon="7.40646">
        <ele>186</ele>
        <time>2024-01-23T21:10:20Z</time>
      </trkpt>
      <trkpt lat="48.26814" lon="7.4065">
        <ele>185</ele>
        <time>2024-01-23T21:10:33Z</time>
      </trkpt>
      <trkpt lat="48.26826" lon="7.40658">
        <ele>185</ele>
        <time>2024-01-23T21:10:35Z</time>
      </trkpt>
      <trkpt lat="48.26847" lon="7.4066">
        <ele>185</ele>
        <time>2024-01-23T21:10:39Z</time>
      </trkpt>
      <trkpt lat="48.26853" lon="7.40665">
        <ele>185</ele>
        <time>2024-01-23T21:10:40Z</time>
      </trkpt>
      <trkpt lat="48.26875" lon="7.40669">
        <ele>185</ele>
        <time>2024-01-23T21:10:44Z</time>
      </trkpt>
      <trkpt lat="48.26981" lon="7.40701">
        <ele>186</ele>
        <time>2024-01-23T21:11:03Z</time>
      </trkpt>
      <trkpt lat="48.27009" lon="7.40714">
        <ele>186</ele>
        <time>2024-01-23T21:11:08Z</time>
      </trkpt>
      <trkpt lat="48.27075" lon="7.40582">
        <ele>185</ele>
        <time>2024-01-23T21:11:28Z</time>
      </trkpt>
      <trkpt lat="48.27109" lon="7.40493">
        <ele>186</ele>
        <time>2024-01-23T21:11:40Z</time>
      </trkpt>
      <trkpt lat="48.2713" lon="7.40412">
        <ele>187</ele>
        <time>2024-01-23T21:11:50Z</time>
      </trkpt>
      <trkpt lat="48.27146" lon="7.40326">
        <ele>187</ele>
        <time>2024-01-23T21:12:01Z</time>
      </trkpt>
      <trkpt lat="48.27195" lon="7.40197">
        <ele>188</ele>
        <time>2024-01-23T21:12:18Z</time>
      </trkpt>
      <trkpt lat="48.27201" lon="7.40187">
        <ele>188</ele>
        <time>2024-01-23T21:12:20Z</time>
      </trkpt>
      <trkpt lat="48.2721" lon="7.40179">
        <ele>188</ele>
        <time>2024-01-23T21:12:22Z</time>
      </trkpt>
      <trkpt lat="48.27201" lon="7.40156">
        <ele>189</ele>
        <time>2024-01-23T21:12:25Z</time>
      </trkpt>
      <trkpt lat="48.27218" lon="7.40149">
        <ele>189</ele>
        <time>2024-01-23T21:12:28Z</time>
      </trkpt>
      <trkpt lat="48.27288" lon="7.40107">
        <ele>190</ele>
        <time>2024-01-23T21:12:42Z</time>
      </trkpt>
      <trkpt lat="48.27319" lon="7.40092">
        <ele>189</ele>
        <time>2024-01-23T21:12:47Z</time>
      </trkpt>
      <trkpt lat="48.27362" lon="7.4008">
        <ele>189</ele>
        <time>2024-01-23T21:12:55Z</time>
      </trkpt>
      <trkpt lat="48.27368" lon="7.40074">
        <ele>190</ele>
        <time>2024-01-23T21:12:56Z</time>
      </trkpt>
      <trkpt lat="48.27372" lon="7.40064">
        <ele>190</ele>
        <time>2024-01-23T21:12:58Z</time>
      </trkpt>
      <trkpt lat="48.27379" lon="7.39979">
        <ele>191</ele>
        <time>2024-01-23T21:13:08Z</time>
      </trkpt>
      <trkpt lat="48.27392" lon="7.39934">
        <ele>192</ele>
        <time>2024-01-23T21:13:14Z</time>
      </trkpt>
      <trkpt lat="48.27457" lon="7.39955">
        <ele>190</ele>
        <time>2024-01-23T21:13:26Z</time>
      </trkpt>
      <trkpt lat="48.27502" lon="7.39741">
        <ele>190</ele>
        <time>2024-01-23T21:13:52Z</time>
      </trkpt>
      <trkpt lat="48.2751" lon="7.39686">
        <ele>189</ele>
        <time>2024-01-23T21:13:59Z</time>
      </trkpt>
    </trkseg>
  </trk>
</gpx>